<?xml version="1.0" encoding="UTF-8" standalone="no" ?>
<gpx xmlns="http://www.topografix.com/GPX/1/1" xmlns:xsi="http://www.w3.org/2001/XMLSchema-instance" xsi:schemaLocation="http://www.topografix.com/GPX/1/1 http://www.topografix.com/GPX/1/1/gpx.xsd" version="1.1" creator="VisuGPX - https://www.visugpx.com">
  <metadata>
    <name>PIC DU MIDI</name>
    <desc><![CDATA[Très belle rando .Bonne condition physique nécessaire.]]></desc>
  </metadata>
  <trk>
    <name><![CDATA[Pic Du Midi]]></name>
    <trkseg>
      <trkpt lat="42.9297" lon="0.20364">
        <ele>1202.4000244141</ele>
        <time>2014-08-31T05:50:11.000Z</time>
      </trkpt>
      <trkpt lat="42.92987" lon="0.20353">
        <ele>1202.5999755859</ele>
        <time>2014-08-31T05:50:25.000Z</time>
      </trkpt>
      <trkpt lat="42.93004" lon="0.20343">
        <ele>1205</ele>
        <time>2014-08-31T05:50:42.000Z</time>
      </trkpt>
      <trkpt lat="42.93021" lon="0.20336">
        <ele>1207</ele>
        <time>2014-08-31T05:50:56.000Z</time>
      </trkpt>
      <trkpt lat="42.93038" lon="0.20327">
        <ele>1209.1999511719</ele>
        <time>2014-08-31T05:51:11.000Z</time>
      </trkpt>
      <trkpt lat="42.93056" lon="0.20326">
        <ele>1213.8000488281</ele>
        <time>2014-08-31T05:51:29.000Z</time>
      </trkpt>
      <trkpt lat="42.93062" lon="0.20324">
        <ele>1215.8000488281</ele>
        <time>2014-08-31T05:51:35.000Z</time>
      </trkpt>
      <trkpt lat="42.93066" lon="0.20318">
        <ele>1218.4000244141</ele>
        <time>2014-08-31T05:51:41.000Z</time>
      </trkpt>
      <trkpt lat="42.93065" lon="0.20306">
        <ele>1221.5999755859</ele>
        <time>2014-08-31T05:52:04.000Z</time>
      </trkpt>
      <trkpt lat="42.93075" lon="0.20318">
        <ele>1220.8000488281</ele>
        <time>2014-08-31T05:52:24.000Z</time>
      </trkpt>
      <trkpt lat="42.93063" lon="0.20299">
        <ele>1223</ele>
        <time>2014-08-31T05:52:36.000Z</time>
      </trkpt>
      <trkpt lat="42.9305" lon="0.20281">
        <ele>1223.8000488281</ele>
        <time>2014-08-31T05:52:45.000Z</time>
      </trkpt>
      <trkpt lat="42.93037" lon="0.2026">
        <ele>1224.4000244141</ele>
        <time>2014-08-31T05:52:54.000Z</time>
      </trkpt>
      <trkpt lat="42.93023" lon="0.20242">
        <ele>1224.8000488281</ele>
        <time>2014-08-31T05:53:02.000Z</time>
      </trkpt>
      <trkpt lat="42.93007" lon="0.20228">
        <ele>1223.5999755859</ele>
        <time>2014-08-31T05:53:11.000Z</time>
      </trkpt>
      <trkpt lat="42.92989" lon="0.20218">
        <ele>1223.1999511719</ele>
        <time>2014-08-31T05:53:21.000Z</time>
      </trkpt>
      <trkpt lat="42.92977" lon="0.20207">
        <ele>1224.5999755859</ele>
        <time>2014-08-31T05:53:28.000Z</time>
      </trkpt>
      <trkpt lat="42.9297" lon="0.20203">
        <ele>1225.1999511719</ele>
        <time>2014-08-31T05:53:32.000Z</time>
      </trkpt>
      <trkpt lat="42.92954" lon="0.20189">
        <ele>1227.8000488281</ele>
        <time>2014-08-31T05:53:42.000Z</time>
      </trkpt>
      <trkpt lat="42.92937" lon="0.20181">
        <ele>1228.4000244141</ele>
        <time>2014-08-31T05:53:55.000Z</time>
      </trkpt>
      <trkpt lat="42.92923" lon="0.20172">
        <ele>1229.5999755859</ele>
        <time>2014-08-31T05:54:06.000Z</time>
      </trkpt>
      <trkpt lat="42.92911" lon="0.20167">
        <ele>1228.5999755859</ele>
        <time>2014-08-31T05:54:16.000Z</time>
      </trkpt>
      <trkpt lat="42.92896" lon="0.20155">
        <ele>1229.1999511719</ele>
        <time>2014-08-31T05:54:29.000Z</time>
      </trkpt>
      <trkpt lat="42.92882" lon="0.20151">
        <ele>1227.1999511719</ele>
        <time>2014-08-31T05:54:40.000Z</time>
      </trkpt>
      <trkpt lat="42.92876" lon="0.20145">
        <ele>1227.8000488281</ele>
        <time>2014-08-31T05:54:45.000Z</time>
      </trkpt>
      <trkpt lat="42.92867" lon="0.20121">
        <ele>1234</ele>
        <time>2014-08-31T05:54:55.000Z</time>
      </trkpt>
      <trkpt lat="42.92856" lon="0.201">
        <ele>1238</ele>
        <time>2014-08-31T05:55:07.000Z</time>
      </trkpt>
      <trkpt lat="42.92845" lon="0.20081">
        <ele>1242</ele>
        <time>2014-08-31T05:55:21.000Z</time>
      </trkpt>
      <trkpt lat="42.92833" lon="0.20061">
        <ele>1246</ele>
        <time>2014-08-31T05:55:33.000Z</time>
      </trkpt>
      <trkpt lat="42.92819" lon="0.20043">
        <ele>1248.5999755859</ele>
        <time>2014-08-31T05:55:46.000Z</time>
      </trkpt>
      <trkpt lat="42.92803" lon="0.20027">
        <ele>1249.1999511719</ele>
        <time>2014-08-31T05:55:59.000Z</time>
      </trkpt>
      <trkpt lat="42.92787" lon="0.2001">
        <ele>1250.1999511719</ele>
        <time>2014-08-31T05:56:08.000Z</time>
      </trkpt>
      <trkpt lat="42.92772" lon="0.19992">
        <ele>1251.4000244141</ele>
        <time>2014-08-31T05:56:16.000Z</time>
      </trkpt>
      <trkpt lat="42.9276" lon="0.19971">
        <ele>1254</ele>
        <time>2014-08-31T05:56:24.000Z</time>
      </trkpt>
      <trkpt lat="42.92746" lon="0.19952">
        <ele>1257</ele>
        <time>2014-08-31T05:56:32.000Z</time>
      </trkpt>
      <trkpt lat="42.92732" lon="0.19935">
        <ele>1259</ele>
        <time>2014-08-31T05:56:40.000Z</time>
      </trkpt>
      <trkpt lat="42.92718" lon="0.19919">
        <ele>1260.8000488281</ele>
        <time>2014-08-31T05:56:48.000Z</time>
      </trkpt>
      <trkpt lat="42.92707" lon="0.19899">
        <ele>1265.1999511719</ele>
        <time>2014-08-31T05:56:56.000Z</time>
      </trkpt>
      <trkpt lat="42.92703" lon="0.19875">
        <ele>1272.1999511719</ele>
        <time>2014-08-31T05:57:09.000Z</time>
      </trkpt>
      <trkpt lat="42.92703" lon="0.19851">
        <ele>1277.1999511719</ele>
        <time>2014-08-31T05:57:22.000Z</time>
      </trkpt>
      <trkpt lat="42.92704" lon="0.19843">
        <ele>1279.1999511719</ele>
        <time>2014-08-31T05:57:26.000Z</time>
      </trkpt>
      <trkpt lat="42.92714" lon="0.19822">
        <ele>1287.5999755859</ele>
        <time>2014-08-31T05:57:39.000Z</time>
      </trkpt>
      <trkpt lat="42.92724" lon="0.19804">
        <ele>1296.1999511719</ele>
        <time>2014-08-31T05:57:50.000Z</time>
      </trkpt>
      <trkpt lat="42.92718" lon="0.19803">
        <ele>1294.4000244141</ele>
        <time>2014-08-31T05:57:55.000Z</time>
      </trkpt>
      <trkpt lat="42.92704" lon="0.19806">
        <ele>1288.5999755859</ele>
        <time>2014-08-31T05:58:09.000Z</time>
      </trkpt>
      <trkpt lat="42.92693" lon="0.19788">
        <ele>1289.5999755859</ele>
        <time>2014-08-31T05:58:36.000Z</time>
      </trkpt>
      <trkpt lat="42.92693" lon="0.19762">
        <ele>1295.4000244141</ele>
        <time>2014-08-31T05:58:54.000Z</time>
      </trkpt>
      <trkpt lat="42.92695" lon="0.19737">
        <ele>1301.5999755859</ele>
        <time>2014-08-31T05:59:13.000Z</time>
      </trkpt>
      <trkpt lat="42.9269" lon="0.19713">
        <ele>1305.4000244141</ele>
        <time>2014-08-31T05:59:41.000Z</time>
      </trkpt>
      <trkpt lat="42.92681" lon="0.1969">
        <ele>1308.8000488281</ele>
        <time>2014-08-31T06:00:02.000Z</time>
      </trkpt>
      <trkpt lat="42.92682" lon="0.19667">
        <ele>1315.1999511719</ele>
        <time>2014-08-31T06:00:20.000Z</time>
      </trkpt>
      <trkpt lat="42.92687" lon="0.19644">
        <ele>1323.4000244141</ele>
        <time>2014-08-31T06:00:44.000Z</time>
      </trkpt>
      <trkpt lat="42.92684" lon="0.1962">
        <ele>1330.1999511719</ele>
        <time>2014-08-31T06:01:17.000Z</time>
      </trkpt>
      <trkpt lat="42.92681" lon="0.19614">
        <ele>1331</ele>
        <time>2014-08-31T06:01:22.000Z</time>
      </trkpt>
      <trkpt lat="42.92677" lon="0.19615">
        <ele>1329.4000244141</ele>
        <time>2014-08-31T06:01:26.000Z</time>
      </trkpt>
      <trkpt lat="42.92668" lon="0.19604">
        <ele>1332</ele>
        <time>2014-08-31T06:01:51.000Z</time>
      </trkpt>
      <trkpt lat="42.92658" lon="0.19583">
        <ele>1339.5999755859</ele>
        <time>2014-08-31T06:02:14.000Z</time>
      </trkpt>
      <trkpt lat="42.92643" lon="0.19569">
        <ele>1344.5999755859</ele>
        <time>2014-08-31T06:02:35.000Z</time>
      </trkpt>
      <trkpt lat="42.92631" lon="0.1956">
        <ele>1348</ele>
        <time>2014-08-31T06:03:01.000Z</time>
      </trkpt>
      <trkpt lat="42.92631" lon="0.19544">
        <ele>1353.8000488281</ele>
        <time>2014-08-31T06:03:23.000Z</time>
      </trkpt>
      <trkpt lat="42.92641" lon="0.19525">
        <ele>1358.8000488281</ele>
        <time>2014-08-31T06:03:44.000Z</time>
      </trkpt>
      <trkpt lat="42.92639" lon="0.19505">
        <ele>1364.1999511719</ele>
        <time>2014-08-31T06:04:08.000Z</time>
      </trkpt>
      <trkpt lat="42.92635" lon="0.1948">
        <ele>1370.8000488281</ele>
        <time>2014-08-31T06:04:25.000Z</time>
      </trkpt>
      <trkpt lat="42.92633" lon="0.19455">
        <ele>1377.1999511719</ele>
        <time>2014-08-31T06:04:46.000Z</time>
      </trkpt>
      <trkpt lat="42.92633" lon="0.1943">
        <ele>1381.5999755859</ele>
        <time>2014-08-31T06:05:08.000Z</time>
      </trkpt>
      <trkpt lat="42.92631" lon="0.19406">
        <ele>1387.1999511719</ele>
        <time>2014-08-31T06:05:27.000Z</time>
      </trkpt>
      <trkpt lat="42.92625" lon="0.19382">
        <ele>1393.4000244141</ele>
        <time>2014-08-31T06:05:44.000Z</time>
      </trkpt>
      <trkpt lat="42.92619" lon="0.1936">
        <ele>1397.4000244141</ele>
        <time>2014-08-31T06:06:00.000Z</time>
      </trkpt>
      <trkpt lat="42.92615" lon="0.19355">
        <ele>1398</ele>
        <time>2014-08-31T06:06:06.000Z</time>
      </trkpt>
      <trkpt lat="42.9261" lon="0.19346">
        <ele>1399.1999511719</ele>
        <time>2014-08-31T06:06:13.000Z</time>
      </trkpt>
      <trkpt lat="42.92605" lon="0.19344">
        <ele>1398.8000488281</ele>
        <time>2014-08-31T06:06:18.000Z</time>
      </trkpt>
      <trkpt lat="42.92586" lon="0.19341">
        <ele>1398</ele>
        <time>2014-08-31T06:06:47.000Z</time>
      </trkpt>
      <trkpt lat="42.92569" lon="0.19336">
        <ele>1401.1999511719</ele>
        <time>2014-08-31T06:07:08.000Z</time>
      </trkpt>
      <trkpt lat="42.92554" lon="0.19322">
        <ele>1405.8000488281</ele>
        <time>2014-08-31T06:07:29.000Z</time>
      </trkpt>
      <trkpt lat="42.92544" lon="0.19301">
        <ele>1411.1999511719</ele>
        <time>2014-08-31T06:07:51.000Z</time>
      </trkpt>
      <trkpt lat="42.92535" lon="0.19281">
        <ele>1413.8000488281</ele>
        <time>2014-08-31T06:08:04.000Z</time>
      </trkpt>
      <trkpt lat="42.9254" lon="0.19256">
        <ele>1413.5999755859</ele>
        <time>2014-08-31T06:08:18.000Z</time>
      </trkpt>
      <trkpt lat="42.92544" lon="0.19231">
        <ele>1418.8000488281</ele>
        <time>2014-08-31T06:08:28.000Z</time>
      </trkpt>
      <trkpt lat="42.92546" lon="0.19205">
        <ele>1426</ele>
        <time>2014-08-31T06:08:38.000Z</time>
      </trkpt>
      <trkpt lat="42.92552" lon="0.19181">
        <ele>1429.1999511719</ele>
        <time>2014-08-31T06:08:51.000Z</time>
      </trkpt>
      <trkpt lat="42.92557" lon="0.19157">
        <ele>1432.8000488281</ele>
        <time>2014-08-31T06:09:04.000Z</time>
      </trkpt>
      <trkpt lat="42.92563" lon="0.19132">
        <ele>1436.8000488281</ele>
        <time>2014-08-31T06:09:16.000Z</time>
      </trkpt>
      <trkpt lat="42.92569" lon="0.19107">
        <ele>1439.8000488281</ele>
        <time>2014-08-31T06:09:26.000Z</time>
      </trkpt>
      <trkpt lat="42.92572" lon="0.19079">
        <ele>1439.5999755859</ele>
        <time>2014-08-31T06:09:35.000Z</time>
      </trkpt>
      <trkpt lat="42.92577" lon="0.19055">
        <ele>1439.5999755859</ele>
        <time>2014-08-31T06:09:44.000Z</time>
      </trkpt>
      <trkpt lat="42.92577" lon="0.19027">
        <ele>1440.4000244141</ele>
        <time>2014-08-31T06:09:55.000Z</time>
      </trkpt>
      <trkpt lat="42.9257" lon="0.18998">
        <ele>1441</ele>
        <time>2014-08-31T06:10:05.000Z</time>
      </trkpt>
      <trkpt lat="42.92571" lon="0.18971">
        <ele>1442.5999755859</ele>
        <time>2014-08-31T06:10:17.000Z</time>
      </trkpt>
      <trkpt lat="42.92561" lon="0.18946">
        <ele>1445.5999755859</ele>
        <time>2014-08-31T06:10:26.000Z</time>
      </trkpt>
      <trkpt lat="42.92554" lon="0.18922">
        <ele>1450</ele>
        <time>2014-08-31T06:10:39.000Z</time>
      </trkpt>
      <trkpt lat="42.92553" lon="0.18904">
        <ele>1451.5999755859</ele>
        <time>2014-08-31T06:10:51.000Z</time>
      </trkpt>
      <trkpt lat="42.92545" lon="0.18881">
        <ele>1453.8000488281</ele>
        <time>2014-08-31T06:11:04.000Z</time>
      </trkpt>
      <trkpt lat="42.92542" lon="0.18857">
        <ele>1461.8000488281</ele>
        <time>2014-08-31T06:11:21.000Z</time>
      </trkpt>
      <trkpt lat="42.9254" lon="0.18852">
        <ele>1464</ele>
        <time>2014-08-31T06:11:24.000Z</time>
      </trkpt>
      <trkpt lat="42.92529" lon="0.1883">
        <ele>1472.1999511719</ele>
        <time>2014-08-31T06:11:38.000Z</time>
      </trkpt>
      <trkpt lat="42.92524" lon="0.18819">
        <ele>1476.4000244141</ele>
        <time>2014-08-31T06:11:46.000Z</time>
      </trkpt>
      <trkpt lat="42.92524" lon="0.18812">
        <ele>1478.8000488281</ele>
        <time>2014-08-31T06:11:50.000Z</time>
      </trkpt>
      <trkpt lat="42.92526" lon="0.18787">
        <ele>1485.8000488281</ele>
        <time>2014-08-31T06:12:10.000Z</time>
      </trkpt>
      <trkpt lat="42.92527" lon="0.18783">
        <ele>1487.4000244141</ele>
        <time>2014-08-31T06:12:14.000Z</time>
      </trkpt>
      <trkpt lat="42.92529" lon="0.18771">
        <ele>1492.4000244141</ele>
        <time>2014-08-31T06:12:24.000Z</time>
      </trkpt>
      <trkpt lat="42.92531" lon="0.18768">
        <ele>1493.1999511719</ele>
        <time>2014-08-31T06:12:29.000Z</time>
      </trkpt>
      <trkpt lat="42.92539" lon="0.18757">
        <ele>1496.4000244141</ele>
        <time>2014-08-31T06:12:44.000Z</time>
      </trkpt>
      <trkpt lat="42.92544" lon="0.18751">
        <ele>1498.5999755859</ele>
        <time>2014-08-31T06:12:50.000Z</time>
      </trkpt>
      <trkpt lat="42.92558" lon="0.18731">
        <ele>1496.5999755859</ele>
        <time>2014-08-31T06:13:12.000Z</time>
      </trkpt>
      <trkpt lat="42.92557" lon="0.18729">
        <ele>1497.1999511719</ele>
        <time>2014-08-31T06:13:13.000Z</time>
      </trkpt>
      <trkpt lat="42.92561" lon="0.1872">
        <ele>1497.5999755859</ele>
        <time>2014-08-31T06:13:18.000Z</time>
      </trkpt>
      <trkpt lat="42.92563" lon="0.18695">
        <ele>1505.8000488281</ele>
        <time>2014-08-31T06:13:34.000Z</time>
      </trkpt>
      <trkpt lat="42.92562" lon="0.1867">
        <ele>1513.5999755859</ele>
        <time>2014-08-31T06:13:48.000Z</time>
      </trkpt>
      <trkpt lat="42.92565" lon="0.18646">
        <ele>1514.8000488281</ele>
        <time>2014-08-31T06:14:09.000Z</time>
      </trkpt>
      <trkpt lat="42.92573" lon="0.18625">
        <ele>1513.5999755859</ele>
        <time>2014-08-31T06:14:36.000Z</time>
      </trkpt>
      <trkpt lat="42.92579" lon="0.186">
        <ele>1517.1999511719</ele>
        <time>2014-08-31T06:14:53.000Z</time>
      </trkpt>
      <trkpt lat="42.92585" lon="0.18587">
        <ele>1514.1999511719</ele>
        <time>2014-08-31T06:15:04.000Z</time>
      </trkpt>
      <trkpt lat="42.92597" lon="0.1857">
        <ele>1514.8000488281</ele>
        <time>2014-08-31T06:15:38.000Z</time>
      </trkpt>
      <trkpt lat="42.92597" lon="0.18566">
        <ele>1515.8000488281</ele>
        <time>2014-08-31T06:15:42.000Z</time>
      </trkpt>
      <trkpt lat="42.92602" lon="0.1856">
        <ele>1519.4000244141</ele>
        <time>2014-08-31T06:15:50.000Z</time>
      </trkpt>
      <trkpt lat="42.92614" lon="0.1854">
        <ele>1520</ele>
        <time>2014-08-31T06:16:06.000Z</time>
      </trkpt>
      <trkpt lat="42.92626" lon="0.18521">
        <ele>1528.4000244141</ele>
        <time>2014-08-31T06:16:18.000Z</time>
      </trkpt>
      <trkpt lat="42.92639" lon="0.18502">
        <ele>1532.8000488281</ele>
        <time>2014-08-31T06:16:30.000Z</time>
      </trkpt>
      <trkpt lat="42.9264" lon="0.18499">
        <ele>1531.8000488281</ele>
        <time>2014-08-31T06:16:32.000Z</time>
      </trkpt>
      <trkpt lat="42.92652" lon="0.18488">
        <ele>1524.1999511719</ele>
        <time>2014-08-31T06:16:42.000Z</time>
      </trkpt>
      <trkpt lat="42.92654" lon="0.18485">
        <ele>1523</ele>
        <time>2014-08-31T06:16:44.000Z</time>
      </trkpt>
      <trkpt lat="42.92673" lon="0.18477">
        <ele>1511.5999755859</ele>
        <time>2014-08-31T06:16:50.000Z</time>
      </trkpt>
      <trkpt lat="42.9268" lon="0.18472">
        <ele>1515</ele>
        <time>2014-08-31T06:16:53.000Z</time>
      </trkpt>
      <trkpt lat="42.92698" lon="0.18462">
        <ele>1521</ele>
        <time>2014-08-31T06:17:04.000Z</time>
      </trkpt>
      <trkpt lat="42.92714" lon="0.18452">
        <ele>1530.4000244141</ele>
        <time>2014-08-31T06:17:15.000Z</time>
      </trkpt>
      <trkpt lat="42.92732" lon="0.18443">
        <ele>1540</ele>
        <time>2014-08-31T06:17:27.000Z</time>
      </trkpt>
      <trkpt lat="42.9275" lon="0.18437">
        <ele>1542.5999755859</ele>
        <time>2014-08-31T06:17:40.000Z</time>
      </trkpt>
      <trkpt lat="42.92766" lon="0.18422">
        <ele>1543.4000244141</ele>
        <time>2014-08-31T06:17:55.000Z</time>
      </trkpt>
      <trkpt lat="42.92777" lon="0.18413">
        <ele>1545</ele>
        <time>2014-08-31T06:18:05.000Z</time>
      </trkpt>
      <trkpt lat="42.92783" lon="0.18403">
        <ele>1545.5999755859</ele>
        <time>2014-08-31T06:18:14.000Z</time>
      </trkpt>
      <trkpt lat="42.92786" lon="0.18395">
        <ele>1546</ele>
        <time>2014-08-31T06:18:19.000Z</time>
      </trkpt>
      <trkpt lat="42.92789" lon="0.18389">
        <ele>1546.4000244141</ele>
        <time>2014-08-31T06:18:22.000Z</time>
      </trkpt>
      <trkpt lat="42.92794" lon="0.18364">
        <ele>1549.4000244141</ele>
        <time>2014-08-31T06:18:33.000Z</time>
      </trkpt>
      <trkpt lat="42.92799" lon="0.18341">
        <ele>1554.5999755859</ele>
        <time>2014-08-31T06:18:44.000Z</time>
      </trkpt>
      <trkpt lat="42.92805" lon="0.18317">
        <ele>1557.1999511719</ele>
        <time>2014-08-31T06:18:59.000Z</time>
      </trkpt>
      <trkpt lat="42.92805" lon="0.18308">
        <ele>1557</ele>
        <time>2014-08-31T06:19:05.000Z</time>
      </trkpt>
      <trkpt lat="42.92806" lon="0.18298">
        <ele>1557.4000244141</ele>
        <time>2014-08-31T06:19:13.000Z</time>
      </trkpt>
      <trkpt lat="42.92816" lon="0.18276">
        <ele>1565.4000244141</ele>
        <time>2014-08-31T06:19:26.000Z</time>
      </trkpt>
      <trkpt lat="42.92823" lon="0.18264">
        <ele>1566.8000488281</ele>
        <time>2014-08-31T06:19:34.000Z</time>
      </trkpt>
      <trkpt lat="42.92828" lon="0.18241">
        <ele>1565.4000244141</ele>
        <time>2014-08-31T06:20:11.000Z</time>
      </trkpt>
      <trkpt lat="42.92832" lon="0.18215">
        <ele>1564</ele>
        <time>2014-08-31T06:20:19.000Z</time>
      </trkpt>
      <trkpt lat="42.92836" lon="0.18189">
        <ele>1565</ele>
        <time>2014-08-31T06:20:28.000Z</time>
      </trkpt>
      <trkpt lat="42.92841" lon="0.18174">
        <ele>1564.1999511719</ele>
        <time>2014-08-31T06:20:35.000Z</time>
      </trkpt>
      <trkpt lat="42.92838" lon="0.18165">
        <ele>1564.5999755859</ele>
        <time>2014-08-31T06:20:42.000Z</time>
      </trkpt>
      <trkpt lat="42.9284" lon="0.18157">
        <ele>1564</ele>
        <time>2014-08-31T06:20:46.000Z</time>
      </trkpt>
      <trkpt lat="42.92836" lon="0.18135">
        <ele>1565</ele>
        <time>2014-08-31T06:21:09.000Z</time>
      </trkpt>
      <trkpt lat="42.92835" lon="0.18111">
        <ele>1567.1999511719</ele>
        <time>2014-08-31T06:21:26.000Z</time>
      </trkpt>
      <trkpt lat="42.9283" lon="0.18089">
        <ele>1570.4000244141</ele>
        <time>2014-08-31T06:21:52.000Z</time>
      </trkpt>
      <trkpt lat="42.92828" lon="0.18065">
        <ele>1571.8000488281</ele>
        <time>2014-08-31T06:22:27.000Z</time>
      </trkpt>
      <trkpt lat="42.9283" lon="0.18055">
        <ele>1571.1999511719</ele>
        <time>2014-08-31T06:22:32.000Z</time>
      </trkpt>
      <trkpt lat="42.92839" lon="0.18041">
        <ele>1567.5999755859</ele>
        <time>2014-08-31T06:22:40.000Z</time>
      </trkpt>
      <trkpt lat="42.92841" lon="0.18031">
        <ele>1569.1999511719</ele>
        <time>2014-08-31T06:22:45.000Z</time>
      </trkpt>
      <trkpt lat="42.92849" lon="0.18009">
        <ele>1574</ele>
        <time>2014-08-31T06:22:57.000Z</time>
      </trkpt>
      <trkpt lat="42.92853" lon="0.17998">
        <ele>1576.4000244141</ele>
        <time>2014-08-31T06:23:05.000Z</time>
      </trkpt>
      <trkpt lat="42.92854" lon="0.17996">
        <ele>1576.8000488281</ele>
        <time>2014-08-31T06:23:07.000Z</time>
      </trkpt>
      <trkpt lat="42.92858" lon="0.17981">
        <ele>1580.1999511719</ele>
        <time>2014-08-31T06:23:17.000Z</time>
      </trkpt>
      <trkpt lat="42.9286" lon="0.17962">
        <ele>1580.1999511719</ele>
        <time>2014-08-31T06:23:29.000Z</time>
      </trkpt>
      <trkpt lat="42.92858" lon="0.17938">
        <ele>1585.8000488281</ele>
        <time>2014-08-31T06:23:47.000Z</time>
      </trkpt>
      <trkpt lat="42.92859" lon="0.17925">
        <ele>1588.4000244141</ele>
        <time>2014-08-31T06:23:56.000Z</time>
      </trkpt>
      <trkpt lat="42.92861" lon="0.17917">
        <ele>1589.5999755859</ele>
        <time>2014-08-31T06:24:02.000Z</time>
      </trkpt>
      <trkpt lat="42.92862" lon="0.1791">
        <ele>1590.8000488281</ele>
        <time>2014-08-31T06:24:07.000Z</time>
      </trkpt>
      <trkpt lat="42.92867" lon="0.17895">
        <ele>1592</ele>
        <time>2014-08-31T06:24:17.000Z</time>
      </trkpt>
      <trkpt lat="42.92879" lon="0.17876">
        <ele>1592.1999511719</ele>
        <time>2014-08-31T06:24:27.000Z</time>
      </trkpt>
      <trkpt lat="42.92888" lon="0.17854">
        <ele>1595.8000488281</ele>
        <time>2014-08-31T06:24:40.000Z</time>
      </trkpt>
      <trkpt lat="42.92894" lon="0.1783">
        <ele>1600.1999511719</ele>
        <time>2014-08-31T06:24:54.000Z</time>
      </trkpt>
      <trkpt lat="42.92898" lon="0.17818">
        <ele>1602.4000244141</ele>
        <time>2014-08-31T06:25:03.000Z</time>
      </trkpt>
      <trkpt lat="42.92904" lon="0.1781">
        <ele>1602.5999755859</ele>
        <time>2014-08-31T06:25:09.000Z</time>
      </trkpt>
      <trkpt lat="42.92904" lon="0.17809">
        <ele>1602.8000488281</ele>
        <time>2014-08-31T06:25:10.000Z</time>
      </trkpt>
      <trkpt lat="42.92909" lon="0.178">
        <ele>1603.4000244141</ele>
        <time>2014-08-31T06:25:18.000Z</time>
      </trkpt>
      <trkpt lat="42.92912" lon="0.17793">
        <ele>1604.8000488281</ele>
        <time>2014-08-31T06:25:23.000Z</time>
      </trkpt>
      <trkpt lat="42.92923" lon="0.17773">
        <ele>1605.5999755859</ele>
        <time>2014-08-31T06:25:35.000Z</time>
      </trkpt>
      <trkpt lat="42.92933" lon="0.17752">
        <ele>1607</ele>
        <time>2014-08-31T06:25:51.000Z</time>
      </trkpt>
      <trkpt lat="42.92939" lon="0.17728">
        <ele>1610.5999755859</ele>
        <time>2014-08-31T06:26:07.000Z</time>
      </trkpt>
      <trkpt lat="42.92945" lon="0.17706">
        <ele>1611.8000488281</ele>
        <time>2014-08-31T06:26:21.000Z</time>
      </trkpt>
      <trkpt lat="42.92948" lon="0.17684">
        <ele>1618</ele>
        <time>2014-08-31T06:26:34.000Z</time>
      </trkpt>
      <trkpt lat="42.92952" lon="0.17669">
        <ele>1621.1999511719</ele>
        <time>2014-08-31T06:26:43.000Z</time>
      </trkpt>
      <trkpt lat="42.92952" lon="0.17668">
        <ele>1621.5999755859</ele>
        <time>2014-08-31T06:26:44.000Z</time>
      </trkpt>
      <trkpt lat="42.92957" lon="0.17652">
        <ele>1623.8000488281</ele>
        <time>2014-08-31T06:26:55.000Z</time>
      </trkpt>
      <trkpt lat="42.92964" lon="0.17632">
        <ele>1624.1999511719</ele>
        <time>2014-08-31T06:27:08.000Z</time>
      </trkpt>
      <trkpt lat="42.92968" lon="0.17623">
        <ele>1624.1999511719</ele>
        <time>2014-08-31T06:27:15.000Z</time>
      </trkpt>
      <trkpt lat="42.92982" lon="0.17607">
        <ele>1621</ele>
        <time>2014-08-31T06:27:30.000Z</time>
      </trkpt>
      <trkpt lat="42.92994" lon="0.17588">
        <ele>1620.5999755859</ele>
        <time>2014-08-31T06:27:45.000Z</time>
      </trkpt>
      <trkpt lat="42.92997" lon="0.17575">
        <ele>1622.8000488281</ele>
        <time>2014-08-31T06:27:53.000Z</time>
      </trkpt>
      <trkpt lat="42.93001" lon="0.17564">
        <ele>1624.4000244141</ele>
        <time>2014-08-31T06:28:01.000Z</time>
      </trkpt>
      <trkpt lat="42.93004" lon="0.17549">
        <ele>1627.4000244141</ele>
        <time>2014-08-31T06:28:10.000Z</time>
      </trkpt>
      <trkpt lat="42.93009" lon="0.17524">
        <ele>1632.1999511719</ele>
        <time>2014-08-31T06:28:24.000Z</time>
      </trkpt>
      <trkpt lat="42.9301" lon="0.175">
        <ele>1638.5999755859</ele>
        <time>2014-08-31T06:28:38.000Z</time>
      </trkpt>
      <trkpt lat="42.93013" lon="0.17484">
        <ele>1641.8000488281</ele>
        <time>2014-08-31T06:28:48.000Z</time>
      </trkpt>
      <trkpt lat="42.93013" lon="0.17468">
        <ele>1646.5999755859</ele>
        <time>2014-08-31T06:28:57.000Z</time>
      </trkpt>
      <trkpt lat="42.93007" lon="0.17445">
        <ele>1653.1999511719</ele>
        <time>2014-08-31T06:29:09.000Z</time>
      </trkpt>
      <trkpt lat="42.93007" lon="0.17437">
        <ele>1654</ele>
        <time>2014-08-31T06:29:14.000Z</time>
      </trkpt>
      <trkpt lat="42.93001" lon="0.17415">
        <ele>1659</ele>
        <time>2014-08-31T06:29:35.000Z</time>
      </trkpt>
      <trkpt lat="42.92993" lon="0.17393">
        <ele>1664.8000488281</ele>
        <time>2014-08-31T06:29:55.000Z</time>
      </trkpt>
      <trkpt lat="42.92987" lon="0.17368">
        <ele>1669.1999511719</ele>
        <time>2014-08-31T06:30:12.000Z</time>
      </trkpt>
      <trkpt lat="42.92981" lon="0.17345">
        <ele>1672.1999511719</ele>
        <time>2014-08-31T06:30:28.000Z</time>
      </trkpt>
      <trkpt lat="42.92975" lon="0.1732">
        <ele>1673.4000244141</ele>
        <time>2014-08-31T06:30:44.000Z</time>
      </trkpt>
      <trkpt lat="42.92974" lon="0.17315">
        <ele>1673.4000244141</ele>
        <time>2014-08-31T06:30:47.000Z</time>
      </trkpt>
      <trkpt lat="42.92971" lon="0.173">
        <ele>1673.4000244141</ele>
        <time>2014-08-31T06:30:56.000Z</time>
      </trkpt>
      <trkpt lat="42.92966" lon="0.17277">
        <ele>1675.8000488281</ele>
        <time>2014-08-31T06:31:11.000Z</time>
      </trkpt>
      <trkpt lat="42.92957" lon="0.17255">
        <ele>1680.4000244141</ele>
        <time>2014-08-31T06:31:26.000Z</time>
      </trkpt>
      <trkpt lat="42.92948" lon="0.17234">
        <ele>1685.1999511719</ele>
        <time>2014-08-31T06:31:44.000Z</time>
      </trkpt>
      <trkpt lat="42.92935" lon="0.17222">
        <ele>1692.1999511719</ele>
        <time>2014-08-31T06:31:55.000Z</time>
      </trkpt>
      <trkpt lat="42.92926" lon="0.17201">
        <ele>1696.5999755859</ele>
        <time>2014-08-31T06:32:13.000Z</time>
      </trkpt>
      <trkpt lat="42.92926" lon="0.17199">
        <ele>1696.4000244141</ele>
        <time>2014-08-31T06:32:14.000Z</time>
      </trkpt>
      <trkpt lat="42.92927" lon="0.17192">
        <ele>1695.5999755859</ele>
        <time>2014-08-31T06:32:18.000Z</time>
      </trkpt>
      <trkpt lat="42.92928" lon="0.17182">
        <ele>1694.5999755859</ele>
        <time>2014-08-31T06:32:24.000Z</time>
      </trkpt>
      <trkpt lat="42.92928" lon="0.17178">
        <ele>1694.1999511719</ele>
        <time>2014-08-31T06:32:27.000Z</time>
      </trkpt>
      <trkpt lat="42.92928" lon="0.17168">
        <ele>1694</ele>
        <time>2014-08-31T06:32:33.000Z</time>
      </trkpt>
      <trkpt lat="42.92926" lon="0.17146">
        <ele>1694.5999755859</ele>
        <time>2014-08-31T06:32:48.000Z</time>
      </trkpt>
      <trkpt lat="42.92924" lon="0.17121">
        <ele>1694.8000488281</ele>
        <time>2014-08-31T06:33:04.000Z</time>
      </trkpt>
      <trkpt lat="42.92924" lon="0.1712">
        <ele>1695.1999511719</ele>
        <time>2014-08-31T06:33:07.000Z</time>
      </trkpt>
      <trkpt lat="42.92915" lon="0.17099">
        <ele>1698.8000488281</ele>
        <time>2014-08-31T06:33:24.000Z</time>
      </trkpt>
      <trkpt lat="42.92908" lon="0.17076">
        <ele>1701.4000244141</ele>
        <time>2014-08-31T06:33:43.000Z</time>
      </trkpt>
      <trkpt lat="42.92903" lon="0.17052">
        <ele>1703.5999755859</ele>
        <time>2014-08-31T06:34:00.000Z</time>
      </trkpt>
      <trkpt lat="42.92902" lon="0.17027">
        <ele>1712.5999755859</ele>
        <time>2014-08-31T06:34:19.000Z</time>
      </trkpt>
      <trkpt lat="42.92899" lon="0.17003">
        <ele>1719.1999511719</ele>
        <time>2014-08-31T06:34:36.000Z</time>
      </trkpt>
      <trkpt lat="42.92899" lon="0.16978">
        <ele>1721.1999511719</ele>
        <time>2014-08-31T06:34:55.000Z</time>
      </trkpt>
      <trkpt lat="42.92899" lon="0.16954">
        <ele>1724.8000488281</ele>
        <time>2014-08-31T06:35:12.000Z</time>
      </trkpt>
      <trkpt lat="42.929" lon="0.1695">
        <ele>1724.5999755859</ele>
        <time>2014-08-31T06:35:16.000Z</time>
      </trkpt>
      <trkpt lat="42.92901" lon="0.1694">
        <ele>1725.1999511719</ele>
        <time>2014-08-31T06:36:20.000Z</time>
      </trkpt>
      <trkpt lat="42.92899" lon="0.16916">
        <ele>1731.1999511719</ele>
        <time>2014-08-31T06:36:36.000Z</time>
      </trkpt>
      <trkpt lat="42.92894" lon="0.16892">
        <ele>1738.8000488281</ele>
        <time>2014-08-31T06:36:53.000Z</time>
      </trkpt>
      <trkpt lat="42.92891" lon="0.16867">
        <ele>1746</ele>
        <time>2014-08-31T06:37:09.000Z</time>
      </trkpt>
      <trkpt lat="42.92885" lon="0.16844">
        <ele>1755.8000488281</ele>
        <time>2014-08-31T06:37:27.000Z</time>
      </trkpt>
      <trkpt lat="42.92878" lon="0.16822">
        <ele>1764.8000488281</ele>
        <time>2014-08-31T06:37:49.000Z</time>
      </trkpt>
      <trkpt lat="42.92873" lon="0.16798">
        <ele>1771.8000488281</ele>
        <time>2014-08-31T06:38:12.000Z</time>
      </trkpt>
      <trkpt lat="42.92869" lon="0.16774">
        <ele>1779</ele>
        <time>2014-08-31T06:38:30.000Z</time>
      </trkpt>
      <trkpt lat="42.92868" lon="0.16749">
        <ele>1783.4000244141</ele>
        <time>2014-08-31T06:38:49.000Z</time>
      </trkpt>
      <trkpt lat="42.92862" lon="0.16725">
        <ele>1794.1999511719</ele>
        <time>2014-08-31T06:39:12.000Z</time>
      </trkpt>
      <trkpt lat="42.92855" lon="0.16703">
        <ele>1806.5999755859</ele>
        <time>2014-08-31T06:39:39.000Z</time>
      </trkpt>
      <trkpt lat="42.9285" lon="0.16679">
        <ele>1818.1999511719</ele>
        <time>2014-08-31T06:39:59.000Z</time>
      </trkpt>
      <trkpt lat="42.92845" lon="0.16655">
        <ele>1830.4000244141</ele>
        <time>2014-08-31T06:40:18.000Z</time>
      </trkpt>
      <trkpt lat="42.92841" lon="0.1663">
        <ele>1841.8000488281</ele>
        <time>2014-08-31T06:40:37.000Z</time>
      </trkpt>
      <trkpt lat="42.92837" lon="0.16605">
        <ele>1837.1999511719</ele>
        <time>2014-08-31T06:40:58.000Z</time>
      </trkpt>
      <trkpt lat="42.9283" lon="0.16583">
        <ele>1835.1999511719</ele>
        <time>2014-08-31T06:41:14.000Z</time>
      </trkpt>
      <trkpt lat="42.92822" lon="0.16561">
        <ele>1834</ele>
        <time>2014-08-31T06:41:41.000Z</time>
      </trkpt>
      <trkpt lat="42.92821" lon="0.16552">
        <ele>1832</ele>
        <time>2014-08-31T06:41:54.000Z</time>
      </trkpt>
      <trkpt lat="42.9283" lon="0.16532">
        <ele>1820.8000488281</ele>
        <time>2014-08-31T06:42:41.000Z</time>
      </trkpt>
      <trkpt lat="42.92842" lon="0.16513">
        <ele>1809</ele>
        <time>2014-08-31T06:42:57.000Z</time>
      </trkpt>
      <trkpt lat="42.9285" lon="0.16509">
        <ele>1804.5999755859</ele>
        <time>2014-08-31T06:43:02.000Z</time>
      </trkpt>
      <trkpt lat="42.92868" lon="0.1652">
        <ele>1796</ele>
        <time>2014-08-31T06:43:11.000Z</time>
      </trkpt>
      <trkpt lat="42.92872" lon="0.1652">
        <ele>1793.8000488281</ele>
        <time>2014-08-31T06:43:13.000Z</time>
      </trkpt>
      <trkpt lat="42.92875" lon="0.16515">
        <ele>1792.4000244141</ele>
        <time>2014-08-31T06:43:16.000Z</time>
      </trkpt>
      <trkpt lat="42.92877" lon="0.16491">
        <ele>1791.5999755859</ele>
        <time>2014-08-31T06:43:30.000Z</time>
      </trkpt>
      <trkpt lat="42.92877" lon="0.16488">
        <ele>1792</ele>
        <time>2014-08-31T06:43:32.000Z</time>
      </trkpt>
      <trkpt lat="42.92875" lon="0.16484">
        <ele>1793</ele>
        <time>2014-08-31T06:43:35.000Z</time>
      </trkpt>
      <trkpt lat="42.92874" lon="0.16482">
        <ele>1793.5999755859</ele>
        <time>2014-08-31T06:43:36.000Z</time>
      </trkpt>
      <trkpt lat="42.92869" lon="0.16476">
        <ele>1796</ele>
        <time>2014-08-31T06:43:42.000Z</time>
      </trkpt>
      <trkpt lat="42.92854" lon="0.16462">
        <ele>1803.1999511719</ele>
        <time>2014-08-31T06:44:00.000Z</time>
      </trkpt>
      <trkpt lat="42.92854" lon="0.1646">
        <ele>1804</ele>
        <time>2014-08-31T06:44:04.000Z</time>
      </trkpt>
      <trkpt lat="42.92841" lon="0.16444">
        <ele>1816.5999755859</ele>
        <time>2014-08-31T06:44:21.000Z</time>
      </trkpt>
      <trkpt lat="42.92844" lon="0.16434">
        <ele>1820.8000488281</ele>
        <time>2014-08-31T06:44:29.000Z</time>
      </trkpt>
      <trkpt lat="42.92858" lon="0.16416">
        <ele>1823.4000244141</ele>
        <time>2014-08-31T06:44:39.000Z</time>
      </trkpt>
      <trkpt lat="42.92861" lon="0.16411">
        <ele>1824.8000488281</ele>
        <time>2014-08-31T06:44:44.000Z</time>
      </trkpt>
      <trkpt lat="42.92861" lon="0.16401">
        <ele>1829.8000488281</ele>
        <time>2014-08-31T06:44:51.000Z</time>
      </trkpt>
      <trkpt lat="42.92861" lon="0.16399">
        <ele>1830.4000244141</ele>
        <time>2014-08-31T06:44:52.000Z</time>
      </trkpt>
      <trkpt lat="42.9286" lon="0.16378">
        <ele>1836.8000488281</ele>
        <time>2014-08-31T06:45:04.000Z</time>
      </trkpt>
      <trkpt lat="42.92869" lon="0.16364">
        <ele>1837.1999511719</ele>
        <time>2014-08-31T06:45:11.000Z</time>
      </trkpt>
      <trkpt lat="42.92885" lon="0.16349">
        <ele>1833.1999511719</ele>
        <time>2014-08-31T06:45:21.000Z</time>
      </trkpt>
      <trkpt lat="42.92895" lon="0.16336">
        <ele>1834.1999511719</ele>
        <time>2014-08-31T06:45:32.000Z</time>
      </trkpt>
      <trkpt lat="42.92907" lon="0.16327">
        <ele>1832.1999511719</ele>
        <time>2014-08-31T06:46:02.000Z</time>
      </trkpt>
      <trkpt lat="42.9291" lon="0.16327">
        <ele>1830.5999755859</ele>
        <time>2014-08-31T06:46:04.000Z</time>
      </trkpt>
      <trkpt lat="42.92927" lon="0.16318">
        <ele>1827.4000244141</ele>
        <time>2014-08-31T06:46:14.000Z</time>
      </trkpt>
      <trkpt lat="42.92941" lon="0.16309">
        <ele>1828.4000244141</ele>
        <time>2014-08-31T06:46:23.000Z</time>
      </trkpt>
      <trkpt lat="42.92951" lon="0.16307">
        <ele>1827</ele>
        <time>2014-08-31T06:46:28.000Z</time>
      </trkpt>
      <trkpt lat="42.92969" lon="0.16304">
        <ele>1824.4000244141</ele>
        <time>2014-08-31T06:46:37.000Z</time>
      </trkpt>
      <trkpt lat="42.92987" lon="0.16301">
        <ele>1821.8000488281</ele>
        <time>2014-08-31T06:46:47.000Z</time>
      </trkpt>
      <trkpt lat="42.93005" lon="0.16293">
        <ele>1822.5999755859</ele>
        <time>2014-08-31T06:46:59.000Z</time>
      </trkpt>
      <trkpt lat="42.93023" lon="0.16288">
        <ele>1818</ele>
        <time>2014-08-31T06:47:12.000Z</time>
      </trkpt>
      <trkpt lat="42.93041" lon="0.16284">
        <ele>1813.1999511719</ele>
        <time>2014-08-31T06:47:22.000Z</time>
      </trkpt>
      <trkpt lat="42.93059" lon="0.16282">
        <ele>1808</ele>
        <time>2014-08-31T06:47:35.000Z</time>
      </trkpt>
      <trkpt lat="42.93067" lon="0.1628">
        <ele>1805.8000488281</ele>
        <time>2014-08-31T06:47:44.000Z</time>
      </trkpt>
      <trkpt lat="42.93078" lon="0.16272">
        <ele>1809.4000244141</ele>
        <time>2014-08-31T06:48:20.000Z</time>
      </trkpt>
      <trkpt lat="42.93093" lon="0.16256">
        <ele>1821.5999755859</ele>
        <time>2014-08-31T06:48:30.000Z</time>
      </trkpt>
      <trkpt lat="42.93106" lon="0.16238">
        <ele>1830.8000488281</ele>
        <time>2014-08-31T06:48:45.000Z</time>
      </trkpt>
      <trkpt lat="42.9312" lon="0.16221">
        <ele>1841.4000244141</ele>
        <time>2014-08-31T06:49:03.000Z</time>
      </trkpt>
      <trkpt lat="42.93137" lon="0.16212">
        <ele>1846.4000244141</ele>
        <time>2014-08-31T06:49:18.000Z</time>
      </trkpt>
      <trkpt lat="42.9315" lon="0.16209">
        <ele>1846</ele>
        <time>2014-08-31T06:49:27.000Z</time>
      </trkpt>
      <trkpt lat="42.93159" lon="0.16195">
        <ele>1852.1999511719</ele>
        <time>2014-08-31T06:49:38.000Z</time>
      </trkpt>
      <trkpt lat="42.93169" lon="0.16186">
        <ele>1853</ele>
        <time>2014-08-31T06:49:48.000Z</time>
      </trkpt>
      <trkpt lat="42.93172" lon="0.16182">
        <ele>1853.5999755859</ele>
        <time>2014-08-31T06:49:51.000Z</time>
      </trkpt>
      <trkpt lat="42.93176" lon="0.16174">
        <ele>1855.8000488281</ele>
        <time>2014-08-31T06:49:57.000Z</time>
      </trkpt>
      <trkpt lat="42.93176" lon="0.16172">
        <ele>1856.4000244141</ele>
        <time>2014-08-31T06:49:59.000Z</time>
      </trkpt>
      <trkpt lat="42.93185" lon="0.16151">
        <ele>1863</ele>
        <time>2014-08-31T06:50:15.000Z</time>
      </trkpt>
      <trkpt lat="42.93191" lon="0.16147">
        <ele>1862.8000488281</ele>
        <time>2014-08-31T06:50:35.000Z</time>
      </trkpt>
      <trkpt lat="42.93192" lon="0.16144">
        <ele>1864.4000244141</ele>
        <time>2014-08-31T06:50:37.000Z</time>
      </trkpt>
      <trkpt lat="42.93204" lon="0.16127">
        <ele>1876.8000488281</ele>
        <time>2014-08-31T06:50:51.000Z</time>
      </trkpt>
      <trkpt lat="42.93205" lon="0.16126">
        <ele>1877</ele>
        <time>2014-08-31T06:50:52.000Z</time>
      </trkpt>
      <trkpt lat="42.93209" lon="0.1612">
        <ele>1878</ele>
        <time>2014-08-31T06:50:57.000Z</time>
      </trkpt>
      <trkpt lat="42.93216" lon="0.16098">
        <ele>1881.8000488281</ele>
        <time>2014-08-31T06:51:10.000Z</time>
      </trkpt>
      <trkpt lat="42.93218" lon="0.16093">
        <ele>1882.8000488281</ele>
        <time>2014-08-31T06:51:13.000Z</time>
      </trkpt>
      <trkpt lat="42.9322" lon="0.16082">
        <ele>1883.8000488281</ele>
        <time>2014-08-31T06:51:20.000Z</time>
      </trkpt>
      <trkpt lat="42.93225" lon="0.16064">
        <ele>1884.8000488281</ele>
        <time>2014-08-31T06:51:30.000Z</time>
      </trkpt>
      <trkpt lat="42.93227" lon="0.16054">
        <ele>1885.4000244141</ele>
        <time>2014-08-31T06:51:37.000Z</time>
      </trkpt>
      <trkpt lat="42.93232" lon="0.16043">
        <ele>1886.1999511719</ele>
        <time>2014-08-31T06:51:46.000Z</time>
      </trkpt>
      <trkpt lat="42.93247" lon="0.16032">
        <ele>1887</ele>
        <time>2014-08-31T06:52:01.000Z</time>
      </trkpt>
      <trkpt lat="42.93245" lon="0.16011">
        <ele>1891</ele>
        <time>2014-08-31T06:52:15.000Z</time>
      </trkpt>
      <trkpt lat="42.93244" lon="0.1601">
        <ele>1891.4000244141</ele>
        <time>2014-08-31T06:52:18.000Z</time>
      </trkpt>
      <trkpt lat="42.93236" lon="0.16007">
        <ele>1893.4000244141</ele>
        <time>2014-08-31T06:52:32.000Z</time>
      </trkpt>
      <trkpt lat="42.93217" lon="0.16006">
        <ele>1896.4000244141</ele>
        <time>2014-08-31T06:52:53.000Z</time>
      </trkpt>
      <trkpt lat="42.93206" lon="0.16012">
        <ele>1896.4000244141</ele>
        <time>2014-08-31T06:53:04.000Z</time>
      </trkpt>
      <trkpt lat="42.93201" lon="0.15989">
        <ele>1902.4000244141</ele>
        <time>2014-08-31T06:53:22.000Z</time>
      </trkpt>
      <trkpt lat="42.93206" lon="0.15965">
        <ele>1906</ele>
        <time>2014-08-31T06:53:37.000Z</time>
      </trkpt>
      <trkpt lat="42.93203" lon="0.15961">
        <ele>1907.1999511719</ele>
        <time>2014-08-31T06:53:40.000Z</time>
      </trkpt>
      <trkpt lat="42.932" lon="0.15952">
        <ele>1910.1999511719</ele>
        <time>2014-08-31T06:53:50.000Z</time>
      </trkpt>
      <trkpt lat="42.93193" lon="0.15945">
        <ele>1913.8000488281</ele>
        <time>2014-08-31T06:53:57.000Z</time>
      </trkpt>
      <trkpt lat="42.9319" lon="0.15936">
        <ele>1917.1999511719</ele>
        <time>2014-08-31T06:54:06.000Z</time>
      </trkpt>
      <trkpt lat="42.93207" lon="0.15932">
        <ele>1915.4000244141</ele>
        <time>2014-08-31T06:54:34.000Z</time>
      </trkpt>
      <trkpt lat="42.93213" lon="0.15935">
        <ele>1913.5999755859</ele>
        <time>2014-08-31T06:54:39.000Z</time>
      </trkpt>
      <trkpt lat="42.93222" lon="0.15938">
        <ele>1911.1999511719</ele>
        <time>2014-08-31T06:54:48.000Z</time>
      </trkpt>
      <trkpt lat="42.93223" lon="0.15938">
        <ele>1910.8000488281</ele>
        <time>2014-08-31T06:54:49.000Z</time>
      </trkpt>
      <trkpt lat="42.93226" lon="0.15941">
        <ele>1909.4000244141</ele>
        <time>2014-08-31T06:54:53.000Z</time>
      </trkpt>
      <trkpt lat="42.93228" lon="0.15941">
        <ele>1909.1999511719</ele>
        <time>2014-08-31T06:54:55.000Z</time>
      </trkpt>
      <trkpt lat="42.9323" lon="0.15921">
        <ele>1913.4000244141</ele>
        <time>2014-08-31T06:55:07.000Z</time>
      </trkpt>
      <trkpt lat="42.9323" lon="0.15911">
        <ele>1915.1999511719</ele>
        <time>2014-08-31T06:55:14.000Z</time>
      </trkpt>
      <trkpt lat="42.9322" lon="0.159">
        <ele>1920.1999511719</ele>
        <time>2014-08-31T06:55:25.000Z</time>
      </trkpt>
      <trkpt lat="42.93219" lon="0.15893">
        <ele>1921.5999755859</ele>
        <time>2014-08-31T06:55:31.000Z</time>
      </trkpt>
      <trkpt lat="42.93218" lon="0.15887">
        <ele>1923</ele>
        <time>2014-08-31T06:55:36.000Z</time>
      </trkpt>
      <trkpt lat="42.93213" lon="0.1588">
        <ele>1925.8000488281</ele>
        <time>2014-08-31T06:55:44.000Z</time>
      </trkpt>
      <trkpt lat="42.93196" lon="0.15885">
        <ele>1930.1999511719</ele>
        <time>2014-08-31T06:56:04.000Z</time>
      </trkpt>
      <trkpt lat="42.93193" lon="0.1589">
        <ele>1930.1999511719</ele>
        <time>2014-08-31T06:56:08.000Z</time>
      </trkpt>
      <trkpt lat="42.93188" lon="0.159">
        <ele>1928.4000244141</ele>
        <time>2014-08-31T06:56:15.000Z</time>
      </trkpt>
      <trkpt lat="42.93175" lon="0.15917">
        <ele>1925.5999755859</ele>
        <time>2014-08-31T06:56:28.000Z</time>
      </trkpt>
      <trkpt lat="42.93167" lon="0.15924">
        <ele>1927.1999511719</ele>
        <time>2014-08-31T06:56:35.000Z</time>
      </trkpt>
      <trkpt lat="42.93165" lon="0.15907">
        <ele>1933.5999755859</ele>
        <time>2014-08-31T06:56:47.000Z</time>
      </trkpt>
      <trkpt lat="42.9317" lon="0.15887">
        <ele>1937.1999511719</ele>
        <time>2014-08-31T06:56:59.000Z</time>
      </trkpt>
      <trkpt lat="42.9318" lon="0.15868">
        <ele>1938.1999511719</ele>
        <time>2014-08-31T06:57:13.000Z</time>
      </trkpt>
      <trkpt lat="42.93188" lon="0.15845">
        <ele>1940.8000488281</ele>
        <time>2014-08-31T06:57:27.000Z</time>
      </trkpt>
      <trkpt lat="42.93185" lon="0.15821">
        <ele>1946.8000488281</ele>
        <time>2014-08-31T06:57:41.000Z</time>
      </trkpt>
      <trkpt lat="42.93181" lon="0.15797">
        <ele>1953.4000244141</ele>
        <time>2014-08-31T06:57:56.000Z</time>
      </trkpt>
      <trkpt lat="42.93171" lon="0.15774">
        <ele>1961.1999511719</ele>
        <time>2014-08-31T06:58:11.000Z</time>
      </trkpt>
      <trkpt lat="42.93165" lon="0.15754">
        <ele>1966.8000488281</ele>
        <time>2014-08-31T06:58:25.000Z</time>
      </trkpt>
      <trkpt lat="42.93164" lon="0.1575">
        <ele>1968.1999511719</ele>
        <time>2014-08-31T06:58:28.000Z</time>
      </trkpt>
      <trkpt lat="42.93163" lon="0.15739">
        <ele>1970.8000488281</ele>
        <time>2014-08-31T06:58:35.000Z</time>
      </trkpt>
      <trkpt lat="42.93161" lon="0.15726">
        <ele>1973.8000488281</ele>
        <time>2014-08-31T06:58:46.000Z</time>
      </trkpt>
      <trkpt lat="42.93159" lon="0.1572">
        <ele>1975.5999755859</ele>
        <time>2014-08-31T06:58:51.000Z</time>
      </trkpt>
      <trkpt lat="42.93161" lon="0.15712">
        <ele>1976.8000488281</ele>
        <time>2014-08-31T06:58:58.000Z</time>
      </trkpt>
      <trkpt lat="42.93172" lon="0.15695">
        <ele>1975.8000488281</ele>
        <time>2014-08-31T06:59:14.000Z</time>
      </trkpt>
      <trkpt lat="42.93187" lon="0.15679">
        <ele>1976.8000488281</ele>
        <time>2014-08-31T06:59:28.000Z</time>
      </trkpt>
      <trkpt lat="42.932" lon="0.1566">
        <ele>1978.8000488281</ele>
        <time>2014-08-31T06:59:44.000Z</time>
      </trkpt>
      <trkpt lat="42.93203" lon="0.15656">
        <ele>1979.4000244141</ele>
        <time>2014-08-31T06:59:48.000Z</time>
      </trkpt>
      <trkpt lat="42.9322" lon="0.15652">
        <ele>1983.5999755859</ele>
        <time>2014-08-31T07:00:00.000Z</time>
      </trkpt>
      <trkpt lat="42.93227" lon="0.15647">
        <ele>1986.5999755859</ele>
        <time>2014-08-31T07:00:13.000Z</time>
      </trkpt>
      <trkpt lat="42.93216" lon="0.15638">
        <ele>1988.4000244141</ele>
        <time>2014-08-31T07:00:26.000Z</time>
      </trkpt>
      <trkpt lat="42.9321" lon="0.15633">
        <ele>1989.8000488281</ele>
        <time>2014-08-31T07:00:32.000Z</time>
      </trkpt>
      <trkpt lat="42.932" lon="0.15627">
        <ele>1990.4000244141</ele>
        <time>2014-08-31T07:00:40.000Z</time>
      </trkpt>
      <trkpt lat="42.93182" lon="0.15626">
        <ele>1987.8000488281</ele>
        <time>2014-08-31T07:00:48.000Z</time>
      </trkpt>
      <trkpt lat="42.93178" lon="0.15617">
        <ele>1990.1999511719</ele>
        <time>2014-08-31T07:00:59.000Z</time>
      </trkpt>
      <trkpt lat="42.9316" lon="0.15612">
        <ele>1991.8000488281</ele>
        <time>2014-08-31T07:01:21.000Z</time>
      </trkpt>
      <trkpt lat="42.93142" lon="0.15609">
        <ele>1996.1999511719</ele>
        <time>2014-08-31T07:01:38.000Z</time>
      </trkpt>
      <trkpt lat="42.93133" lon="0.15599">
        <ele>1999.8000488281</ele>
        <time>2014-08-31T07:01:48.000Z</time>
      </trkpt>
      <trkpt lat="42.93122" lon="0.1559">
        <ele>2003.5999755859</ele>
        <time>2014-08-31T07:01:58.000Z</time>
      </trkpt>
      <trkpt lat="42.93132" lon="0.15577">
        <ele>2005</ele>
        <time>2014-08-31T07:03:08.000Z</time>
      </trkpt>
      <trkpt lat="42.93131" lon="0.15573">
        <ele>2006.8000488281</ele>
        <time>2014-08-31T07:03:11.000Z</time>
      </trkpt>
      <trkpt lat="42.93128" lon="0.15554">
        <ele>2013.5999755859</ele>
        <time>2014-08-31T07:03:31.000Z</time>
      </trkpt>
      <trkpt lat="42.93133" lon="0.15538">
        <ele>2018.1999511719</ele>
        <time>2014-08-31T07:03:59.000Z</time>
      </trkpt>
      <trkpt lat="42.9312" lon="0.15521">
        <ele>2021.5999755859</ele>
        <time>2014-08-31T07:04:15.000Z</time>
      </trkpt>
      <trkpt lat="42.9311" lon="0.15502">
        <ele>2025.1999511719</ele>
        <time>2014-08-31T07:04:39.000Z</time>
      </trkpt>
      <trkpt lat="42.93105" lon="0.15478">
        <ele>2029.5999755859</ele>
        <time>2014-08-31T07:05:01.000Z</time>
      </trkpt>
      <trkpt lat="42.93111" lon="0.15477">
        <ele>2031</ele>
        <time>2014-08-31T07:05:34.000Z</time>
      </trkpt>
      <trkpt lat="42.93119" lon="0.15455">
        <ele>2042.1999511719</ele>
        <time>2014-08-31T07:05:55.000Z</time>
      </trkpt>
      <trkpt lat="42.93111" lon="0.15433">
        <ele>2046.4000244141</ele>
        <time>2014-08-31T07:06:12.000Z</time>
      </trkpt>
      <trkpt lat="42.93101" lon="0.15412">
        <ele>2049.6000976562</ele>
        <time>2014-08-31T07:06:24.000Z</time>
      </trkpt>
      <trkpt lat="42.93091" lon="0.15392">
        <ele>2052.3999023438</ele>
        <time>2014-08-31T07:06:35.000Z</time>
      </trkpt>
      <trkpt lat="42.93092" lon="0.1539">
        <ele>2053</ele>
        <time>2014-08-31T07:06:37.000Z</time>
      </trkpt>
      <trkpt lat="42.9309" lon="0.1537">
        <ele>2058</ele>
        <time>2014-08-31T07:06:59.000Z</time>
      </trkpt>
      <trkpt lat="42.93091" lon="0.15364">
        <ele>2059.8000488281</ele>
        <time>2014-08-31T07:07:05.000Z</time>
      </trkpt>
      <trkpt lat="42.93091" lon="0.15361">
        <ele>2060.3999023438</ele>
        <time>2014-08-31T07:07:08.000Z</time>
      </trkpt>
      <trkpt lat="42.93085" lon="0.15341">
        <ele>2065.3999023438</ele>
        <time>2014-08-31T07:07:31.000Z</time>
      </trkpt>
      <trkpt lat="42.93068" lon="0.15331">
        <ele>2069.8000488281</ele>
        <time>2014-08-31T07:07:49.000Z</time>
      </trkpt>
      <trkpt lat="42.9305" lon="0.15322">
        <ele>2074.1999511719</ele>
        <time>2014-08-31T07:08:00.000Z</time>
      </trkpt>
      <trkpt lat="42.93042" lon="0.15315">
        <ele>2076.8000488281</ele>
        <time>2014-08-31T07:08:12.000Z</time>
      </trkpt>
      <trkpt lat="42.93029" lon="0.1533">
        <ele>2076.6000976562</ele>
        <time>2014-08-31T07:08:24.000Z</time>
      </trkpt>
      <trkpt lat="42.9302" lon="0.15347">
        <ele>2077</ele>
        <time>2014-08-31T07:08:37.000Z</time>
      </trkpt>
      <trkpt lat="42.93015" lon="0.15357">
        <ele>2077.3999023438</ele>
        <time>2014-08-31T07:08:44.000Z</time>
      </trkpt>
      <trkpt lat="42.9301" lon="0.15373">
        <ele>2076.6000976562</ele>
        <time>2014-08-31T07:08:51.000Z</time>
      </trkpt>
      <trkpt lat="42.93005" lon="0.15384">
        <ele>2077.3999023438</ele>
        <time>2014-08-31T07:08:56.000Z</time>
      </trkpt>
      <trkpt lat="42.93001" lon="0.15396">
        <ele>2079</ele>
        <time>2014-08-31T07:09:05.000Z</time>
      </trkpt>
      <trkpt lat="42.92998" lon="0.15415">
        <ele>2079.6000976562</ele>
        <time>2014-08-31T07:09:21.000Z</time>
      </trkpt>
      <trkpt lat="42.92995" lon="0.15403">
        <ele>2082.6000976562</ele>
        <time>2014-08-31T07:09:38.000Z</time>
      </trkpt>
      <trkpt lat="42.92997" lon="0.15389">
        <ele>2082.6000976562</ele>
        <time>2014-08-31T07:09:51.000Z</time>
      </trkpt>
      <trkpt lat="42.92995" lon="0.15375">
        <ele>2085</ele>
        <time>2014-08-31T07:10:04.000Z</time>
      </trkpt>
      <trkpt lat="42.92994" lon="0.15361">
        <ele>2087</ele>
        <time>2014-08-31T07:10:13.000Z</time>
      </trkpt>
      <trkpt lat="42.92991" lon="0.15353">
        <ele>2089.8000488281</ele>
        <time>2014-08-31T07:10:19.000Z</time>
      </trkpt>
      <trkpt lat="42.92993" lon="0.15343">
        <ele>2089.6000976562</ele>
        <time>2014-08-31T07:10:25.000Z</time>
      </trkpt>
      <trkpt lat="42.92993" lon="0.15338">
        <ele>2090.3999023438</ele>
        <time>2014-08-31T07:10:29.000Z</time>
      </trkpt>
      <trkpt lat="42.92995" lon="0.15327">
        <ele>2090.6000976562</ele>
        <time>2014-08-31T07:10:39.000Z</time>
      </trkpt>
      <trkpt lat="42.92999" lon="0.15313">
        <ele>2089.3999023438</ele>
        <time>2014-08-31T07:10:47.000Z</time>
      </trkpt>
      <trkpt lat="42.93" lon="0.15305">
        <ele>2089.6000976562</ele>
        <time>2014-08-31T07:10:52.000Z</time>
      </trkpt>
      <trkpt lat="42.92998" lon="0.15294">
        <ele>2092</ele>
        <time>2014-08-31T07:11:00.000Z</time>
      </trkpt>
      <trkpt lat="42.93001" lon="0.1527">
        <ele>2094.8000488281</ele>
        <time>2014-08-31T07:11:23.000Z</time>
      </trkpt>
      <trkpt lat="42.93004" lon="0.15261">
        <ele>2095.3999023438</ele>
        <time>2014-08-31T07:11:29.000Z</time>
      </trkpt>
      <trkpt lat="42.93008" lon="0.15248">
        <ele>2096.3999023438</ele>
        <time>2014-08-31T07:11:39.000Z</time>
      </trkpt>
      <trkpt lat="42.93012" lon="0.15237">
        <ele>2098.3999023438</ele>
        <time>2014-08-31T07:11:47.000Z</time>
      </trkpt>
      <trkpt lat="42.93013" lon="0.15234">
        <ele>2099.1999511719</ele>
        <time>2014-08-31T07:11:50.000Z</time>
      </trkpt>
      <trkpt lat="42.93017" lon="0.15226">
        <ele>2100.3999023438</ele>
        <time>2014-08-31T07:11:57.000Z</time>
      </trkpt>
      <trkpt lat="42.93017" lon="0.15224">
        <ele>2100.8000488281</ele>
        <time>2014-08-31T07:11:59.000Z</time>
      </trkpt>
      <trkpt lat="42.93018" lon="0.15216">
        <ele>2103.3999023438</ele>
        <time>2014-08-31T07:12:11.000Z</time>
      </trkpt>
      <trkpt lat="42.93017" lon="0.15198">
        <ele>2108.8000488281</ele>
        <time>2014-08-31T07:12:23.000Z</time>
      </trkpt>
      <trkpt lat="42.93019" lon="0.15193">
        <ele>2110.3999023438</ele>
        <time>2014-08-31T07:12:27.000Z</time>
      </trkpt>
      <trkpt lat="42.93026" lon="0.15177">
        <ele>2115</ele>
        <time>2014-08-31T07:12:39.000Z</time>
      </trkpt>
      <trkpt lat="42.93028" lon="0.15168">
        <ele>2117.6000976562</ele>
        <time>2014-08-31T07:12:45.000Z</time>
      </trkpt>
      <trkpt lat="42.9303" lon="0.15161">
        <ele>2119.6000976562</ele>
        <time>2014-08-31T07:12:50.000Z</time>
      </trkpt>
      <trkpt lat="42.93024" lon="0.15138">
        <ele>2126.1999511719</ele>
        <time>2014-08-31T07:13:09.000Z</time>
      </trkpt>
      <trkpt lat="42.9302" lon="0.15129">
        <ele>2128.8000488281</ele>
        <time>2014-08-31T07:13:15.000Z</time>
      </trkpt>
      <trkpt lat="42.93015" lon="0.15105">
        <ele>2132.6000976562</ele>
        <time>2014-08-31T07:13:30.000Z</time>
      </trkpt>
      <trkpt lat="42.93016" lon="0.15082">
        <ele>2136.6000976562</ele>
        <time>2014-08-31T07:13:46.000Z</time>
      </trkpt>
      <trkpt lat="42.93008" lon="0.15058">
        <ele>2139.8000488281</ele>
        <time>2014-08-31T07:14:05.000Z</time>
      </trkpt>
      <trkpt lat="42.93002" lon="0.15034">
        <ele>2145.3999023438</ele>
        <time>2014-08-31T07:14:21.000Z</time>
      </trkpt>
      <trkpt lat="42.92995" lon="0.15018">
        <ele>2150</ele>
        <time>2014-08-31T07:14:33.000Z</time>
      </trkpt>
      <trkpt lat="42.9299" lon="0.14996">
        <ele>2154.1999511719</ele>
        <time>2014-08-31T07:14:48.000Z</time>
      </trkpt>
      <trkpt lat="42.92981" lon="0.14984">
        <ele>2159.6000976562</ele>
        <time>2014-08-31T07:15:01.000Z</time>
      </trkpt>
      <trkpt lat="42.92968" lon="0.14989">
        <ele>2165</ele>
        <time>2014-08-31T07:15:17.000Z</time>
      </trkpt>
      <trkpt lat="42.92969" lon="0.14988">
        <ele>2164.6000976562</ele>
        <time>2014-08-31T07:16:31.000Z</time>
      </trkpt>
      <trkpt lat="42.92965" lon="0.14964">
        <ele>2168.8000488281</ele>
        <time>2014-08-31T07:16:48.000Z</time>
      </trkpt>
      <trkpt lat="42.9296" lon="0.14939">
        <ele>2171.8000488281</ele>
        <time>2014-08-31T07:17:03.000Z</time>
      </trkpt>
      <trkpt lat="42.92961" lon="0.14938">
        <ele>2171.6000976562</ele>
        <time>2014-08-31T07:17:04.000Z</time>
      </trkpt>
      <trkpt lat="42.92961" lon="0.14932">
        <ele>2171.6000976562</ele>
        <time>2014-08-31T07:17:08.000Z</time>
      </trkpt>
      <trkpt lat="42.92964" lon="0.14927">
        <ele>2170.3999023438</ele>
        <time>2014-08-31T07:17:12.000Z</time>
      </trkpt>
      <trkpt lat="42.92969" lon="0.14921">
        <ele>2168.8000488281</ele>
        <time>2014-08-31T07:17:19.000Z</time>
      </trkpt>
      <trkpt lat="42.92972" lon="0.14914">
        <ele>2171</ele>
        <time>2014-08-31T07:17:24.000Z</time>
      </trkpt>
      <trkpt lat="42.92973" lon="0.14911">
        <ele>2172.1999511719</ele>
        <time>2014-08-31T07:17:28.000Z</time>
      </trkpt>
      <trkpt lat="42.92971" lon="0.14899">
        <ele>2176.6000976562</ele>
        <time>2014-08-31T07:17:36.000Z</time>
      </trkpt>
      <trkpt lat="42.92968" lon="0.14893">
        <ele>2179.1999511719</ele>
        <time>2014-08-31T07:17:40.000Z</time>
      </trkpt>
      <trkpt lat="42.92969" lon="0.1487">
        <ele>2185</ele>
        <time>2014-08-31T07:17:58.000Z</time>
      </trkpt>
      <trkpt lat="42.92956" lon="0.14852">
        <ele>2187.6000976562</ele>
        <time>2014-08-31T07:18:16.000Z</time>
      </trkpt>
      <trkpt lat="42.92949" lon="0.1483">
        <ele>2189.8000488281</ele>
        <time>2014-08-31T07:18:36.000Z</time>
      </trkpt>
      <trkpt lat="42.92939" lon="0.14817">
        <ele>2191.8000488281</ele>
        <time>2014-08-31T07:19:29.000Z</time>
      </trkpt>
      <trkpt lat="42.92923" lon="0.14804">
        <ele>2195</ele>
        <time>2014-08-31T07:19:40.000Z</time>
      </trkpt>
      <trkpt lat="42.92912" lon="0.14784">
        <ele>2199</ele>
        <time>2014-08-31T07:19:52.000Z</time>
      </trkpt>
      <trkpt lat="42.92905" lon="0.14778">
        <ele>2201</ele>
        <time>2014-08-31T07:19:58.000Z</time>
      </trkpt>
      <trkpt lat="42.929" lon="0.14775">
        <ele>2203.1999511719</ele>
        <time>2014-08-31T07:20:05.000Z</time>
      </trkpt>
      <trkpt lat="42.92904" lon="0.14776">
        <ele>2201.6000976562</ele>
        <time>2014-08-31T07:20:11.000Z</time>
      </trkpt>
      <trkpt lat="42.92891" lon="0.14768">
        <ele>2206</ele>
        <time>2014-08-31T07:20:39.000Z</time>
      </trkpt>
      <trkpt lat="42.92891" lon="0.14767">
        <ele>2206</ele>
        <time>2014-08-31T07:21:09.000Z</time>
      </trkpt>
      <trkpt lat="42.92879" lon="0.14747">
        <ele>2209.8000488281</ele>
        <time>2014-08-31T07:21:22.000Z</time>
      </trkpt>
      <trkpt lat="42.92866" lon="0.14734">
        <ele>2213.8000488281</ele>
        <time>2014-08-31T07:21:33.000Z</time>
      </trkpt>
      <trkpt lat="42.92852" lon="0.14718">
        <ele>2218.6000976562</ele>
        <time>2014-08-31T07:21:50.000Z</time>
      </trkpt>
      <trkpt lat="42.9284" lon="0.14702">
        <ele>2221.6000976562</ele>
        <time>2014-08-31T07:22:06.000Z</time>
      </trkpt>
      <trkpt lat="42.92834" lon="0.14693">
        <ele>2224.1999511719</ele>
        <time>2014-08-31T07:22:20.000Z</time>
      </trkpt>
      <trkpt lat="42.92835" lon="0.14682">
        <ele>2222.8000488281</ele>
        <time>2014-08-31T07:22:28.000Z</time>
      </trkpt>
      <trkpt lat="42.92834" lon="0.14676">
        <ele>2222.6000976562</ele>
        <time>2014-08-31T07:22:33.000Z</time>
      </trkpt>
      <trkpt lat="42.92827" lon="0.14665">
        <ele>2225.1999511719</ele>
        <time>2014-08-31T07:22:40.000Z</time>
      </trkpt>
      <trkpt lat="42.92823" lon="0.1466">
        <ele>2226.8000488281</ele>
        <time>2014-08-31T07:22:44.000Z</time>
      </trkpt>
      <trkpt lat="42.92823" lon="0.1466">
        <ele>2227</ele>
        <time>2014-08-31T07:22:45.000Z</time>
      </trkpt>
      <trkpt lat="42.92818" lon="0.14652">
        <ele>2229</ele>
        <time>2014-08-31T07:22:52.000Z</time>
      </trkpt>
      <trkpt lat="42.92813" lon="0.14649">
        <ele>2231</ele>
        <time>2014-08-31T07:22:56.000Z</time>
      </trkpt>
      <trkpt lat="42.92809" lon="0.14638">
        <ele>2232.3999023438</ele>
        <time>2014-08-31T07:23:04.000Z</time>
      </trkpt>
      <trkpt lat="42.92808" lon="0.14632">
        <ele>2232</ele>
        <time>2014-08-31T07:23:08.000Z</time>
      </trkpt>
      <trkpt lat="42.92809" lon="0.1463">
        <ele>2231.6000976562</ele>
        <time>2014-08-31T07:23:10.000Z</time>
      </trkpt>
      <trkpt lat="42.92813" lon="0.14608">
        <ele>2230.6000976562</ele>
        <time>2014-08-31T07:23:32.000Z</time>
      </trkpt>
      <trkpt lat="42.92813" lon="0.14601">
        <ele>2231</ele>
        <time>2014-08-31T07:23:37.000Z</time>
      </trkpt>
      <trkpt lat="42.92814" lon="0.14587">
        <ele>2231</ele>
        <time>2014-08-31T07:23:46.000Z</time>
      </trkpt>
      <trkpt lat="42.92805" lon="0.14565">
        <ele>2236.1999511719</ele>
        <time>2014-08-31T07:24:01.000Z</time>
      </trkpt>
      <trkpt lat="42.92793" lon="0.14546">
        <ele>2243</ele>
        <time>2014-08-31T07:24:15.000Z</time>
      </trkpt>
      <trkpt lat="42.92787" lon="0.1453">
        <ele>2245.1999511719</ele>
        <time>2014-08-31T07:24:25.000Z</time>
      </trkpt>
      <trkpt lat="42.92782" lon="0.14511">
        <ele>2247</ele>
        <time>2014-08-31T07:24:39.000Z</time>
      </trkpt>
      <trkpt lat="42.92777" lon="0.14487">
        <ele>2248</ele>
        <time>2014-08-31T07:24:55.000Z</time>
      </trkpt>
      <trkpt lat="42.92773" lon="0.14466">
        <ele>2251.3999023438</ele>
        <time>2014-08-31T07:25:09.000Z</time>
      </trkpt>
      <trkpt lat="42.92782" lon="0.14452">
        <ele>2250.8000488281</ele>
        <time>2014-08-31T07:25:19.000Z</time>
      </trkpt>
      <trkpt lat="42.92791" lon="0.14431">
        <ele>2251</ele>
        <time>2014-08-31T07:25:34.000Z</time>
      </trkpt>
      <trkpt lat="42.92798" lon="0.14415">
        <ele>2251.3999023438</ele>
        <time>2014-08-31T07:25:47.000Z</time>
      </trkpt>
      <trkpt lat="42.92799" lon="0.14406">
        <ele>2252</ele>
        <time>2014-08-31T07:25:53.000Z</time>
      </trkpt>
      <trkpt lat="42.92803" lon="0.14398">
        <ele>2251.6000976562</ele>
        <time>2014-08-31T07:26:00.000Z</time>
      </trkpt>
      <trkpt lat="42.92811" lon="0.14381">
        <ele>2251.1999511719</ele>
        <time>2014-08-31T07:26:13.000Z</time>
      </trkpt>
      <trkpt lat="42.92817" lon="0.14368">
        <ele>2252.3999023438</ele>
        <time>2014-08-31T07:26:22.000Z</time>
      </trkpt>
      <trkpt lat="42.92818" lon="0.14367">
        <ele>2252.1999511719</ele>
        <time>2014-08-31T07:26:23.000Z</time>
      </trkpt>
      <trkpt lat="42.92818" lon="0.14361">
        <ele>2253.8000488281</ele>
        <time>2014-08-31T07:26:27.000Z</time>
      </trkpt>
      <trkpt lat="42.92822" lon="0.14351">
        <ele>2256.1999511719</ele>
        <time>2014-08-31T07:26:34.000Z</time>
      </trkpt>
      <trkpt lat="42.92826" lon="0.14343">
        <ele>2258</ele>
        <time>2014-08-31T07:26:41.000Z</time>
      </trkpt>
      <trkpt lat="42.9283" lon="0.14339">
        <ele>2258.3999023438</ele>
        <time>2014-08-31T07:26:45.000Z</time>
      </trkpt>
      <trkpt lat="42.92847" lon="0.14328">
        <ele>2259.8000488281</ele>
        <time>2014-08-31T07:27:08.000Z</time>
      </trkpt>
      <trkpt lat="42.92865" lon="0.14325">
        <ele>2261.6000976562</ele>
        <time>2014-08-31T07:27:19.000Z</time>
      </trkpt>
      <trkpt lat="42.92875" lon="0.14321">
        <ele>2263.1999511719</ele>
        <time>2014-08-31T07:27:36.000Z</time>
      </trkpt>
      <trkpt lat="42.92878" lon="0.14318">
        <ele>2264.1999511719</ele>
        <time>2014-08-31T07:27:40.000Z</time>
      </trkpt>
      <trkpt lat="42.92894" lon="0.14308">
        <ele>2268</ele>
        <time>2014-08-31T07:27:53.000Z</time>
      </trkpt>
      <trkpt lat="42.92912" lon="0.14299">
        <ele>2271.3999023438</ele>
        <time>2014-08-31T07:28:05.000Z</time>
      </trkpt>
      <trkpt lat="42.92929" lon="0.14294">
        <ele>2275.3999023438</ele>
        <time>2014-08-31T07:28:22.000Z</time>
      </trkpt>
      <trkpt lat="42.92936" lon="0.14297">
        <ele>2277.8000488281</ele>
        <time>2014-08-31T07:28:30.000Z</time>
      </trkpt>
      <trkpt lat="42.92951" lon="0.14288">
        <ele>2288.1999511719</ele>
        <time>2014-08-31T07:28:53.000Z</time>
      </trkpt>
      <trkpt lat="42.92966" lon="0.14275">
        <ele>2300.1999511719</ele>
        <time>2014-08-31T07:29:10.000Z</time>
      </trkpt>
      <trkpt lat="42.92972" lon="0.14276">
        <ele>2303</ele>
        <time>2014-08-31T07:29:13.000Z</time>
      </trkpt>
      <trkpt lat="42.92984" lon="0.14293">
        <ele>2301.3999023438</ele>
        <time>2014-08-31T07:29:30.000Z</time>
      </trkpt>
      <trkpt lat="42.92991" lon="0.14297">
        <ele>2303.6000976562</ele>
        <time>2014-08-31T07:29:37.000Z</time>
      </trkpt>
      <trkpt lat="42.92998" lon="0.14308">
        <ele>2304.1999511719</ele>
        <time>2014-08-31T07:29:45.000Z</time>
      </trkpt>
      <trkpt lat="42.93" lon="0.14311">
        <ele>2303.6000976562</ele>
        <time>2014-08-31T07:29:48.000Z</time>
      </trkpt>
      <trkpt lat="42.92994" lon="0.14292">
        <ele>2306.8000488281</ele>
        <time>2014-08-31T07:30:05.000Z</time>
      </trkpt>
      <trkpt lat="42.92989" lon="0.14277">
        <ele>2310.3999023438</ele>
        <time>2014-08-31T07:30:29.000Z</time>
      </trkpt>
      <trkpt lat="42.92987" lon="0.14257">
        <ele>2312.1999511719</ele>
        <time>2014-08-31T07:31:01.000Z</time>
      </trkpt>
      <trkpt lat="42.92996" lon="0.14235">
        <ele>2315.8000488281</ele>
        <time>2014-08-31T07:31:23.000Z</time>
      </trkpt>
      <trkpt lat="42.93006" lon="0.14214">
        <ele>2319.6000976562</ele>
        <time>2014-08-31T07:31:43.000Z</time>
      </trkpt>
      <trkpt lat="42.9301" lon="0.1419">
        <ele>2326</ele>
        <time>2014-08-31T07:32:04.000Z</time>
      </trkpt>
      <trkpt lat="42.93013" lon="0.14165">
        <ele>2332.8000488281</ele>
        <time>2014-08-31T07:32:23.000Z</time>
      </trkpt>
      <trkpt lat="42.93013" lon="0.1414">
        <ele>2338.1999511719</ele>
        <time>2014-08-31T07:32:41.000Z</time>
      </trkpt>
      <trkpt lat="42.93014" lon="0.14132">
        <ele>2340</ele>
        <time>2014-08-31T07:32:47.000Z</time>
      </trkpt>
      <trkpt lat="42.93018" lon="0.14125">
        <ele>2342</ele>
        <time>2014-08-31T07:32:53.000Z</time>
      </trkpt>
      <trkpt lat="42.93023" lon="0.14101">
        <ele>2346.1999511719</ele>
        <time>2014-08-31T07:33:12.000Z</time>
      </trkpt>
      <trkpt lat="42.93031" lon="0.14084">
        <ele>2350.8000488281</ele>
        <time>2014-08-31T07:33:28.000Z</time>
      </trkpt>
      <trkpt lat="42.93034" lon="0.14073">
        <ele>2353.1999511719</ele>
        <time>2014-08-31T07:33:37.000Z</time>
      </trkpt>
      <trkpt lat="42.93049" lon="0.14016">
        <ele>2362.3999023438</ele>
        <time>2014-08-31T07:34:47.000Z</time>
      </trkpt>
      <trkpt lat="42.93051" lon="0.13991">
        <ele>2365.3999023438</ele>
        <time>2014-08-31T07:35:07.000Z</time>
      </trkpt>
      <trkpt lat="42.93063" lon="0.13973">
        <ele>2366.8000488281</ele>
        <time>2014-08-31T07:35:26.000Z</time>
      </trkpt>
      <trkpt lat="42.9307" lon="0.13949">
        <ele>2369.3999023438</ele>
        <time>2014-08-31T07:35:44.000Z</time>
      </trkpt>
      <trkpt lat="42.93073" lon="0.13925">
        <ele>2372.1999511719</ele>
        <time>2014-08-31T07:36:01.000Z</time>
      </trkpt>
      <trkpt lat="42.93081" lon="0.13904">
        <ele>2374.3999023438</ele>
        <time>2014-08-31T07:36:19.000Z</time>
      </trkpt>
      <trkpt lat="42.93093" lon="0.13888">
        <ele>2377.1999511719</ele>
        <time>2014-08-31T07:36:38.000Z</time>
      </trkpt>
      <trkpt lat="42.93094" lon="0.1388">
        <ele>2378.3999023438</ele>
        <time>2014-08-31T07:36:43.000Z</time>
      </trkpt>
      <trkpt lat="42.93101" lon="0.13877">
        <ele>2381.3999023438</ele>
        <time>2014-08-31T07:37:10.000Z</time>
      </trkpt>
      <trkpt lat="42.93113" lon="0.13897">
        <ele>2387.1999511719</ele>
        <time>2014-08-31T07:37:31.000Z</time>
      </trkpt>
      <trkpt lat="42.93125" lon="0.13914">
        <ele>2393</ele>
        <time>2014-08-31T07:37:40.000Z</time>
      </trkpt>
      <trkpt lat="42.93131" lon="0.13921">
        <ele>2395.8000488281</ele>
        <time>2014-08-31T07:37:44.000Z</time>
      </trkpt>
      <trkpt lat="42.93141" lon="0.13942">
        <ele>2399.3999023438</ele>
        <time>2014-08-31T07:37:55.000Z</time>
      </trkpt>
      <trkpt lat="42.93146" lon="0.13961">
        <ele>2400</ele>
        <time>2014-08-31T07:38:04.000Z</time>
      </trkpt>
      <trkpt lat="42.93153" lon="0.13984">
        <ele>2402.8000488281</ele>
        <time>2014-08-31T07:38:15.000Z</time>
      </trkpt>
      <trkpt lat="42.93157" lon="0.14009">
        <ele>2403.8000488281</ele>
        <time>2014-08-31T07:38:27.000Z</time>
      </trkpt>
      <trkpt lat="42.93158" lon="0.14023">
        <ele>2403.6000976562</ele>
        <time>2014-08-31T07:38:34.000Z</time>
      </trkpt>
      <trkpt lat="42.93158" lon="0.14026">
        <ele>2403.1999511719</ele>
        <time>2014-08-31T07:38:36.000Z</time>
      </trkpt>
      <trkpt lat="42.93161" lon="0.14051">
        <ele>2404.1999511719</ele>
        <time>2014-08-31T07:38:52.000Z</time>
      </trkpt>
      <trkpt lat="42.93169" lon="0.14073">
        <ele>2408.1999511719</ele>
        <time>2014-08-31T07:39:07.000Z</time>
      </trkpt>
      <trkpt lat="42.93173" lon="0.14081">
        <ele>2410</ele>
        <time>2014-08-31T07:39:13.000Z</time>
      </trkpt>
      <trkpt lat="42.93178" lon="0.14104">
        <ele>2413.6000976562</ele>
        <time>2014-08-31T07:39:29.000Z</time>
      </trkpt>
      <trkpt lat="42.93183" lon="0.14128">
        <ele>2417.3999023438</ele>
        <time>2014-08-31T07:39:43.000Z</time>
      </trkpt>
      <trkpt lat="42.93188" lon="0.14149">
        <ele>2422.1999511719</ele>
        <time>2014-08-31T07:39:55.000Z</time>
      </trkpt>
      <trkpt lat="42.9319" lon="0.14162">
        <ele>2424.6000976562</ele>
        <time>2014-08-31T07:40:01.000Z</time>
      </trkpt>
      <trkpt lat="42.93191" lon="0.14187">
        <ele>2426</ele>
        <time>2014-08-31T07:40:13.000Z</time>
      </trkpt>
      <trkpt lat="42.93196" lon="0.14204">
        <ele>2430.3999023438</ele>
        <time>2014-08-31T07:40:21.000Z</time>
      </trkpt>
      <trkpt lat="42.93195" lon="0.1423">
        <ele>2429</ele>
        <time>2014-08-31T07:40:32.000Z</time>
      </trkpt>
      <trkpt lat="42.93193" lon="0.1424">
        <ele>2427.3999023438</ele>
        <time>2014-08-31T07:40:38.000Z</time>
      </trkpt>
      <trkpt lat="42.93193" lon="0.14247">
        <ele>2427.6000976562</ele>
        <time>2014-08-31T07:40:42.000Z</time>
      </trkpt>
      <trkpt lat="42.93189" lon="0.14271">
        <ele>2425.1999511719</ele>
        <time>2014-08-31T07:40:57.000Z</time>
      </trkpt>
      <trkpt lat="42.93188" lon="0.14276">
        <ele>2424.8000488281</ele>
        <time>2014-08-31T07:41:00.000Z</time>
      </trkpt>
      <trkpt lat="42.9319" lon="0.14299">
        <ele>2426.8000488281</ele>
        <time>2014-08-31T07:41:16.000Z</time>
      </trkpt>
      <trkpt lat="42.93203" lon="0.14285">
        <ele>2437.6000976562</ele>
        <time>2014-08-31T07:41:31.000Z</time>
      </trkpt>
      <trkpt lat="42.93204" lon="0.14282">
        <ele>2437.6000976562</ele>
        <time>2014-08-31T07:41:33.000Z</time>
      </trkpt>
      <trkpt lat="42.93202" lon="0.14275">
        <ele>2436</ele>
        <time>2014-08-31T07:41:37.000Z</time>
      </trkpt>
      <trkpt lat="42.932" lon="0.14264">
        <ele>2434</ele>
        <time>2014-08-31T07:41:45.000Z</time>
      </trkpt>
      <trkpt lat="42.93201" lon="0.14257">
        <ele>2434</ele>
        <time>2014-08-31T07:41:49.000Z</time>
      </trkpt>
      <trkpt lat="42.93204" lon="0.14246">
        <ele>2436</ele>
        <time>2014-08-31T07:41:57.000Z</time>
      </trkpt>
      <trkpt lat="42.93206" lon="0.14237">
        <ele>2437.8000488281</ele>
        <time>2014-08-31T07:42:02.000Z</time>
      </trkpt>
      <trkpt lat="42.93211" lon="0.14212">
        <ele>2443.1999511719</ele>
        <time>2014-08-31T07:42:16.000Z</time>
      </trkpt>
      <trkpt lat="42.93209" lon="0.14186">
        <ele>2441.6000976562</ele>
        <time>2014-08-31T07:42:26.000Z</time>
      </trkpt>
      <trkpt lat="42.93209" lon="0.14182">
        <ele>2441.6000976562</ele>
        <time>2014-08-31T07:42:28.000Z</time>
      </trkpt>
      <trkpt lat="42.93216" lon="0.14159">
        <ele>2446.8000488281</ele>
        <time>2014-08-31T07:42:38.000Z</time>
      </trkpt>
      <trkpt lat="42.9322" lon="0.14135">
        <ele>2447.8000488281</ele>
        <time>2014-08-31T07:42:49.000Z</time>
      </trkpt>
      <trkpt lat="42.93219" lon="0.14117">
        <ele>2446.8000488281</ele>
        <time>2014-08-31T07:42:57.000Z</time>
      </trkpt>
      <trkpt lat="42.93219" lon="0.14093">
        <ele>2446.6000976562</ele>
        <time>2014-08-31T07:43:15.000Z</time>
      </trkpt>
      <trkpt lat="42.93217" lon="0.14068">
        <ele>2443.8000488281</ele>
        <time>2014-08-31T07:43:30.000Z</time>
      </trkpt>
      <trkpt lat="42.93219" lon="0.14043">
        <ele>2444.1999511719</ele>
        <time>2014-08-31T07:43:45.000Z</time>
      </trkpt>
      <trkpt lat="42.93221" lon="0.14018">
        <ele>2446.6000976562</ele>
        <time>2014-08-31T07:44:00.000Z</time>
      </trkpt>
      <trkpt lat="42.93221" lon="0.14005">
        <ele>2447.1999511719</ele>
        <time>2014-08-31T07:44:08.000Z</time>
      </trkpt>
      <trkpt lat="42.93227" lon="0.13981">
        <ele>2449.1999511719</ele>
        <time>2014-08-31T07:44:22.000Z</time>
      </trkpt>
      <trkpt lat="42.93236" lon="0.1396">
        <ele>2453.1999511719</ele>
        <time>2014-08-31T07:44:35.000Z</time>
      </trkpt>
      <trkpt lat="42.93242" lon="0.13937">
        <ele>2455.8000488281</ele>
        <time>2014-08-31T07:44:45.000Z</time>
      </trkpt>
      <trkpt lat="42.93244" lon="0.13911">
        <ele>2456</ele>
        <time>2014-08-31T07:44:56.000Z</time>
      </trkpt>
      <trkpt lat="42.93244" lon="0.13888">
        <ele>2455.6000976562</ele>
        <time>2014-08-31T07:45:07.000Z</time>
      </trkpt>
      <trkpt lat="42.93248" lon="0.13877">
        <ele>2457.3999023438</ele>
        <time>2014-08-31T07:45:15.000Z</time>
      </trkpt>
      <trkpt lat="42.93258" lon="0.13857">
        <ele>2461.8000488281</ele>
        <time>2014-08-31T07:45:39.000Z</time>
      </trkpt>
      <trkpt lat="42.93269" lon="0.13835">
        <ele>2468.1999511719</ele>
        <time>2014-08-31T07:45:54.000Z</time>
      </trkpt>
      <trkpt lat="42.93277" lon="0.13813">
        <ele>2471.8000488281</ele>
        <time>2014-08-31T07:46:04.000Z</time>
      </trkpt>
      <trkpt lat="42.93283" lon="0.1379">
        <ele>2475.6000976562</ele>
        <time>2014-08-31T07:46:14.000Z</time>
      </trkpt>
      <trkpt lat="42.93283" lon="0.13764">
        <ele>2471.6000976562</ele>
        <time>2014-08-31T07:46:25.000Z</time>
      </trkpt>
      <trkpt lat="42.93282" lon="0.1374">
        <ele>2466.3999023438</ele>
        <time>2014-08-31T07:46:42.000Z</time>
      </trkpt>
      <trkpt lat="42.93286" lon="0.13734">
        <ele>2471.8000488281</ele>
        <time>2014-08-31T07:46:48.000Z</time>
      </trkpt>
      <trkpt lat="42.93294" lon="0.13738">
        <ele>2480.3999023438</ele>
        <time>2014-08-31T07:46:56.000Z</time>
      </trkpt>
      <trkpt lat="42.93297" lon="0.1376">
        <ele>2483</ele>
        <time>2014-08-31T07:47:08.000Z</time>
      </trkpt>
      <trkpt lat="42.93298" lon="0.13785">
        <ele>2488</ele>
        <time>2014-08-31T07:47:18.000Z</time>
      </trkpt>
      <trkpt lat="42.93301" lon="0.13811">
        <ele>2492.3999023438</ele>
        <time>2014-08-31T07:47:29.000Z</time>
      </trkpt>
      <trkpt lat="42.93304" lon="0.13837">
        <ele>2495.1999511719</ele>
        <time>2014-08-31T07:47:40.000Z</time>
      </trkpt>
      <trkpt lat="42.93307" lon="0.13862">
        <ele>2499.6000976562</ele>
        <time>2014-08-31T07:47:54.000Z</time>
      </trkpt>
      <trkpt lat="42.9331" lon="0.13888">
        <ele>2505.1999511719</ele>
        <time>2014-08-31T07:48:10.000Z</time>
      </trkpt>
      <trkpt lat="42.9331" lon="0.13896">
        <ele>2506.3999023438</ele>
        <time>2014-08-31T07:48:15.000Z</time>
      </trkpt>
      <trkpt lat="42.93306" lon="0.1392">
        <ele>2507.3999023438</ele>
        <time>2014-08-31T07:48:31.000Z</time>
      </trkpt>
      <trkpt lat="42.93305" lon="0.13932">
        <ele>2507.1999511719</ele>
        <time>2014-08-31T07:48:40.000Z</time>
      </trkpt>
      <trkpt lat="42.93305" lon="0.13953">
        <ele>2508.1999511719</ele>
        <time>2014-08-31T07:49:17.000Z</time>
      </trkpt>
      <trkpt lat="42.93306" lon="0.13977">
        <ele>2511.3999023438</ele>
        <time>2014-08-31T07:49:31.000Z</time>
      </trkpt>
      <trkpt lat="42.93304" lon="0.13993">
        <ele>2511.3999023438</ele>
        <time>2014-08-31T07:49:41.000Z</time>
      </trkpt>
      <trkpt lat="42.93306" lon="0.14">
        <ele>2513</ele>
        <time>2014-08-31T07:49:46.000Z</time>
      </trkpt>
      <trkpt lat="42.93307" lon="0.14019">
        <ele>2516.3999023438</ele>
        <time>2014-08-31T07:49:59.000Z</time>
      </trkpt>
      <trkpt lat="42.93306" lon="0.14022">
        <ele>2515</ele>
        <time>2014-08-31T07:50:03.000Z</time>
      </trkpt>
      <trkpt lat="42.93304" lon="0.14044">
        <ele>2515.6000976562</ele>
        <time>2014-08-31T07:50:28.000Z</time>
      </trkpt>
      <trkpt lat="42.93297" lon="0.14068">
        <ele>2512.3999023438</ele>
        <time>2014-08-31T07:50:44.000Z</time>
      </trkpt>
      <trkpt lat="42.93296" lon="0.14073">
        <ele>2513</ele>
        <time>2014-08-31T07:50:48.000Z</time>
      </trkpt>
      <trkpt lat="42.93295" lon="0.1407">
        <ele>2511</ele>
        <time>2014-08-31T07:51:47.000Z</time>
      </trkpt>
      <trkpt lat="42.93304" lon="0.14083">
        <ele>2522</ele>
        <time>2014-08-31T07:52:51.000Z</time>
      </trkpt>
      <trkpt lat="42.93316" lon="0.14064">
        <ele>2529.1999511719</ele>
        <time>2014-08-31T07:53:02.000Z</time>
      </trkpt>
      <trkpt lat="42.93319" lon="0.14039">
        <ele>2529</ele>
        <time>2014-08-31T07:53:11.000Z</time>
      </trkpt>
      <trkpt lat="42.93325" lon="0.14013">
        <ele>2531.6000976562</ele>
        <time>2014-08-31T07:53:21.000Z</time>
      </trkpt>
      <trkpt lat="42.93333" lon="0.13991">
        <ele>2536.8000488281</ele>
        <time>2014-08-31T07:53:32.000Z</time>
      </trkpt>
      <trkpt lat="42.93341" lon="0.13967">
        <ele>2540.8000488281</ele>
        <time>2014-08-31T07:53:47.000Z</time>
      </trkpt>
      <trkpt lat="42.93344" lon="0.13952">
        <ele>2541.6000976562</ele>
        <time>2014-08-31T07:53:58.000Z</time>
      </trkpt>
      <trkpt lat="42.93346" lon="0.13949">
        <ele>2542.8000488281</ele>
        <time>2014-08-31T07:54:01.000Z</time>
      </trkpt>
      <trkpt lat="42.93346" lon="0.13947">
        <ele>2543.1999511719</ele>
        <time>2014-08-31T07:54:02.000Z</time>
      </trkpt>
      <trkpt lat="42.93348" lon="0.13944">
        <ele>2544</ele>
        <time>2014-08-31T07:54:05.000Z</time>
      </trkpt>
      <trkpt lat="42.93354" lon="0.13924">
        <ele>2546.6000976562</ele>
        <time>2014-08-31T07:54:20.000Z</time>
      </trkpt>
      <trkpt lat="42.93355" lon="0.13908">
        <ele>2545</ele>
        <time>2014-08-31T07:54:29.000Z</time>
      </trkpt>
      <trkpt lat="42.93355" lon="0.13884">
        <ele>2541.1999511719</ele>
        <time>2014-08-31T07:54:42.000Z</time>
      </trkpt>
      <trkpt lat="42.9336" lon="0.13859">
        <ele>2544</ele>
        <time>2014-08-31T07:54:56.000Z</time>
      </trkpt>
      <trkpt lat="42.93363" lon="0.13834">
        <ele>2546.3999023438</ele>
        <time>2014-08-31T07:55:11.000Z</time>
      </trkpt>
      <trkpt lat="42.93367" lon="0.1381">
        <ele>2548</ele>
        <time>2014-08-31T07:55:25.000Z</time>
      </trkpt>
      <trkpt lat="42.93374" lon="0.13786">
        <ele>2552.1999511719</ele>
        <time>2014-08-31T07:55:40.000Z</time>
      </trkpt>
      <trkpt lat="42.93375" lon="0.13783">
        <ele>2553.6000976562</ele>
        <time>2014-08-31T07:55:42.000Z</time>
      </trkpt>
      <trkpt lat="42.93373" lon="0.1376">
        <ele>2558.3999023438</ele>
        <time>2014-08-31T07:55:56.000Z</time>
      </trkpt>
      <trkpt lat="42.93371" lon="0.13734">
        <ele>2560.8000488281</ele>
        <time>2014-08-31T07:56:10.000Z</time>
      </trkpt>
      <trkpt lat="42.93371" lon="0.13726">
        <ele>2560.3999023438</ele>
        <time>2014-08-31T07:56:15.000Z</time>
      </trkpt>
      <trkpt lat="42.9337" lon="0.137">
        <ele>2559.1999511719</ele>
        <time>2014-08-31T07:56:30.000Z</time>
      </trkpt>
      <trkpt lat="42.93378" lon="0.13678">
        <ele>2562.8000488281</ele>
        <time>2014-08-31T07:56:45.000Z</time>
      </trkpt>
      <trkpt lat="42.93385" lon="0.13655">
        <ele>2567</ele>
        <time>2014-08-31T07:57:00.000Z</time>
      </trkpt>
      <trkpt lat="42.93388" lon="0.13633">
        <ele>2570</ele>
        <time>2014-08-31T07:57:13.000Z</time>
      </trkpt>
      <trkpt lat="42.93391" lon="0.13609">
        <ele>2563</ele>
        <time>2014-08-31T07:57:27.000Z</time>
      </trkpt>
      <trkpt lat="42.93393" lon="0.13583">
        <ele>2556.8000488281</ele>
        <time>2014-08-31T07:57:42.000Z</time>
      </trkpt>
      <trkpt lat="42.93393" lon="0.13559">
        <ele>2555.6000976562</ele>
        <time>2014-08-31T07:57:59.000Z</time>
      </trkpt>
      <trkpt lat="42.93393" lon="0.13556">
        <ele>2555.8000488281</ele>
        <time>2014-08-31T07:58:01.000Z</time>
      </trkpt>
      <trkpt lat="42.93397" lon="0.13539">
        <ele>2558.6000976562</ele>
        <time>2014-08-31T07:58:17.000Z</time>
      </trkpt>
      <trkpt lat="42.93397" lon="0.1353">
        <ele>2558.1999511719</ele>
        <time>2014-08-31T07:58:22.000Z</time>
      </trkpt>
      <trkpt lat="42.93401" lon="0.13504">
        <ele>2561.1999511719</ele>
        <time>2014-08-31T07:58:34.000Z</time>
      </trkpt>
      <trkpt lat="42.93399" lon="0.13479">
        <ele>2561.6000976562</ele>
        <time>2014-08-31T07:58:47.000Z</time>
      </trkpt>
      <trkpt lat="42.93399" lon="0.13455">
        <ele>2561</ele>
        <time>2014-08-31T07:59:01.000Z</time>
      </trkpt>
      <trkpt lat="42.93406" lon="0.13433">
        <ele>2565.3999023438</ele>
        <time>2014-08-31T07:59:14.000Z</time>
      </trkpt>
      <trkpt lat="42.93409" lon="0.13433">
        <ele>2569</ele>
        <time>2014-08-31T07:59:16.000Z</time>
      </trkpt>
      <trkpt lat="42.93416" lon="0.13439">
        <ele>2577.6000976562</ele>
        <time>2014-08-31T07:59:20.000Z</time>
      </trkpt>
      <trkpt lat="42.93417" lon="0.13463">
        <ele>2584.6000976562</ele>
        <time>2014-08-31T07:59:30.000Z</time>
      </trkpt>
      <trkpt lat="42.93417" lon="0.13489">
        <ele>2582</ele>
        <time>2014-08-31T07:59:43.000Z</time>
      </trkpt>
      <trkpt lat="42.93419" lon="0.135">
        <ele>2583.6000976562</ele>
        <time>2014-08-31T07:59:49.000Z</time>
      </trkpt>
      <trkpt lat="42.93419" lon="0.13525">
        <ele>2582.3999023438</ele>
        <time>2014-08-31T08:00:04.000Z</time>
      </trkpt>
      <trkpt lat="42.93418" lon="0.13531">
        <ele>2580.8000488281</ele>
        <time>2014-08-31T08:00:08.000Z</time>
      </trkpt>
      <trkpt lat="42.93418" lon="0.13555">
        <ele>2581.3999023438</ele>
        <time>2014-08-31T08:00:22.000Z</time>
      </trkpt>
      <trkpt lat="42.93423" lon="0.13579">
        <ele>2587.6000976562</ele>
        <time>2014-08-31T08:00:38.000Z</time>
      </trkpt>
      <trkpt lat="42.93427" lon="0.136">
        <ele>2590.6000976562</ele>
        <time>2014-08-31T08:00:51.000Z</time>
      </trkpt>
      <trkpt lat="42.93425" lon="0.13624">
        <ele>2590.6000976562</ele>
        <time>2014-08-31T08:01:06.000Z</time>
      </trkpt>
      <trkpt lat="42.93428" lon="0.13649">
        <ele>2591</ele>
        <time>2014-08-31T08:01:22.000Z</time>
      </trkpt>
      <trkpt lat="42.93428" lon="0.13651">
        <ele>2590.8000488281</ele>
        <time>2014-08-31T08:01:23.000Z</time>
      </trkpt>
      <trkpt lat="42.93428" lon="0.13657">
        <ele>2590.3999023438</ele>
        <time>2014-08-31T08:01:27.000Z</time>
      </trkpt>
      <trkpt lat="42.93433" lon="0.13675">
        <ele>2592.1999511719</ele>
        <time>2014-08-31T08:01:39.000Z</time>
      </trkpt>
      <trkpt lat="42.93446" lon="0.13694">
        <ele>2598.1999511719</ele>
        <time>2014-08-31T08:01:55.000Z</time>
      </trkpt>
      <trkpt lat="42.93446" lon="0.13695">
        <ele>2598.1999511719</ele>
        <time>2014-08-31T08:01:56.000Z</time>
      </trkpt>
      <trkpt lat="42.93447" lon="0.137">
        <ele>2598.8000488281</ele>
        <time>2014-08-31T08:02:01.000Z</time>
      </trkpt>
      <trkpt lat="42.9346" lon="0.1369">
        <ele>2607.1999511719</ele>
        <time>2014-08-31T08:02:30.000Z</time>
      </trkpt>
      <trkpt lat="42.93462" lon="0.13681">
        <ele>2609</ele>
        <time>2014-08-31T08:02:34.000Z</time>
      </trkpt>
      <trkpt lat="42.93461" lon="0.13674">
        <ele>2608.6000976562</ele>
        <time>2014-08-31T08:03:12.000Z</time>
      </trkpt>
      <trkpt lat="42.93457" lon="0.13671">
        <ele>2606.6000976562</ele>
        <time>2014-08-31T08:03:15.000Z</time>
      </trkpt>
      <trkpt lat="42.93446" lon="0.13661">
        <ele>2600.8000488281</ele>
        <time>2014-08-31T08:03:22.000Z</time>
      </trkpt>
      <trkpt lat="42.93437" lon="0.13641">
        <ele>2596.6000976562</ele>
        <time>2014-08-31T08:03:32.000Z</time>
      </trkpt>
      <trkpt lat="42.93435" lon="0.13616">
        <ele>2594.6000976562</ele>
        <time>2014-08-31T08:03:42.000Z</time>
      </trkpt>
      <trkpt lat="42.93442" lon="0.13594">
        <ele>2597.3999023438</ele>
        <time>2014-08-31T08:03:53.000Z</time>
      </trkpt>
      <trkpt lat="42.93448" lon="0.13569">
        <ele>2599</ele>
        <time>2014-08-31T08:04:04.000Z</time>
      </trkpt>
      <trkpt lat="42.93462" lon="0.13552">
        <ele>2605.6000976562</ele>
        <time>2014-08-31T08:04:13.000Z</time>
      </trkpt>
      <trkpt lat="42.9348" lon="0.13547">
        <ele>2614.6000976562</ele>
        <time>2014-08-31T08:04:24.000Z</time>
      </trkpt>
      <trkpt lat="42.93484" lon="0.13546">
        <ele>2616.6000976562</ele>
        <time>2014-08-31T08:04:27.000Z</time>
      </trkpt>
      <trkpt lat="42.93499" lon="0.13533">
        <ele>2624.8000488281</ele>
        <time>2014-08-31T08:04:44.000Z</time>
      </trkpt>
      <trkpt lat="42.93515" lon="0.13519">
        <ele>2633.8000488281</ele>
        <time>2014-08-31T08:04:59.000Z</time>
      </trkpt>
      <trkpt lat="42.93527" lon="0.13509">
        <ele>2639.1999511719</ele>
        <time>2014-08-31T08:05:10.000Z</time>
      </trkpt>
      <trkpt lat="42.93536" lon="0.13505">
        <ele>2642.3999023438</ele>
        <time>2014-08-31T08:05:16.000Z</time>
      </trkpt>
      <trkpt lat="42.93553" lon="0.13503">
        <ele>2647.3999023438</ele>
        <time>2014-08-31T08:05:30.000Z</time>
      </trkpt>
      <trkpt lat="42.93566" lon="0.1352">
        <ele>2649.6000976562</ele>
        <time>2014-08-31T08:05:43.000Z</time>
      </trkpt>
      <trkpt lat="42.93569" lon="0.13546">
        <ele>2647.6000976562</ele>
        <time>2014-08-31T08:05:52.000Z</time>
      </trkpt>
      <trkpt lat="42.93573" lon="0.13572">
        <ele>2653</ele>
        <time>2014-08-31T08:06:01.000Z</time>
      </trkpt>
      <trkpt lat="42.93574" lon="0.13597">
        <ele>2657</ele>
        <time>2014-08-31T08:06:10.000Z</time>
      </trkpt>
      <trkpt lat="42.9357" lon="0.13618">
        <ele>2657.1999511719</ele>
        <time>2014-08-31T08:06:18.000Z</time>
      </trkpt>
      <trkpt lat="42.93566" lon="0.13624">
        <ele>2655.8000488281</ele>
        <time>2014-08-31T08:06:22.000Z</time>
      </trkpt>
      <trkpt lat="42.93564" lon="0.13631">
        <ele>2655.3999023438</ele>
        <time>2014-08-31T08:06:28.000Z</time>
      </trkpt>
      <trkpt lat="42.93554" lon="0.13648">
        <ele>2653.8000488281</ele>
        <time>2014-08-31T08:06:41.000Z</time>
      </trkpt>
      <trkpt lat="42.93548" lon="0.13671">
        <ele>2654.3999023438</ele>
        <time>2014-08-31T08:06:55.000Z</time>
      </trkpt>
      <trkpt lat="42.93547" lon="0.13697">
        <ele>2655.6000976562</ele>
        <time>2014-08-31T08:07:09.000Z</time>
      </trkpt>
      <trkpt lat="42.93553" lon="0.13721">
        <ele>2661.6000976562</ele>
        <time>2014-08-31T08:07:19.000Z</time>
      </trkpt>
      <trkpt lat="42.93559" lon="0.13745">
        <ele>2669</ele>
        <time>2014-08-31T08:07:32.000Z</time>
      </trkpt>
      <trkpt lat="42.93561" lon="0.13762">
        <ele>2672.8000488281</ele>
        <time>2014-08-31T08:07:43.000Z</time>
      </trkpt>
      <trkpt lat="42.93562" lon="0.13786">
        <ele>2677.3999023438</ele>
        <time>2014-08-31T08:07:59.000Z</time>
      </trkpt>
      <trkpt lat="42.93562" lon="0.13788">
        <ele>2677.3999023438</ele>
        <time>2014-08-31T08:08:00.000Z</time>
      </trkpt>
      <trkpt lat="42.93555" lon="0.1381">
        <ele>2678</ele>
        <time>2014-08-31T08:08:16.000Z</time>
      </trkpt>
      <trkpt lat="42.93554" lon="0.13813">
        <ele>2678.3999023438</ele>
        <time>2014-08-31T08:08:18.000Z</time>
      </trkpt>
      <trkpt lat="42.93552" lon="0.13818">
        <ele>2678.6000976562</ele>
        <time>2014-08-31T08:08:22.000Z</time>
      </trkpt>
      <trkpt lat="42.93557" lon="0.13805">
        <ele>2677.8000488281</ele>
        <time>2014-08-31T08:09:16.000Z</time>
      </trkpt>
      <trkpt lat="42.93561" lon="0.13778">
        <ele>2675.6000976562</ele>
        <time>2014-08-31T08:09:23.000Z</time>
      </trkpt>
      <trkpt lat="42.93557" lon="0.13752">
        <ele>2668.8000488281</ele>
        <time>2014-08-31T08:09:29.000Z</time>
      </trkpt>
      <trkpt lat="42.93553" lon="0.13727">
        <ele>2662.8000488281</ele>
        <time>2014-08-31T08:09:35.000Z</time>
      </trkpt>
      <trkpt lat="42.93556" lon="0.13699">
        <ele>2660.6000976562</ele>
        <time>2014-08-31T08:09:41.000Z</time>
      </trkpt>
      <trkpt lat="42.9357" lon="0.13682">
        <ele>2666.8000488281</ele>
        <time>2014-08-31T08:09:49.000Z</time>
      </trkpt>
      <trkpt lat="42.93584" lon="0.13665">
        <ele>2670.1999511719</ele>
        <time>2014-08-31T08:09:59.000Z</time>
      </trkpt>
      <trkpt lat="42.93599" lon="0.1365">
        <ele>2674.3999023438</ele>
        <time>2014-08-31T08:10:14.000Z</time>
      </trkpt>
      <trkpt lat="42.9361" lon="0.13643">
        <ele>2676.6000976562</ele>
        <time>2014-08-31T08:10:25.000Z</time>
      </trkpt>
      <trkpt lat="42.93613" lon="0.13643">
        <ele>2677.1999511719</ele>
        <time>2014-08-31T08:10:29.000Z</time>
      </trkpt>
      <trkpt lat="42.93628" lon="0.1363">
        <ele>2675.6000976562</ele>
        <time>2014-08-31T08:10:46.000Z</time>
      </trkpt>
      <trkpt lat="42.93636" lon="0.13643">
        <ele>2681.8000488281</ele>
        <time>2014-08-31T08:11:12.000Z</time>
      </trkpt>
      <trkpt lat="42.93639" lon="0.13667">
        <ele>2691.1999511719</ele>
        <time>2014-08-31T08:11:33.000Z</time>
      </trkpt>
      <trkpt lat="42.93637" lon="0.13691">
        <ele>2696</ele>
        <time>2014-08-31T08:12:02.000Z</time>
      </trkpt>
      <trkpt lat="42.93637" lon="0.13715">
        <ele>2700.3999023438</ele>
        <time>2014-08-31T08:12:30.000Z</time>
      </trkpt>
      <trkpt lat="42.93636" lon="0.13739">
        <ele>2706.6000976562</ele>
        <time>2014-08-31T08:12:50.000Z</time>
      </trkpt>
      <trkpt lat="42.93634" lon="0.13763">
        <ele>2711.3999023438</ele>
        <time>2014-08-31T08:13:21.000Z</time>
      </trkpt>
      <trkpt lat="42.9364" lon="0.13787">
        <ele>2718</ele>
        <time>2014-08-31T08:13:42.000Z</time>
      </trkpt>
      <trkpt lat="42.9364" lon="0.13806">
        <ele>2722.8000488281</ele>
        <time>2014-08-31T08:14:19.000Z</time>
      </trkpt>
      <trkpt lat="42.93651" lon="0.13787">
        <ele>2723.3999023438</ele>
        <time>2014-08-31T08:14:44.000Z</time>
      </trkpt>
      <trkpt lat="42.93668" lon="0.1378">
        <ele>2730</ele>
        <time>2014-08-31T08:15:07.000Z</time>
      </trkpt>
      <trkpt lat="42.93669" lon="0.13805">
        <ele>2736.6000976562</ele>
        <time>2014-08-31T08:15:28.000Z</time>
      </trkpt>
      <trkpt lat="42.93664" lon="0.13828">
        <ele>2741.1999511719</ele>
        <time>2014-08-31T08:15:47.000Z</time>
      </trkpt>
      <trkpt lat="42.93665" lon="0.13833">
        <ele>2742.6000976562</ele>
        <time>2014-08-31T08:16:21.000Z</time>
      </trkpt>
      <trkpt lat="42.93681" lon="0.13821">
        <ele>2745.8000488281</ele>
        <time>2014-08-31T08:16:40.000Z</time>
      </trkpt>
      <trkpt lat="42.93688" lon="0.13818">
        <ele>2746.8000488281</ele>
        <time>2014-08-31T08:16:47.000Z</time>
      </trkpt>
      <trkpt lat="42.93689" lon="0.13842">
        <ele>2753.8000488281</ele>
        <time>2014-08-31T08:17:13.000Z</time>
      </trkpt>
      <trkpt lat="42.93683" lon="0.13865">
        <ele>2759</ele>
        <time>2014-08-31T08:17:31.000Z</time>
      </trkpt>
      <trkpt lat="42.93676" lon="0.13887">
        <ele>2764.1999511719</ele>
        <time>2014-08-31T08:17:50.000Z</time>
      </trkpt>
      <trkpt lat="42.93672" lon="0.13911">
        <ele>2770.1999511719</ele>
        <time>2014-08-31T08:18:09.000Z</time>
      </trkpt>
      <trkpt lat="42.93667" lon="0.13931">
        <ele>2774</ele>
        <time>2014-08-31T08:18:40.000Z</time>
      </trkpt>
      <trkpt lat="42.93662" lon="0.13956">
        <ele>2779.3999023438</ele>
        <time>2014-08-31T08:18:59.000Z</time>
      </trkpt>
      <trkpt lat="42.93666" lon="0.13968">
        <ele>2785.6000976562</ele>
        <time>2014-08-31T08:19:34.000Z</time>
      </trkpt>
      <trkpt lat="42.93679" lon="0.13952">
        <ele>2786</ele>
        <time>2014-08-31T08:19:55.000Z</time>
      </trkpt>
      <trkpt lat="42.9369" lon="0.13933">
        <ele>2784.3999023438</ele>
        <time>2014-08-31T08:20:15.000Z</time>
      </trkpt>
      <trkpt lat="42.93703" lon="0.13925">
        <ele>2787.1999511719</ele>
        <time>2014-08-31T08:21:03.000Z</time>
      </trkpt>
      <trkpt lat="42.93704" lon="0.13927">
        <ele>2788.3999023438</ele>
        <time>2014-08-31T08:21:05.000Z</time>
      </trkpt>
      <trkpt lat="42.93706" lon="0.13953">
        <ele>2797.6000976562</ele>
        <time>2014-08-31T08:21:25.000Z</time>
      </trkpt>
      <trkpt lat="42.93704" lon="0.13975">
        <ele>2803.6000976562</ele>
        <time>2014-08-31T08:21:59.000Z</time>
      </trkpt>
      <trkpt lat="42.937" lon="0.13998">
        <ele>2810.1999511719</ele>
        <time>2014-08-31T08:22:26.000Z</time>
      </trkpt>
      <trkpt lat="42.93709" lon="0.14001">
        <ele>2814.1999511719</ele>
        <time>2014-08-31T08:23:08.000Z</time>
      </trkpt>
      <trkpt lat="42.93719" lon="0.14008">
        <ele>2819.6000976562</ele>
        <time>2014-08-31T08:23:43.000Z</time>
      </trkpt>
      <trkpt lat="42.93719" lon="0.14029">
        <ele>2828.8000488281</ele>
        <time>2014-08-31T08:24:26.000Z</time>
      </trkpt>
      <trkpt lat="42.93735" lon="0.14022">
        <ele>2830.1999511719</ele>
        <time>2014-08-31T08:24:49.000Z</time>
      </trkpt>
      <trkpt lat="42.9372" lon="0.14028">
        <ele>2828.6000976562</ele>
        <time>2014-08-31T08:25:27.000Z</time>
      </trkpt>
      <trkpt lat="42.93711" lon="0.1405">
        <ele>2832.8000488281</ele>
        <time>2014-08-31T08:25:45.000Z</time>
      </trkpt>
      <trkpt lat="42.93711" lon="0.14067">
        <ele>2833.3999023438</ele>
        <time>2014-08-31T08:25:59.000Z</time>
      </trkpt>
      <trkpt lat="42.93704" lon="0.14085">
        <ele>2835.1999511719</ele>
        <time>2014-08-31T08:26:45.000Z</time>
      </trkpt>
      <trkpt lat="42.93696" lon="0.14106">
        <ele>2842</ele>
        <time>2014-08-31T08:27:22.000Z</time>
      </trkpt>
      <trkpt lat="42.93692" lon="0.14127">
        <ele>2848.8000488281</ele>
        <time>2014-08-31T08:27:52.000Z</time>
      </trkpt>
      <trkpt lat="42.93691" lon="0.14128">
        <ele>2848.8000488281</ele>
        <time>2014-08-31T08:27:53.000Z</time>
      </trkpt>
      <trkpt lat="42.93684" lon="0.1414">
        <ele>2845.6000976562</ele>
        <time>2014-08-31T08:27:59.000Z</time>
      </trkpt>
      <trkpt lat="42.93671" lon="0.1415">
        <ele>2843.1999511719</ele>
        <time>2014-08-31T08:28:18.000Z</time>
      </trkpt>
      <trkpt lat="42.93669" lon="0.14152">
        <ele>2841.8000488281</ele>
        <time>2014-08-31T08:28:20.000Z</time>
      </trkpt>
      <trkpt lat="42.93677" lon="0.14159">
        <ele>2843.3999023438</ele>
        <time>2014-08-31T08:28:38.000Z</time>
      </trkpt>
      <trkpt lat="42.93661" lon="0.14154">
        <ele>2836</ele>
        <time>2014-08-31T08:30:20.000Z</time>
      </trkpt>
      <trkpt lat="42.93663" lon="0.14153">
        <ele>2837.3999023438</ele>
        <time>2014-08-31T08:30:21.000Z</time>
      </trkpt>
      <trkpt lat="42.93675" lon="0.14147">
        <ele>2845.6000976562</ele>
        <time>2014-08-31T08:30:26.000Z</time>
      </trkpt>
      <trkpt lat="42.93678" lon="0.14144">
        <ele>2845.8000488281</ele>
        <time>2014-08-31T08:30:29.000Z</time>
      </trkpt>
      <trkpt lat="42.93687" lon="0.1413">
        <ele>2848.1999511719</ele>
        <time>2014-08-31T08:31:13.000Z</time>
      </trkpt>
      <trkpt lat="42.93685" lon="0.14126">
        <ele>2848.3999023438</ele>
        <time>2014-08-31T08:33:00.000Z</time>
      </trkpt>
      <trkpt lat="42.93687" lon="0.14125">
        <ele>2848.1999511719</ele>
        <time>2014-08-31T08:35:48.000Z</time>
      </trkpt>
      <trkpt lat="42.93695" lon="0.14123">
        <ele>2847.6000976562</ele>
        <time>2014-08-31T08:35:52.000Z</time>
      </trkpt>
      <trkpt lat="42.93695" lon="0.14111">
        <ele>2843.6000976562</ele>
        <time>2014-08-31T08:35:57.000Z</time>
      </trkpt>
      <trkpt lat="42.93695" lon="0.14106">
        <ele>2842</ele>
        <time>2014-08-31T08:35:59.000Z</time>
      </trkpt>
      <trkpt lat="42.937" lon="0.14084">
        <ele>2835</ele>
        <time>2014-08-31T08:36:14.000Z</time>
      </trkpt>
      <trkpt lat="42.93705" lon="0.14064">
        <ele>2831.6000976562</ele>
        <time>2014-08-31T08:36:28.000Z</time>
      </trkpt>
      <trkpt lat="42.93705" lon="0.14063">
        <ele>2831.6000976562</ele>
        <time>2014-08-31T08:36:29.000Z</time>
      </trkpt>
      <trkpt lat="42.93711" lon="0.14041">
        <ele>2831.3999023438</ele>
        <time>2014-08-31T08:36:50.000Z</time>
      </trkpt>
      <trkpt lat="42.93723" lon="0.14021">
        <ele>2826.1999511719</ele>
        <time>2014-08-31T08:37:03.000Z</time>
      </trkpt>
      <trkpt lat="42.93723" lon="0.1402">
        <ele>2825.8000488281</ele>
        <time>2014-08-31T08:37:04.000Z</time>
      </trkpt>
      <trkpt lat="42.93711" lon="0.1402">
        <ele>2822.3999023438</ele>
        <time>2014-08-31T08:37:15.000Z</time>
      </trkpt>
      <trkpt lat="42.93711" lon="0.14015">
        <ele>2820.3999023438</ele>
        <time>2014-08-31T08:37:19.000Z</time>
      </trkpt>
      <trkpt lat="42.93717" lon="0.13992">
        <ele>2813.8000488281</ele>
        <time>2014-08-31T08:37:38.000Z</time>
      </trkpt>
      <trkpt lat="42.93709" lon="0.13995">
        <ele>2811.3999023438</ele>
        <time>2014-08-31T08:37:49.000Z</time>
      </trkpt>
      <trkpt lat="42.93696" lon="0.14003">
        <ele>2811</ele>
        <time>2014-08-31T08:38:00.000Z</time>
      </trkpt>
      <trkpt lat="42.93695" lon="0.13989">
        <ele>2804.6000976562</ele>
        <time>2014-08-31T08:38:14.000Z</time>
      </trkpt>
      <trkpt lat="42.93699" lon="0.13964">
        <ele>2798.3999023438</ele>
        <time>2014-08-31T08:38:29.000Z</time>
      </trkpt>
      <trkpt lat="42.93703" lon="0.13942">
        <ele>2792.8000488281</ele>
        <time>2014-08-31T08:38:42.000Z</time>
      </trkpt>
      <trkpt lat="42.93708" lon="0.13927">
        <ele>2790</ele>
        <time>2014-08-31T08:38:48.000Z</time>
      </trkpt>
      <trkpt lat="42.93692" lon="0.13937">
        <ele>2786.3999023438</ele>
        <time>2014-08-31T08:38:58.000Z</time>
      </trkpt>
      <trkpt lat="42.93686" lon="0.13946">
        <ele>2787.3999023438</ele>
        <time>2014-08-31T08:39:03.000Z</time>
      </trkpt>
      <trkpt lat="42.93685" lon="0.13948">
        <ele>2787.3999023438</ele>
        <time>2014-08-31T08:39:04.000Z</time>
      </trkpt>
      <trkpt lat="42.93669" lon="0.13964">
        <ele>2786</ele>
        <time>2014-08-31T08:39:14.000Z</time>
      </trkpt>
      <trkpt lat="42.93659" lon="0.13975">
        <ele>2785.1999511719</ele>
        <time>2014-08-31T08:39:22.000Z</time>
      </trkpt>
      <trkpt lat="42.9366" lon="0.13951">
        <ele>2776.6000976562</ele>
        <time>2014-08-31T08:39:33.000Z</time>
      </trkpt>
      <trkpt lat="42.93665" lon="0.13925">
        <ele>2771</ele>
        <time>2014-08-31T08:39:43.000Z</time>
      </trkpt>
      <trkpt lat="42.9367" lon="0.13902">
        <ele>2766</ele>
        <time>2014-08-31T08:39:53.000Z</time>
      </trkpt>
      <trkpt lat="42.93675" lon="0.13875">
        <ele>2759.6000976562</ele>
        <time>2014-08-31T08:40:04.000Z</time>
      </trkpt>
      <trkpt lat="42.93682" lon="0.13852">
        <ele>2755</ele>
        <time>2014-08-31T08:40:13.000Z</time>
      </trkpt>
      <trkpt lat="42.93688" lon="0.13826">
        <ele>2749</ele>
        <time>2014-08-31T08:40:22.000Z</time>
      </trkpt>
      <trkpt lat="42.93691" lon="0.13813">
        <ele>2746</ele>
        <time>2014-08-31T08:40:27.000Z</time>
      </trkpt>
      <trkpt lat="42.9369" lon="0.13807">
        <ele>2744.1999511719</ele>
        <time>2014-08-31T08:40:30.000Z</time>
      </trkpt>
      <trkpt lat="42.93683" lon="0.13815">
        <ele>2744.6000976562</ele>
        <time>2014-08-31T08:40:35.000Z</time>
      </trkpt>
      <trkpt lat="42.93681" lon="0.1382">
        <ele>2745.6000976562</ele>
        <time>2014-08-31T08:40:37.000Z</time>
      </trkpt>
      <trkpt lat="42.93672" lon="0.1383">
        <ele>2745.3999023438</ele>
        <time>2014-08-31T08:40:43.000Z</time>
      </trkpt>
      <trkpt lat="42.93667" lon="0.13834">
        <ele>2744.1999511719</ele>
        <time>2014-08-31T08:40:46.000Z</time>
      </trkpt>
      <trkpt lat="42.93662" lon="0.13838">
        <ele>2742.6000976562</ele>
        <time>2014-08-31T08:40:50.000Z</time>
      </trkpt>
      <trkpt lat="42.93658" lon="0.13834">
        <ele>2739.8000488281</ele>
        <time>2014-08-31T08:40:54.000Z</time>
      </trkpt>
      <trkpt lat="42.93663" lon="0.13809">
        <ele>2735.1999511719</ele>
        <time>2014-08-31T08:41:04.000Z</time>
      </trkpt>
      <trkpt lat="42.93666" lon="0.13797">
        <ele>2733.1999511719</ele>
        <time>2014-08-31T08:41:11.000Z</time>
      </trkpt>
      <trkpt lat="42.9367" lon="0.13773">
        <ele>2729</ele>
        <time>2014-08-31T08:41:21.000Z</time>
      </trkpt>
      <trkpt lat="42.93668" lon="0.13773">
        <ele>2728.1999511719</ele>
        <time>2014-08-31T08:41:22.000Z</time>
      </trkpt>
      <trkpt lat="42.93652" lon="0.13787">
        <ele>2724</ele>
        <time>2014-08-31T08:41:32.000Z</time>
      </trkpt>
      <trkpt lat="42.93638" lon="0.13804">
        <ele>2721.3999023438</ele>
        <time>2014-08-31T08:41:41.000Z</time>
      </trkpt>
      <trkpt lat="42.93636" lon="0.13808">
        <ele>2721.1999511719</ele>
        <time>2014-08-31T08:41:43.000Z</time>
      </trkpt>
      <trkpt lat="42.93635" lon="0.1379">
        <ele>2716.1999511719</ele>
        <time>2014-08-31T08:41:52.000Z</time>
      </trkpt>
      <trkpt lat="42.93636" lon="0.13774">
        <ele>2714</ele>
        <time>2014-08-31T08:41:59.000Z</time>
      </trkpt>
      <trkpt lat="42.93634" lon="0.13762">
        <ele>2710.8000488281</ele>
        <time>2014-08-31T08:42:04.000Z</time>
      </trkpt>
      <trkpt lat="42.93634" lon="0.13736">
        <ele>2704.8000488281</ele>
        <time>2014-08-31T08:42:14.000Z</time>
      </trkpt>
      <trkpt lat="42.93635" lon="0.13709">
        <ele>2698.1999511719</ele>
        <time>2014-08-31T08:42:24.000Z</time>
      </trkpt>
      <trkpt lat="42.93634" lon="0.13691">
        <ele>2694.8000488281</ele>
        <time>2014-08-31T08:42:31.000Z</time>
      </trkpt>
      <trkpt lat="42.93635" lon="0.13678">
        <ele>2693</ele>
        <time>2014-08-31T08:42:36.000Z</time>
      </trkpt>
      <trkpt lat="42.93634" lon="0.13652">
        <ele>2684.8000488281</ele>
        <time>2014-08-31T08:42:46.000Z</time>
      </trkpt>
      <trkpt lat="42.93637" lon="0.13636">
        <ele>2679.6000976562</ele>
        <time>2014-08-31T08:42:53.000Z</time>
      </trkpt>
      <trkpt lat="42.93635" lon="0.13629">
        <ele>2676.6000976562</ele>
        <time>2014-08-31T08:42:58.000Z</time>
      </trkpt>
      <trkpt lat="42.93618" lon="0.13644">
        <ele>2678.6000976562</ele>
        <time>2014-08-31T08:43:07.000Z</time>
      </trkpt>
      <trkpt lat="42.93609" lon="0.13652">
        <ele>2678.3999023438</ele>
        <time>2014-08-31T08:43:12.000Z</time>
      </trkpt>
      <trkpt lat="42.93593" lon="0.13667">
        <ele>2674.3999023438</ele>
        <time>2014-08-31T08:43:20.000Z</time>
      </trkpt>
      <trkpt lat="42.93578" lon="0.13683">
        <ele>2670.6000976562</ele>
        <time>2014-08-31T08:43:28.000Z</time>
      </trkpt>
      <trkpt lat="42.93564" lon="0.137">
        <ele>2665.1999511719</ele>
        <time>2014-08-31T08:43:36.000Z</time>
      </trkpt>
      <trkpt lat="42.9356" lon="0.13702">
        <ele>2663</ele>
        <time>2014-08-31T08:43:38.000Z</time>
      </trkpt>
      <trkpt lat="42.93549" lon="0.13682">
        <ele>2655.6000976562</ele>
        <time>2014-08-31T08:43:46.000Z</time>
      </trkpt>
      <trkpt lat="42.93552" lon="0.13661">
        <ele>2655.1999511719</ele>
        <time>2014-08-31T08:43:51.000Z</time>
      </trkpt>
      <trkpt lat="42.93555" lon="0.13649">
        <ele>2654.3999023438</ele>
        <time>2014-08-31T08:43:54.000Z</time>
      </trkpt>
      <trkpt lat="42.93563" lon="0.13623">
        <ele>2654.1999511719</ele>
        <time>2014-08-31T08:44:01.000Z</time>
      </trkpt>
      <trkpt lat="42.9357" lon="0.13598">
        <ele>2656</ele>
        <time>2014-08-31T08:44:08.000Z</time>
      </trkpt>
      <trkpt lat="42.93571" lon="0.13573">
        <ele>2652.6000976562</ele>
        <time>2014-08-31T08:44:15.000Z</time>
      </trkpt>
      <trkpt lat="42.93567" lon="0.13546">
        <ele>2647</ele>
        <time>2014-08-31T08:44:22.000Z</time>
      </trkpt>
      <trkpt lat="42.93562" lon="0.13522">
        <ele>2648.1999511719</ele>
        <time>2014-08-31T08:44:28.000Z</time>
      </trkpt>
      <trkpt lat="42.93547" lon="0.13504">
        <ele>2646.1999511719</ele>
        <time>2014-08-31T08:44:35.000Z</time>
      </trkpt>
      <trkpt lat="42.93528" lon="0.13514">
        <ele>2639</ele>
        <time>2014-08-31T08:44:42.000Z</time>
      </trkpt>
      <trkpt lat="42.93515" lon="0.13531">
        <ele>2632.1999511719</ele>
        <time>2014-08-31T08:44:48.000Z</time>
      </trkpt>
      <trkpt lat="42.935" lon="0.13545">
        <ele>2624.1999511719</ele>
        <time>2014-08-31T08:44:54.000Z</time>
      </trkpt>
      <trkpt lat="42.93483" lon="0.13559">
        <ele>2616.1999511719</ele>
        <time>2014-08-31T08:45:00.000Z</time>
      </trkpt>
      <trkpt lat="42.93466" lon="0.13568">
        <ele>2607.8000488281</ele>
        <time>2014-08-31T08:45:06.000Z</time>
      </trkpt>
      <trkpt lat="42.93459" lon="0.13572">
        <ele>2604.3999023438</ele>
        <time>2014-08-31T08:45:10.000Z</time>
      </trkpt>
      <trkpt lat="42.93463" lon="0.13581">
        <ele>2606.8000488281</ele>
        <time>2014-08-31T08:45:14.000Z</time>
      </trkpt>
      <trkpt lat="42.93451" lon="0.13611">
        <ele>2602.1999511719</ele>
        <time>2014-08-31T08:46:37.000Z</time>
      </trkpt>
      <trkpt lat="42.93462" lon="0.13589">
        <ele>2606.1999511719</ele>
        <time>2014-08-31T08:46:46.000Z</time>
      </trkpt>
      <trkpt lat="42.9346" lon="0.13568">
        <ele>2605</ele>
        <time>2014-08-31T08:46:52.000Z</time>
      </trkpt>
      <trkpt lat="42.93448" lon="0.13571">
        <ele>2599.1999511719</ele>
        <time>2014-08-31T08:46:58.000Z</time>
      </trkpt>
      <trkpt lat="42.93443" lon="0.13598">
        <ele>2598</ele>
        <time>2014-08-31T08:47:05.000Z</time>
      </trkpt>
      <trkpt lat="42.93437" lon="0.13625">
        <ele>2595.8000488281</ele>
        <time>2014-08-31T08:47:12.000Z</time>
      </trkpt>
      <trkpt lat="42.93438" lon="0.13652">
        <ele>2596.8000488281</ele>
        <time>2014-08-31T08:47:18.000Z</time>
      </trkpt>
      <trkpt lat="42.9345" lon="0.13669">
        <ele>2602.8000488281</ele>
        <time>2014-08-31T08:47:25.000Z</time>
      </trkpt>
      <trkpt lat="42.93461" lon="0.13691">
        <ele>2607.8000488281</ele>
        <time>2014-08-31T08:47:32.000Z</time>
      </trkpt>
      <trkpt lat="42.9346" lon="0.13702">
        <ele>2606.1999511719</ele>
        <time>2014-08-31T08:47:35.000Z</time>
      </trkpt>
      <trkpt lat="42.93442" lon="0.13707">
        <ele>2595.1999511719</ele>
        <time>2014-08-31T08:47:41.000Z</time>
      </trkpt>
      <trkpt lat="42.93433" lon="0.13684">
        <ele>2591.1999511719</ele>
        <time>2014-08-31T08:47:48.000Z</time>
      </trkpt>
      <trkpt lat="42.93424" lon="0.1366">
        <ele>2587.6000976562</ele>
        <time>2014-08-31T08:47:55.000Z</time>
      </trkpt>
      <trkpt lat="42.93419" lon="0.13632">
        <ele>2587.1999511719</ele>
        <time>2014-08-31T08:48:02.000Z</time>
      </trkpt>
      <trkpt lat="42.93419" lon="0.13605">
        <ele>2584</ele>
        <time>2014-08-31T08:48:09.000Z</time>
      </trkpt>
      <trkpt lat="42.93417" lon="0.13579">
        <ele>2581.3999023438</ele>
        <time>2014-08-31T08:48:16.000Z</time>
      </trkpt>
      <trkpt lat="42.93413" lon="0.13555">
        <ele>2576</ele>
        <time>2014-08-31T08:48:22.000Z</time>
      </trkpt>
      <trkpt lat="42.93411" lon="0.13529">
        <ele>2572.3999023438</ele>
        <time>2014-08-31T08:48:28.000Z</time>
      </trkpt>
      <trkpt lat="42.93413" lon="0.13502">
        <ele>2577</ele>
        <time>2014-08-31T08:48:34.000Z</time>
      </trkpt>
      <trkpt lat="42.93412" lon="0.13476">
        <ele>2577</ele>
        <time>2014-08-31T08:48:40.000Z</time>
      </trkpt>
      <trkpt lat="42.93414" lon="0.13451">
        <ele>2579.3999023438</ele>
        <time>2014-08-31T08:48:47.000Z</time>
      </trkpt>
      <trkpt lat="42.93407" lon="0.13436">
        <ele>2567.8000488281</ele>
        <time>2014-08-31T08:48:53.000Z</time>
      </trkpt>
      <trkpt lat="42.93397" lon="0.13451">
        <ele>2558.6000976562</ele>
        <time>2014-08-31T08:48:59.000Z</time>
      </trkpt>
      <trkpt lat="42.93401" lon="0.13477">
        <ele>2563.8000488281</ele>
        <time>2014-08-31T08:49:06.000Z</time>
      </trkpt>
      <trkpt lat="42.93403" lon="0.13504">
        <ele>2564.8000488281</ele>
        <time>2014-08-31T08:49:14.000Z</time>
      </trkpt>
      <trkpt lat="42.93402" lon="0.1353">
        <ele>2562.3999023438</ele>
        <time>2014-08-31T08:49:22.000Z</time>
      </trkpt>
      <trkpt lat="42.93396" lon="0.13554">
        <ele>2558.3999023438</ele>
        <time>2014-08-31T08:49:29.000Z</time>
      </trkpt>
      <trkpt lat="42.93395" lon="0.13581">
        <ele>2558.3999023438</ele>
        <time>2014-08-31T08:49:36.000Z</time>
      </trkpt>
      <trkpt lat="42.93396" lon="0.13608">
        <ele>2565.1999511719</ele>
        <time>2014-08-31T08:49:43.000Z</time>
      </trkpt>
      <trkpt lat="42.93392" lon="0.13635">
        <ele>2572.1999511719</ele>
        <time>2014-08-31T08:49:50.000Z</time>
      </trkpt>
      <trkpt lat="42.93391" lon="0.13639">
        <ele>2571.6000976562</ele>
        <time>2014-08-31T08:49:51.000Z</time>
      </trkpt>
      <trkpt lat="42.93387" lon="0.13662">
        <ele>2567.6000976562</ele>
        <time>2014-08-31T08:49:57.000Z</time>
      </trkpt>
      <trkpt lat="42.93377" lon="0.13684">
        <ele>2562.1999511719</ele>
        <time>2014-08-31T08:50:03.000Z</time>
      </trkpt>
      <trkpt lat="42.9337" lon="0.1371">
        <ele>2559.3999023438</ele>
        <time>2014-08-31T08:50:10.000Z</time>
      </trkpt>
      <trkpt lat="42.93372" lon="0.13736">
        <ele>2561.3999023438</ele>
        <time>2014-08-31T08:50:17.000Z</time>
      </trkpt>
      <trkpt lat="42.93374" lon="0.13763">
        <ele>2558.1999511719</ele>
        <time>2014-08-31T08:50:24.000Z</time>
      </trkpt>
      <trkpt lat="42.93375" lon="0.13788">
        <ele>2552.6000976562</ele>
        <time>2014-08-31T08:50:30.000Z</time>
      </trkpt>
      <trkpt lat="42.93373" lon="0.138">
        <ele>2550.6000976562</ele>
        <time>2014-08-31T08:50:33.000Z</time>
      </trkpt>
      <trkpt lat="42.93367" lon="0.13826">
        <ele>2549.8000488281</ele>
        <time>2014-08-31T08:50:40.000Z</time>
      </trkpt>
      <trkpt lat="42.93363" lon="0.13851">
        <ele>2546.3999023438</ele>
        <time>2014-08-31T08:50:47.000Z</time>
      </trkpt>
      <trkpt lat="42.93358" lon="0.13876">
        <ele>2542.6000976562</ele>
        <time>2014-08-31T08:50:54.000Z</time>
      </trkpt>
      <trkpt lat="42.93354" lon="0.13903">
        <ele>2543.1999511719</ele>
        <time>2014-08-31T08:51:02.000Z</time>
      </trkpt>
      <trkpt lat="42.93352" lon="0.13927">
        <ele>2545</ele>
        <time>2014-08-31T08:51:09.000Z</time>
      </trkpt>
      <trkpt lat="42.93344" lon="0.1395">
        <ele>2541.3999023438</ele>
        <time>2014-08-31T08:51:16.000Z</time>
      </trkpt>
      <trkpt lat="42.93336" lon="0.13972">
        <ele>2536.8000488281</ele>
        <time>2014-08-31T08:51:23.000Z</time>
      </trkpt>
      <trkpt lat="42.93328" lon="0.13996">
        <ele>2532.6000976562</ele>
        <time>2014-08-31T08:51:30.000Z</time>
      </trkpt>
      <trkpt lat="42.93319" lon="0.1402">
        <ele>2527</ele>
        <time>2014-08-31T08:51:38.000Z</time>
      </trkpt>
      <trkpt lat="42.93314" lon="0.14046">
        <ele>2525</ele>
        <time>2014-08-31T08:51:47.000Z</time>
      </trkpt>
      <trkpt lat="42.93307" lon="0.14068">
        <ele>2522.1999511719</ele>
        <time>2014-08-31T08:51:55.000Z</time>
      </trkpt>
      <trkpt lat="42.93299" lon="0.14072">
        <ele>2515.3999023438</ele>
        <time>2014-08-31T08:51:58.000Z</time>
      </trkpt>
      <trkpt lat="42.93294" lon="0.14052">
        <ele>2507.3999023438</ele>
        <time>2014-08-31T08:52:06.000Z</time>
      </trkpt>
      <trkpt lat="42.93296" lon="0.14046">
        <ele>2508.6000976562</ele>
        <time>2014-08-31T08:52:08.000Z</time>
      </trkpt>
      <trkpt lat="42.93299" lon="0.14019">
        <ele>2508.6000976562</ele>
        <time>2014-08-31T08:52:16.000Z</time>
      </trkpt>
      <trkpt lat="42.93298" lon="0.13994">
        <ele>2505.8000488281</ele>
        <time>2014-08-31T08:52:23.000Z</time>
      </trkpt>
      <trkpt lat="42.933" lon="0.13969">
        <ele>2504.8000488281</ele>
        <time>2014-08-31T08:52:30.000Z</time>
      </trkpt>
      <trkpt lat="42.93302" lon="0.13941">
        <ele>2505</ele>
        <time>2014-08-31T08:52:38.000Z</time>
      </trkpt>
      <trkpt lat="42.93302" lon="0.13934">
        <ele>2505</ele>
        <time>2014-08-31T08:52:40.000Z</time>
      </trkpt>
      <trkpt lat="42.93302" lon="0.13908">
        <ele>2501.8000488281</ele>
        <time>2014-08-31T08:52:48.000Z</time>
      </trkpt>
      <trkpt lat="42.933" lon="0.13881">
        <ele>2496.3999023438</ele>
        <time>2014-08-31T08:52:56.000Z</time>
      </trkpt>
      <trkpt lat="42.933" lon="0.13856">
        <ele>2493.3999023438</ele>
        <time>2014-08-31T08:53:03.000Z</time>
      </trkpt>
      <trkpt lat="42.93298" lon="0.13831">
        <ele>2490</ele>
        <time>2014-08-31T08:53:10.000Z</time>
      </trkpt>
      <trkpt lat="42.93295" lon="0.13804">
        <ele>2486.6000976562</ele>
        <time>2014-08-31T08:53:18.000Z</time>
      </trkpt>
      <trkpt lat="42.93291" lon="0.13779">
        <ele>2481</ele>
        <time>2014-08-31T08:53:25.000Z</time>
      </trkpt>
      <trkpt lat="42.93291" lon="0.13764">
        <ele>2478.3999023438</ele>
        <time>2014-08-31T08:53:29.000Z</time>
      </trkpt>
      <trkpt lat="42.93294" lon="0.13738">
        <ele>2479.8000488281</ele>
        <time>2014-08-31T08:53:36.000Z</time>
      </trkpt>
      <trkpt lat="42.93281" lon="0.13735">
        <ele>2464.8000488281</ele>
        <time>2014-08-31T08:53:44.000Z</time>
      </trkpt>
      <trkpt lat="42.93279" lon="0.13748">
        <ele>2465.8000488281</ele>
        <time>2014-08-31T08:53:49.000Z</time>
      </trkpt>
      <trkpt lat="42.93284" lon="0.13772">
        <ele>2473.8000488281</ele>
        <time>2014-08-31T08:53:56.000Z</time>
      </trkpt>
      <trkpt lat="42.93283" lon="0.13798">
        <ele>2476.8000488281</ele>
        <time>2014-08-31T08:54:03.000Z</time>
      </trkpt>
      <trkpt lat="42.93279" lon="0.13823">
        <ele>2474.1999511719</ele>
        <time>2014-08-31T08:54:10.000Z</time>
      </trkpt>
      <trkpt lat="42.93271" lon="0.13847">
        <ele>2470.6000976562</ele>
        <time>2014-08-31T08:54:17.000Z</time>
      </trkpt>
      <trkpt lat="42.93261" lon="0.13869">
        <ele>2465</ele>
        <time>2014-08-31T08:54:24.000Z</time>
      </trkpt>
      <trkpt lat="42.93252" lon="0.13892">
        <ele>2460.6000976562</ele>
        <time>2014-08-31T08:54:31.000Z</time>
      </trkpt>
      <trkpt lat="42.93247" lon="0.13916">
        <ele>2458</ele>
        <time>2014-08-31T08:54:38.000Z</time>
      </trkpt>
      <trkpt lat="42.93243" lon="0.1394">
        <ele>2456.8000488281</ele>
        <time>2014-08-31T08:54:45.000Z</time>
      </trkpt>
      <trkpt lat="42.93237" lon="0.13964">
        <ele>2453.8000488281</ele>
        <time>2014-08-31T08:54:52.000Z</time>
      </trkpt>
      <trkpt lat="42.93228" lon="0.13986">
        <ele>2450.6000976562</ele>
        <time>2014-08-31T08:54:59.000Z</time>
      </trkpt>
      <trkpt lat="42.93222" lon="0.14013">
        <ele>2448.3999023438</ele>
        <time>2014-08-31T08:55:07.000Z</time>
      </trkpt>
      <trkpt lat="42.93221" lon="0.14038">
        <ele>2445.6000976562</ele>
        <time>2014-08-31T08:55:14.000Z</time>
      </trkpt>
      <trkpt lat="42.93218" lon="0.14064">
        <ele>2444.1999511719</ele>
        <time>2014-08-31T08:55:21.000Z</time>
      </trkpt>
      <trkpt lat="42.93219" lon="0.14092">
        <ele>2447</ele>
        <time>2014-08-31T08:55:28.000Z</time>
      </trkpt>
      <trkpt lat="42.93221" lon="0.14117">
        <ele>2447.8000488281</ele>
        <time>2014-08-31T08:55:34.000Z</time>
      </trkpt>
      <trkpt lat="42.93222" lon="0.14144">
        <ele>2449.8000488281</ele>
        <time>2014-08-31T08:55:40.000Z</time>
      </trkpt>
      <trkpt lat="42.93219" lon="0.14171">
        <ele>2449.6000976562</ele>
        <time>2014-08-31T08:55:46.000Z</time>
      </trkpt>
      <trkpt lat="42.93212" lon="0.14196">
        <ele>2444.3999023438</ele>
        <time>2014-08-31T08:55:52.000Z</time>
      </trkpt>
      <trkpt lat="42.93209" lon="0.14223">
        <ele>2440.8000488281</ele>
        <time>2014-08-31T08:55:59.000Z</time>
      </trkpt>
      <trkpt lat="42.93202" lon="0.14248">
        <ele>2435</ele>
        <time>2014-08-31T08:56:06.000Z</time>
      </trkpt>
      <trkpt lat="42.93199" lon="0.14265">
        <ele>2433.3999023438</ele>
        <time>2014-08-31T08:56:11.000Z</time>
      </trkpt>
      <trkpt lat="42.93197" lon="0.1429">
        <ele>2433.1999511719</ele>
        <time>2014-08-31T08:56:19.000Z</time>
      </trkpt>
      <trkpt lat="42.93185" lon="0.143">
        <ele>2422.8000488281</ele>
        <time>2014-08-31T08:56:24.000Z</time>
      </trkpt>
      <trkpt lat="42.93178" lon="0.14277">
        <ele>2417.3999023438</ele>
        <time>2014-08-31T08:56:31.000Z</time>
      </trkpt>
      <trkpt lat="42.9318" lon="0.14249">
        <ele>2417.6000976562</ele>
        <time>2014-08-31T08:56:38.000Z</time>
      </trkpt>
      <trkpt lat="42.93183" lon="0.14225">
        <ele>2419.1999511719</ele>
        <time>2014-08-31T08:56:44.000Z</time>
      </trkpt>
      <trkpt lat="42.93183" lon="0.142">
        <ele>2418.8000488281</ele>
        <time>2014-08-31T08:56:50.000Z</time>
      </trkpt>
      <trkpt lat="42.93178" lon="0.14176">
        <ele>2414.3999023438</ele>
        <time>2014-08-31T08:56:56.000Z</time>
      </trkpt>
      <trkpt lat="42.93174" lon="0.14151">
        <ele>2410.3999023438</ele>
        <time>2014-08-31T08:57:02.000Z</time>
      </trkpt>
      <trkpt lat="42.93171" lon="0.14126">
        <ele>2408.3999023438</ele>
        <time>2014-08-31T08:57:08.000Z</time>
      </trkpt>
      <trkpt lat="42.93165" lon="0.14102">
        <ele>2405.3999023438</ele>
        <time>2014-08-31T08:57:14.000Z</time>
      </trkpt>
      <trkpt lat="42.93156" lon="0.14078">
        <ele>2401.1999511719</ele>
        <time>2014-08-31T08:57:20.000Z</time>
      </trkpt>
      <trkpt lat="42.93146" lon="0.14053">
        <ele>2396.1999511719</ele>
        <time>2014-08-31T08:57:26.000Z</time>
      </trkpt>
      <trkpt lat="42.93139" lon="0.14029">
        <ele>2392.8000488281</ele>
        <time>2014-08-31T08:57:31.000Z</time>
      </trkpt>
      <trkpt lat="42.93134" lon="0.14004">
        <ele>2391</ele>
        <time>2014-08-31T08:57:36.000Z</time>
      </trkpt>
      <trkpt lat="42.93128" lon="0.13977">
        <ele>2388.8000488281</ele>
        <time>2014-08-31T08:57:42.000Z</time>
      </trkpt>
      <trkpt lat="42.93122" lon="0.1395">
        <ele>2388</ele>
        <time>2014-08-31T08:57:48.000Z</time>
      </trkpt>
      <trkpt lat="42.93115" lon="0.13926">
        <ele>2386.3999023438</ele>
        <time>2014-08-31T08:57:54.000Z</time>
      </trkpt>
      <trkpt lat="42.93106" lon="0.13905">
        <ele>2383.1999511719</ele>
        <time>2014-08-31T08:58:01.000Z</time>
      </trkpt>
      <trkpt lat="42.9308" lon="0.13883">
        <ele>2376.1999511719</ele>
        <time>2014-08-31T08:59:15.000Z</time>
      </trkpt>
      <trkpt lat="42.93083" lon="0.13904">
        <ele>2374.3999023438</ele>
        <time>2014-08-31T08:59:23.000Z</time>
      </trkpt>
      <trkpt lat="42.93078" lon="0.13928">
        <ele>2372</ele>
        <time>2014-08-31T08:59:31.000Z</time>
      </trkpt>
      <trkpt lat="42.93076" lon="0.13939">
        <ele>2370.8000488281</ele>
        <time>2014-08-31T08:59:35.000Z</time>
      </trkpt>
      <trkpt lat="42.93064" lon="0.13957">
        <ele>2367.8000488281</ele>
        <time>2014-08-31T08:59:45.000Z</time>
      </trkpt>
      <trkpt lat="42.93063" lon="0.13959">
        <ele>2367.1999511719</ele>
        <time>2014-08-31T08:59:46.000Z</time>
      </trkpt>
      <trkpt lat="42.93057" lon="0.13978">
        <ele>2366.1999511719</ele>
        <time>2014-08-31T08:59:54.000Z</time>
      </trkpt>
      <trkpt lat="42.93045" lon="0.13995">
        <ele>2365</ele>
        <time>2014-08-31T09:00:02.000Z</time>
      </trkpt>
      <trkpt lat="42.93045" lon="0.14003">
        <ele>2363.8000488281</ele>
        <time>2014-08-31T09:00:48.000Z</time>
      </trkpt>
      <trkpt lat="42.93043" lon="0.14028">
        <ele>2358.6000976562</ele>
        <time>2014-08-31T09:00:58.000Z</time>
      </trkpt>
      <trkpt lat="42.93041" lon="0.1404">
        <ele>2356</ele>
        <time>2014-08-31T09:01:03.000Z</time>
      </trkpt>
      <trkpt lat="42.93038" lon="0.14047">
        <ele>2354.3999023438</ele>
        <time>2014-08-31T09:01:07.000Z</time>
      </trkpt>
      <trkpt lat="42.9303" lon="0.14065">
        <ele>2352.3999023438</ele>
        <time>2014-08-31T09:01:16.000Z</time>
      </trkpt>
      <trkpt lat="42.93027" lon="0.14073">
        <ele>2350.8000488281</ele>
        <time>2014-08-31T09:01:20.000Z</time>
      </trkpt>
      <trkpt lat="42.93026" lon="0.14075">
        <ele>2350.3999023438</ele>
        <time>2014-08-31T09:01:21.000Z</time>
      </trkpt>
      <trkpt lat="42.93024" lon="0.14085">
        <ele>2348.6000976562</ele>
        <time>2014-08-31T09:01:25.000Z</time>
      </trkpt>
      <trkpt lat="42.93015" lon="0.14106">
        <ele>2343</ele>
        <time>2014-08-31T09:01:34.000Z</time>
      </trkpt>
      <trkpt lat="42.93014" lon="0.14112">
        <ele>2342</ele>
        <time>2014-08-31T09:01:36.000Z</time>
      </trkpt>
      <trkpt lat="42.93009" lon="0.1413">
        <ele>2338.3999023438</ele>
        <time>2014-08-31T09:01:43.000Z</time>
      </trkpt>
      <trkpt lat="42.93009" lon="0.14157">
        <ele>2332.3999023438</ele>
        <time>2014-08-31T09:01:53.000Z</time>
      </trkpt>
      <trkpt lat="42.93008" lon="0.14162">
        <ele>2331.1999511719</ele>
        <time>2014-08-31T09:01:55.000Z</time>
      </trkpt>
      <trkpt lat="42.93004" lon="0.14186">
        <ele>2325.1999511719</ele>
        <time>2014-08-31T09:02:04.000Z</time>
      </trkpt>
      <trkpt lat="42.93001" lon="0.14207">
        <ele>2320.1999511719</ele>
        <time>2014-08-31T09:02:15.000Z</time>
      </trkpt>
      <trkpt lat="42.92997" lon="0.14223">
        <ele>2317</ele>
        <time>2014-08-31T09:02:23.000Z</time>
      </trkpt>
      <trkpt lat="42.92988" lon="0.14245">
        <ele>2313.3999023438</ele>
        <time>2014-08-31T09:02:34.000Z</time>
      </trkpt>
      <trkpt lat="42.92983" lon="0.1426">
        <ele>2311.1999511719</ele>
        <time>2014-08-31T09:02:40.000Z</time>
      </trkpt>
      <trkpt lat="42.92989" lon="0.14277">
        <ele>2310.1999511719</ele>
        <time>2014-08-31T09:03:02.000Z</time>
      </trkpt>
      <trkpt lat="42.92988" lon="0.14278">
        <ele>2309.1999511719</ele>
        <time>2014-08-31T09:03:53.000Z</time>
      </trkpt>
      <trkpt lat="42.92983" lon="0.14281">
        <ele>2306</ele>
        <time>2014-08-31T09:04:02.000Z</time>
      </trkpt>
      <trkpt lat="42.9299" lon="0.14291">
        <ele>2305</ele>
        <time>2014-08-31T09:04:08.000Z</time>
      </trkpt>
      <trkpt lat="42.92992" lon="0.14305">
        <ele>2301.8000488281</ele>
        <time>2014-08-31T09:04:14.000Z</time>
      </trkpt>
      <trkpt lat="42.92992" lon="0.14312">
        <ele>2299.8000488281</ele>
        <time>2014-08-31T09:04:18.000Z</time>
      </trkpt>
      <trkpt lat="42.92986" lon="0.14304">
        <ele>2299.3999023438</ele>
        <time>2014-08-31T09:04:22.000Z</time>
      </trkpt>
      <trkpt lat="42.92969" lon="0.14291">
        <ele>2295.1999511719</ele>
        <time>2014-08-31T09:04:31.000Z</time>
      </trkpt>
      <trkpt lat="42.9296" lon="0.14288">
        <ele>2292.6000976562</ele>
        <time>2014-08-31T09:04:35.000Z</time>
      </trkpt>
      <trkpt lat="42.92949" lon="0.14273">
        <ele>2293.1999511719</ele>
        <time>2014-08-31T09:04:42.000Z</time>
      </trkpt>
      <trkpt lat="42.92935" lon="0.14286">
        <ele>2281.3999023438</ele>
        <time>2014-08-31T09:04:51.000Z</time>
      </trkpt>
      <trkpt lat="42.92931" lon="0.14289">
        <ele>2278.3999023438</ele>
        <time>2014-08-31T09:04:53.000Z</time>
      </trkpt>
      <trkpt lat="42.92922" lon="0.14298">
        <ele>2271.8000488281</ele>
        <time>2014-08-31T09:04:58.000Z</time>
      </trkpt>
      <trkpt lat="42.92916" lon="0.14298">
        <ele>2271.3999023438</ele>
        <time>2014-08-31T09:05:01.000Z</time>
      </trkpt>
      <trkpt lat="42.92896" lon="0.14294">
        <ele>2272.6000976562</ele>
        <time>2014-08-31T09:05:11.000Z</time>
      </trkpt>
      <trkpt lat="42.92878" lon="0.14304">
        <ele>2269</ele>
        <time>2014-08-31T09:05:19.000Z</time>
      </trkpt>
      <trkpt lat="42.92873" lon="0.14308">
        <ele>2267.6000976562</ele>
        <time>2014-08-31T09:05:21.000Z</time>
      </trkpt>
      <trkpt lat="42.92858" lon="0.14323">
        <ele>2262.1999511719</ele>
        <time>2014-08-31T09:05:29.000Z</time>
      </trkpt>
      <trkpt lat="42.9284" lon="0.14326">
        <ele>2260.8000488281</ele>
        <time>2014-08-31T09:05:37.000Z</time>
      </trkpt>
      <trkpt lat="42.9283" lon="0.14327">
        <ele>2262.8000488281</ele>
        <time>2014-08-31T09:05:44.000Z</time>
      </trkpt>
      <trkpt lat="42.92813" lon="0.14337">
        <ele>2263.3999023438</ele>
        <time>2014-08-31T09:05:53.000Z</time>
      </trkpt>
      <trkpt lat="42.9281" lon="0.14343">
        <ele>2262.1999511719</ele>
        <time>2014-08-31T09:05:55.000Z</time>
      </trkpt>
      <trkpt lat="42.92805" lon="0.14366">
        <ele>2256.8000488281</ele>
        <time>2014-08-31T09:06:03.000Z</time>
      </trkpt>
      <trkpt lat="42.92798" lon="0.1439">
        <ele>2254.1999511719</ele>
        <time>2014-08-31T09:06:11.000Z</time>
      </trkpt>
      <trkpt lat="42.9279" lon="0.14414">
        <ele>2254</ele>
        <time>2014-08-31T09:06:20.000Z</time>
      </trkpt>
      <trkpt lat="42.9278" lon="0.14435">
        <ele>2253.8000488281</ele>
        <time>2014-08-31T09:06:28.000Z</time>
      </trkpt>
      <trkpt lat="42.92772" lon="0.1446">
        <ele>2252.6000976562</ele>
        <time>2014-08-31T09:06:37.000Z</time>
      </trkpt>
      <trkpt lat="42.92773" lon="0.14484">
        <ele>2250</ele>
        <time>2014-08-31T09:06:45.000Z</time>
      </trkpt>
      <trkpt lat="42.92781" lon="0.14509">
        <ele>2247.3999023438</ele>
        <time>2014-08-31T09:06:53.000Z</time>
      </trkpt>
      <trkpt lat="42.92789" lon="0.14531">
        <ele>2244.3999023438</ele>
        <time>2014-08-31T09:07:00.000Z</time>
      </trkpt>
      <trkpt lat="42.92796" lon="0.14554">
        <ele>2241.1999511719</ele>
        <time>2014-08-31T09:07:08.000Z</time>
      </trkpt>
      <trkpt lat="42.92808" lon="0.14577">
        <ele>2234.6000976562</ele>
        <time>2014-08-31T09:07:17.000Z</time>
      </trkpt>
      <trkpt lat="42.9281" lon="0.14604">
        <ele>2232.3999023438</ele>
        <time>2014-08-31T09:07:25.000Z</time>
      </trkpt>
      <trkpt lat="42.92811" lon="0.1463">
        <ele>2231</ele>
        <time>2014-08-31T09:07:34.000Z</time>
      </trkpt>
      <trkpt lat="42.9281" lon="0.14645">
        <ele>2232</ele>
        <time>2014-08-31T09:07:38.000Z</time>
      </trkpt>
      <trkpt lat="42.92821" lon="0.14663">
        <ele>2228</ele>
        <time>2014-08-31T09:07:46.000Z</time>
      </trkpt>
      <trkpt lat="42.92832" lon="0.14684">
        <ele>2224.3999023438</ele>
        <time>2014-08-31T09:07:56.000Z</time>
      </trkpt>
      <trkpt lat="42.9284" lon="0.14708">
        <ele>2221.8000488281</ele>
        <time>2014-08-31T09:08:10.000Z</time>
      </trkpt>
      <trkpt lat="42.92852" lon="0.14725">
        <ele>2218.3999023438</ele>
        <time>2014-08-31T09:08:18.000Z</time>
      </trkpt>
      <trkpt lat="42.92854" lon="0.14727">
        <ele>2217.8000488281</ele>
        <time>2014-08-31T09:08:19.000Z</time>
      </trkpt>
      <trkpt lat="42.9286" lon="0.14736">
        <ele>2216</ele>
        <time>2014-08-31T09:08:23.000Z</time>
      </trkpt>
      <trkpt lat="42.92875" lon="0.14753">
        <ele>2211.6000976562</ele>
        <time>2014-08-31T09:08:31.000Z</time>
      </trkpt>
      <trkpt lat="42.92888" lon="0.14773">
        <ele>2207.8000488281</ele>
        <time>2014-08-31T09:08:39.000Z</time>
      </trkpt>
      <trkpt lat="42.92899" lon="0.14779">
        <ele>2203.8000488281</ele>
        <time>2014-08-31T09:08:45.000Z</time>
      </trkpt>
      <trkpt lat="42.92911" lon="0.14798">
        <ele>2199.8000488281</ele>
        <time>2014-08-31T09:08:54.000Z</time>
      </trkpt>
      <trkpt lat="42.92925" lon="0.14816">
        <ele>2193.6000976562</ele>
        <time>2014-08-31T09:09:02.000Z</time>
      </trkpt>
      <trkpt lat="42.92943" lon="0.1482">
        <ele>2191.1999511719</ele>
        <time>2014-08-31T09:09:10.000Z</time>
      </trkpt>
      <trkpt lat="42.92946" lon="0.1482">
        <ele>2190.8000488281</ele>
        <time>2014-08-31T09:09:12.000Z</time>
      </trkpt>
      <trkpt lat="42.92946" lon="0.14825">
        <ele>2190.3999023438</ele>
        <time>2014-08-31T09:09:15.000Z</time>
      </trkpt>
      <trkpt lat="42.92948" lon="0.1485">
        <ele>2188.8000488281</ele>
        <time>2014-08-31T09:09:25.000Z</time>
      </trkpt>
      <trkpt lat="42.92953" lon="0.14863">
        <ele>2187.1999511719</ele>
        <time>2014-08-31T09:09:32.000Z</time>
      </trkpt>
      <trkpt lat="42.92956" lon="0.14866">
        <ele>2186.8000488281</ele>
        <time>2014-08-31T09:09:34.000Z</time>
      </trkpt>
      <trkpt lat="42.92959" lon="0.14877">
        <ele>2185.8000488281</ele>
        <time>2014-08-31T09:09:38.000Z</time>
      </trkpt>
      <trkpt lat="42.9296" lon="0.14883">
        <ele>2183.6000976562</ele>
        <time>2014-08-31T09:09:40.000Z</time>
      </trkpt>
      <trkpt lat="42.92963" lon="0.14909">
        <ele>2174.1999511719</ele>
        <time>2014-08-31T09:09:48.000Z</time>
      </trkpt>
      <trkpt lat="42.92962" lon="0.14927">
        <ele>2171.6000976562</ele>
        <time>2014-08-31T09:09:55.000Z</time>
      </trkpt>
      <trkpt lat="42.92956" lon="0.1495">
        <ele>2173.6000976562</ele>
        <time>2014-08-31T09:10:05.000Z</time>
      </trkpt>
      <trkpt lat="42.92956" lon="0.14953">
        <ele>2173.3999023438</ele>
        <time>2014-08-31T09:10:06.000Z</time>
      </trkpt>
      <trkpt lat="42.92964" lon="0.14977">
        <ele>2168.3999023438</ele>
        <time>2014-08-31T09:10:16.000Z</time>
      </trkpt>
      <trkpt lat="42.92969" lon="0.1499">
        <ele>2164.6000976562</ele>
        <time>2014-08-31T09:10:23.000Z</time>
      </trkpt>
      <trkpt lat="42.92984" lon="0.14992">
        <ele>2157.6000976562</ele>
        <time>2014-08-31T09:10:32.000Z</time>
      </trkpt>
      <trkpt lat="42.92991" lon="0.14986">
        <ele>2155</ele>
        <time>2014-08-31T09:10:36.000Z</time>
      </trkpt>
      <trkpt lat="42.92996" lon="0.14996">
        <ele>2151.8000488281</ele>
        <time>2014-08-31T09:10:41.000Z</time>
      </trkpt>
      <trkpt lat="42.92998" lon="0.15022">
        <ele>2148.6000976562</ele>
        <time>2014-08-31T09:10:49.000Z</time>
      </trkpt>
      <trkpt lat="42.92999" lon="0.15024">
        <ele>2147.8000488281</ele>
        <time>2014-08-31T09:10:50.000Z</time>
      </trkpt>
      <trkpt lat="42.93007" lon="0.15046">
        <ele>2141.8000488281</ele>
        <time>2014-08-31T09:10:57.000Z</time>
      </trkpt>
      <trkpt lat="42.93013" lon="0.15071">
        <ele>2138.1999511719</ele>
        <time>2014-08-31T09:11:05.000Z</time>
      </trkpt>
      <trkpt lat="42.93015" lon="0.15083">
        <ele>2136.3999023438</ele>
        <time>2014-08-31T09:11:10.000Z</time>
      </trkpt>
      <trkpt lat="42.93012" lon="0.15099">
        <ele>2133.1999511719</ele>
        <time>2014-08-31T09:11:17.000Z</time>
      </trkpt>
      <trkpt lat="42.93011" lon="0.15126">
        <ele>2128.6000976562</ele>
        <time>2014-08-31T09:11:26.000Z</time>
      </trkpt>
      <trkpt lat="42.93012" lon="0.15134">
        <ele>2126.1999511719</ele>
        <time>2014-08-31T09:11:29.000Z</time>
      </trkpt>
      <trkpt lat="42.93016" lon="0.15148">
        <ele>2122.8000488281</ele>
        <time>2014-08-31T09:11:34.000Z</time>
      </trkpt>
      <trkpt lat="42.93021" lon="0.1517">
        <ele>2116.6000976562</ele>
        <time>2014-08-31T09:11:43.000Z</time>
      </trkpt>
      <trkpt lat="42.93016" lon="0.15184">
        <ele>2112.8000488281</ele>
        <time>2014-08-31T09:11:48.000Z</time>
      </trkpt>
      <trkpt lat="42.93011" lon="0.15194">
        <ele>2109.8000488281</ele>
        <time>2014-08-31T09:11:52.000Z</time>
      </trkpt>
      <trkpt lat="42.93009" lon="0.1522">
        <ele>2102.6000976562</ele>
        <time>2014-08-31T09:12:01.000Z</time>
      </trkpt>
      <trkpt lat="42.92999" lon="0.15244">
        <ele>2102</ele>
        <time>2014-08-31T09:12:10.000Z</time>
      </trkpt>
      <trkpt lat="42.92989" lon="0.15267">
        <ele>2102</ele>
        <time>2014-08-31T09:12:19.000Z</time>
      </trkpt>
      <trkpt lat="42.92988" lon="0.15277">
        <ele>2101</ele>
        <time>2014-08-31T09:12:25.000Z</time>
      </trkpt>
      <trkpt lat="42.92983" lon="0.15301">
        <ele>2100.8000488281</ele>
        <time>2014-08-31T09:12:43.000Z</time>
      </trkpt>
      <trkpt lat="42.92978" lon="0.15325">
        <ele>2101.6000976562</ele>
        <time>2014-08-31T09:12:52.000Z</time>
      </trkpt>
      <trkpt lat="42.92979" lon="0.1535">
        <ele>2098</ele>
        <time>2014-08-31T09:13:00.000Z</time>
      </trkpt>
      <trkpt lat="42.92979" lon="0.15362">
        <ele>2096.6000976562</ele>
        <time>2014-08-31T09:13:05.000Z</time>
      </trkpt>
      <trkpt lat="42.92981" lon="0.1537">
        <ele>2094.8000488281</ele>
        <time>2014-08-31T09:13:09.000Z</time>
      </trkpt>
      <trkpt lat="42.92985" lon="0.15378">
        <ele>2091.6000976562</ele>
        <time>2014-08-31T09:13:13.000Z</time>
      </trkpt>
      <trkpt lat="42.92985" lon="0.1538">
        <ele>2091.3999023438</ele>
        <time>2014-08-31T09:13:14.000Z</time>
      </trkpt>
      <trkpt lat="42.92985" lon="0.15388">
        <ele>2090.3999023438</ele>
        <time>2014-08-31T09:13:18.000Z</time>
      </trkpt>
      <trkpt lat="42.92984" lon="0.15393">
        <ele>2090.6000976562</ele>
        <time>2014-08-31T09:13:21.000Z</time>
      </trkpt>
      <trkpt lat="42.92985" lon="0.15399">
        <ele>2089.1999511719</ele>
        <time>2014-08-31T09:13:25.000Z</time>
      </trkpt>
      <trkpt lat="42.92985" lon="0.154">
        <ele>2088.8000488281</ele>
        <time>2014-08-31T09:13:26.000Z</time>
      </trkpt>
      <trkpt lat="42.92985" lon="0.15404">
        <ele>2089</ele>
        <time>2014-08-31T09:13:29.000Z</time>
      </trkpt>
      <trkpt lat="42.92986" lon="0.15411">
        <ele>2087.3999023438</ele>
        <time>2014-08-31T09:13:34.000Z</time>
      </trkpt>
      <trkpt lat="42.92987" lon="0.15413">
        <ele>2086.8000488281</ele>
        <time>2014-08-31T09:13:36.000Z</time>
      </trkpt>
      <trkpt lat="42.92996" lon="0.15391">
        <ele>2083.1999511719</ele>
        <time>2014-08-31T09:13:49.000Z</time>
      </trkpt>
      <trkpt lat="42.93002" lon="0.15368">
        <ele>2081</ele>
        <time>2014-08-31T09:13:58.000Z</time>
      </trkpt>
      <trkpt lat="42.93009" lon="0.15345">
        <ele>2080</ele>
        <time>2014-08-31T09:14:07.000Z</time>
      </trkpt>
      <trkpt lat="42.93019" lon="0.15323">
        <ele>2079.8000488281</ele>
        <time>2014-08-31T09:14:16.000Z</time>
      </trkpt>
      <trkpt lat="42.93032" lon="0.15311">
        <ele>2079</ele>
        <time>2014-08-31T09:14:23.000Z</time>
      </trkpt>
      <trkpt lat="42.93047" lon="0.15322">
        <ele>2074.3999023438</ele>
        <time>2014-08-31T09:14:31.000Z</time>
      </trkpt>
      <trkpt lat="42.93057" lon="0.15327">
        <ele>2072.1999511719</ele>
        <time>2014-08-31T09:14:36.000Z</time>
      </trkpt>
      <trkpt lat="42.93067" lon="0.15347">
        <ele>2066</ele>
        <time>2014-08-31T09:14:45.000Z</time>
      </trkpt>
      <trkpt lat="42.93069" lon="0.1535">
        <ele>2065.1999511719</ele>
        <time>2014-08-31T09:14:46.000Z</time>
      </trkpt>
      <trkpt lat="42.93073" lon="0.15375">
        <ele>2060.6000976562</ele>
        <time>2014-08-31T09:14:54.000Z</time>
      </trkpt>
      <trkpt lat="42.93079" lon="0.15402">
        <ele>2052.1999511719</ele>
        <time>2014-08-31T09:15:02.000Z</time>
      </trkpt>
      <trkpt lat="42.93085" lon="0.15425">
        <ele>2044.1999511719</ele>
        <time>2014-08-31T09:15:11.000Z</time>
      </trkpt>
      <trkpt lat="42.93084" lon="0.15432">
        <ele>2042.5999755859</ele>
        <time>2014-08-31T09:15:14.000Z</time>
      </trkpt>
      <trkpt lat="42.93088" lon="0.15452">
        <ele>2036.1999511719</ele>
        <time>2014-08-31T09:15:27.000Z</time>
      </trkpt>
      <trkpt lat="42.93087" lon="0.15454">
        <ele>2035.5999755859</ele>
        <time>2014-08-31T09:15:28.000Z</time>
      </trkpt>
      <trkpt lat="42.93088" lon="0.15472">
        <ele>2032</ele>
        <time>2014-08-31T09:15:35.000Z</time>
      </trkpt>
      <trkpt lat="42.93093" lon="0.15498">
        <ele>2026.1999511719</ele>
        <time>2014-08-31T09:15:46.000Z</time>
      </trkpt>
      <trkpt lat="42.93098" lon="0.15506">
        <ele>2024.5999755859</ele>
        <time>2014-08-31T09:15:50.000Z</time>
      </trkpt>
      <trkpt lat="42.93103" lon="0.15514">
        <ele>2023.1999511719</ele>
        <time>2014-08-31T09:15:55.000Z</time>
      </trkpt>
      <trkpt lat="42.93104" lon="0.15517">
        <ele>2022.5999755859</ele>
        <time>2014-08-31T09:15:57.000Z</time>
      </trkpt>
      <trkpt lat="42.93117" lon="0.15536">
        <ele>2018.8000488281</ele>
        <time>2014-08-31T09:16:11.000Z</time>
      </trkpt>
      <trkpt lat="42.9311" lon="0.15542">
        <ele>2018</ele>
        <time>2014-08-31T09:16:17.000Z</time>
      </trkpt>
      <trkpt lat="42.93107" lon="0.1555">
        <ele>2015.5999755859</ele>
        <time>2014-08-31T09:16:21.000Z</time>
      </trkpt>
      <trkpt lat="42.93118" lon="0.15569">
        <ele>2008.4000244141</ele>
        <time>2014-08-31T09:16:31.000Z</time>
      </trkpt>
      <trkpt lat="42.93111" lon="0.15573">
        <ele>2008.8000488281</ele>
        <time>2014-08-31T09:16:34.000Z</time>
      </trkpt>
      <trkpt lat="42.93106" lon="0.15579">
        <ele>2009</ele>
        <time>2014-08-31T09:16:37.000Z</time>
      </trkpt>
      <trkpt lat="42.9312" lon="0.15597">
        <ele>2003</ele>
        <time>2014-08-31T09:16:46.000Z</time>
      </trkpt>
      <trkpt lat="42.9314" lon="0.15601">
        <ele>1997.8000488281</ele>
        <time>2014-08-31T09:16:54.000Z</time>
      </trkpt>
      <trkpt lat="42.93154" lon="0.15603">
        <ele>1995.4000244141</ele>
        <time>2014-08-31T09:17:00.000Z</time>
      </trkpt>
      <trkpt lat="42.93165" lon="0.15611">
        <ele>1992.1999511719</ele>
        <time>2014-08-31T09:17:07.000Z</time>
      </trkpt>
      <trkpt lat="42.93182" lon="0.15622">
        <ele>1989.4000244141</ele>
        <time>2014-08-31T09:17:15.000Z</time>
      </trkpt>
      <trkpt lat="42.93199" lon="0.15634">
        <ele>1987.4000244141</ele>
        <time>2014-08-31T09:17:22.000Z</time>
      </trkpt>
      <trkpt lat="42.93205" lon="0.15639">
        <ele>1986.4000244141</ele>
        <time>2014-08-31T09:17:26.000Z</time>
      </trkpt>
      <trkpt lat="42.93186" lon="0.15642">
        <ele>1982.8000488281</ele>
        <time>2014-08-31T09:17:34.000Z</time>
      </trkpt>
      <trkpt lat="42.93183" lon="0.15643">
        <ele>1982.8000488281</ele>
        <time>2014-08-31T09:17:35.000Z</time>
      </trkpt>
      <trkpt lat="42.9317" lon="0.15663">
        <ele>1981.4000244141</ele>
        <time>2014-08-31T09:17:41.000Z</time>
      </trkpt>
      <trkpt lat="42.93168" lon="0.15666">
        <ele>1981.4000244141</ele>
        <time>2014-08-31T09:17:42.000Z</time>
      </trkpt>
      <trkpt lat="42.93156" lon="0.15686">
        <ele>1981</ele>
        <time>2014-08-31T09:17:48.000Z</time>
      </trkpt>
      <trkpt lat="42.93147" lon="0.15704">
        <ele>1982</ele>
        <time>2014-08-31T09:17:54.000Z</time>
      </trkpt>
      <trkpt lat="42.93144" lon="0.15704">
        <ele>1982.8000488281</ele>
        <time>2014-08-31T09:17:55.000Z</time>
      </trkpt>
      <trkpt lat="42.93142" lon="0.15706">
        <ele>1983.4000244141</ele>
        <time>2014-08-31T09:17:56.000Z</time>
      </trkpt>
      <trkpt lat="42.93148" lon="0.1573">
        <ele>1977.1999511719</ele>
        <time>2014-08-31T09:18:03.000Z</time>
      </trkpt>
      <trkpt lat="42.93153" lon="0.15752">
        <ele>1971.1999511719</ele>
        <time>2014-08-31T09:18:17.000Z</time>
      </trkpt>
      <trkpt lat="42.93164" lon="0.15775">
        <ele>1963</ele>
        <time>2014-08-31T09:18:24.000Z</time>
      </trkpt>
      <trkpt lat="42.9317" lon="0.15802">
        <ele>1956.1999511719</ele>
        <time>2014-08-31T09:18:31.000Z</time>
      </trkpt>
      <trkpt lat="42.93173" lon="0.15827">
        <ele>1949.1999511719</ele>
        <time>2014-08-31T09:18:38.000Z</time>
      </trkpt>
      <trkpt lat="42.93168" lon="0.15851">
        <ele>1946.1999511719</ele>
        <time>2014-08-31T09:18:45.000Z</time>
      </trkpt>
      <trkpt lat="42.93159" lon="0.15873">
        <ele>1946.5999755859</ele>
        <time>2014-08-31T09:18:52.000Z</time>
      </trkpt>
      <trkpt lat="42.93152" lon="0.15896">
        <ele>1943.8000488281</ele>
        <time>2014-08-31T09:18:59.000Z</time>
      </trkpt>
      <trkpt lat="42.93147" lon="0.15912">
        <ele>1941.4000244141</ele>
        <time>2014-08-31T09:19:05.000Z</time>
      </trkpt>
      <trkpt lat="42.93148" lon="0.15912">
        <ele>1941</ele>
        <time>2014-08-31T09:19:48.000Z</time>
      </trkpt>
      <trkpt lat="42.93163" lon="0.15897">
        <ele>1937.4000244141</ele>
        <time>2014-08-31T09:19:58.000Z</time>
      </trkpt>
      <trkpt lat="42.93177" lon="0.1588">
        <ele>1936.5999755859</ele>
        <time>2014-08-31T09:20:06.000Z</time>
      </trkpt>
      <trkpt lat="42.93198" lon="0.15875">
        <ele>1931.4000244141</ele>
        <time>2014-08-31T09:20:14.000Z</time>
      </trkpt>
      <trkpt lat="42.93206" lon="0.1588">
        <ele>1928</ele>
        <time>2014-08-31T09:20:18.000Z</time>
      </trkpt>
      <trkpt lat="42.93215" lon="0.15903">
        <ele>1921</ele>
        <time>2014-08-31T09:20:28.000Z</time>
      </trkpt>
      <trkpt lat="42.93218" lon="0.15928">
        <ele>1914.8000488281</ele>
        <time>2014-08-31T09:20:35.000Z</time>
      </trkpt>
      <trkpt lat="42.93202" lon="0.15925">
        <ele>1918.5999755859</ele>
        <time>2014-08-31T09:20:44.000Z</time>
      </trkpt>
      <trkpt lat="42.93185" lon="0.15922">
        <ele>1922.1999511719</ele>
        <time>2014-08-31T09:20:54.000Z</time>
      </trkpt>
      <trkpt lat="42.93187" lon="0.15937">
        <ele>1917.1999511719</ele>
        <time>2014-08-31T09:21:00.000Z</time>
      </trkpt>
      <trkpt lat="42.93199" lon="0.15957">
        <ele>1909.1999511719</ele>
        <time>2014-08-31T09:21:08.000Z</time>
      </trkpt>
      <trkpt lat="42.93202" lon="0.15962">
        <ele>1907.1999511719</ele>
        <time>2014-08-31T09:21:10.000Z</time>
      </trkpt>
      <trkpt lat="42.932" lon="0.15971">
        <ele>1905.8000488281</ele>
        <time>2014-08-31T09:21:14.000Z</time>
      </trkpt>
      <trkpt lat="42.93198" lon="0.15978">
        <ele>1905</ele>
        <time>2014-08-31T09:21:17.000Z</time>
      </trkpt>
      <trkpt lat="42.93201" lon="0.16">
        <ele>1899.5999755859</ele>
        <time>2014-08-31T09:21:25.000Z</time>
      </trkpt>
      <trkpt lat="42.93201" lon="0.16003">
        <ele>1899</ele>
        <time>2014-08-31T09:21:26.000Z</time>
      </trkpt>
      <trkpt lat="42.93201" lon="0.16005">
        <ele>1898.5999755859</ele>
        <time>2014-08-31T09:21:55.000Z</time>
      </trkpt>
      <trkpt lat="42.93218" lon="0.16002">
        <ele>1897.1999511719</ele>
        <time>2014-08-31T09:22:07.000Z</time>
      </trkpt>
      <trkpt lat="42.93228" lon="0.16003">
        <ele>1895.4000244141</ele>
        <time>2014-08-31T09:22:12.000Z</time>
      </trkpt>
      <trkpt lat="42.93236" lon="0.16009">
        <ele>1892.8000488281</ele>
        <time>2014-08-31T09:22:16.000Z</time>
      </trkpt>
      <trkpt lat="42.9324" lon="0.16015">
        <ele>1891.1999511719</ele>
        <time>2014-08-31T09:22:18.000Z</time>
      </trkpt>
      <trkpt lat="42.93228" lon="0.16033">
        <ele>1889</ele>
        <time>2014-08-31T09:22:27.000Z</time>
      </trkpt>
      <trkpt lat="42.93216" lon="0.1605">
        <ele>1887</ele>
        <time>2014-08-31T09:22:35.000Z</time>
      </trkpt>
      <trkpt lat="42.93215" lon="0.16063">
        <ele>1886</ele>
        <time>2014-08-31T09:22:39.000Z</time>
      </trkpt>
      <trkpt lat="42.93216" lon="0.16066">
        <ele>1885.5999755859</ele>
        <time>2014-08-31T09:22:40.000Z</time>
      </trkpt>
      <trkpt lat="42.93209" lon="0.1609">
        <ele>1883.4000244141</ele>
        <time>2014-08-31T09:22:48.000Z</time>
      </trkpt>
      <trkpt lat="42.93207" lon="0.161">
        <ele>1881.5999755859</ele>
        <time>2014-08-31T09:22:51.000Z</time>
      </trkpt>
      <trkpt lat="42.93196" lon="0.16121">
        <ele>1878</ele>
        <time>2014-08-31T09:22:59.000Z</time>
      </trkpt>
      <trkpt lat="42.93182" lon="0.16141">
        <ele>1868.8000488281</ele>
        <time>2014-08-31T09:23:07.000Z</time>
      </trkpt>
      <trkpt lat="42.93167" lon="0.16161">
        <ele>1864.8000488281</ele>
        <time>2014-08-31T09:23:15.000Z</time>
      </trkpt>
      <trkpt lat="42.93158" lon="0.16173">
        <ele>1862.1999511719</ele>
        <time>2014-08-31T09:23:23.000Z</time>
      </trkpt>
      <trkpt lat="42.93153" lon="0.16182">
        <ele>1860.4000244141</ele>
        <time>2014-08-31T09:23:28.000Z</time>
      </trkpt>
      <trkpt lat="42.93147" lon="0.16187">
        <ele>1859.5999755859</ele>
        <time>2014-08-31T09:23:33.000Z</time>
      </trkpt>
      <trkpt lat="42.93133" lon="0.16203">
        <ele>1852.8000488281</ele>
        <time>2014-08-31T09:23:46.000Z</time>
      </trkpt>
      <trkpt lat="42.93117" lon="0.16218">
        <ele>1844.8000488281</ele>
        <time>2014-08-31T09:23:55.000Z</time>
      </trkpt>
      <trkpt lat="42.93101" lon="0.16229">
        <ele>1838.5999755859</ele>
        <time>2014-08-31T09:24:02.000Z</time>
      </trkpt>
      <trkpt lat="42.93092" lon="0.16231">
        <ele>1840.4000244141</ele>
        <time>2014-08-31T09:24:06.000Z</time>
      </trkpt>
      <trkpt lat="42.93081" lon="0.16252">
        <ele>1824.4000244141</ele>
        <time>2014-08-31T09:24:13.000Z</time>
      </trkpt>
      <trkpt lat="42.93067" lon="0.16268">
        <ele>1811.4000244141</ele>
        <time>2014-08-31T09:24:21.000Z</time>
      </trkpt>
      <trkpt lat="42.93048" lon="0.16275">
        <ele>1814.1999511719</ele>
        <time>2014-08-31T09:24:29.000Z</time>
      </trkpt>
      <trkpt lat="42.93028" lon="0.16276">
        <ele>1820.4000244141</ele>
        <time>2014-08-31T09:24:37.000Z</time>
      </trkpt>
      <trkpt lat="42.93009" lon="0.16277">
        <ele>1826.5999755859</ele>
        <time>2014-08-31T09:24:45.000Z</time>
      </trkpt>
      <trkpt lat="42.92991" lon="0.16277">
        <ele>1834.1999511719</ele>
        <time>2014-08-31T09:24:53.000Z</time>
      </trkpt>
      <trkpt lat="42.92974" lon="0.16285">
        <ele>1833.8000488281</ele>
        <time>2014-08-31T09:25:03.000Z</time>
      </trkpt>
      <trkpt lat="42.9297" lon="0.16288">
        <ele>1833.1999511719</ele>
        <time>2014-08-31T09:25:07.000Z</time>
      </trkpt>
      <trkpt lat="42.92965" lon="0.16288">
        <ele>1834.1999511719</ele>
        <time>2014-08-31T09:25:12.000Z</time>
      </trkpt>
      <trkpt lat="42.92947" lon="0.16292">
        <ele>1836</ele>
        <time>2014-08-31T09:25:23.000Z</time>
      </trkpt>
      <trkpt lat="42.92931" lon="0.16296">
        <ele>1837.8000488281</ele>
        <time>2014-08-31T09:25:30.000Z</time>
      </trkpt>
      <trkpt lat="42.92915" lon="0.1631">
        <ele>1836.8000488281</ele>
        <time>2014-08-31T09:25:39.000Z</time>
      </trkpt>
      <trkpt lat="42.9291" lon="0.16313">
        <ele>1837.8000488281</ele>
        <time>2014-08-31T09:25:41.000Z</time>
      </trkpt>
      <trkpt lat="42.92892" lon="0.16317">
        <ele>1844.8000488281</ele>
        <time>2014-08-31T09:25:49.000Z</time>
      </trkpt>
      <trkpt lat="42.92889" lon="0.16319">
        <ele>1846</ele>
        <time>2014-08-31T09:25:51.000Z</time>
      </trkpt>
      <trkpt lat="42.92882" lon="0.16327">
        <ele>1845.4000244141</ele>
        <time>2014-08-31T09:25:55.000Z</time>
      </trkpt>
      <trkpt lat="42.92869" lon="0.16346">
        <ele>1844.4000244141</ele>
        <time>2014-08-31T09:26:03.000Z</time>
      </trkpt>
      <trkpt lat="42.92853" lon="0.16361">
        <ele>1848</ele>
        <time>2014-08-31T09:26:11.000Z</time>
      </trkpt>
      <trkpt lat="42.92848" lon="0.16385">
        <ele>1842.4000244141</ele>
        <time>2014-08-31T09:26:19.000Z</time>
      </trkpt>
      <trkpt lat="42.92847" lon="0.16391">
        <ele>1840</ele>
        <time>2014-08-31T09:26:21.000Z</time>
      </trkpt>
      <trkpt lat="42.92848" lon="0.16401">
        <ele>1835</ele>
        <time>2014-08-31T09:26:25.000Z</time>
      </trkpt>
      <trkpt lat="42.92836" lon="0.16422">
        <ele>1830.4000244141</ele>
        <time>2014-08-31T09:26:34.000Z</time>
      </trkpt>
      <trkpt lat="42.92829" lon="0.16435">
        <ele>1829</ele>
        <time>2014-08-31T09:26:40.000Z</time>
      </trkpt>
      <trkpt lat="42.92835" lon="0.16445">
        <ele>1819.8000488281</ele>
        <time>2014-08-31T09:26:45.000Z</time>
      </trkpt>
      <trkpt lat="42.92839" lon="0.16448">
        <ele>1816.1999511719</ele>
        <time>2014-08-31T09:26:47.000Z</time>
      </trkpt>
      <trkpt lat="42.92848" lon="0.16458">
        <ele>1807.5999755859</ele>
        <time>2014-08-31T09:26:53.000Z</time>
      </trkpt>
      <trkpt lat="42.92861" lon="0.16467">
        <ele>1800.1999511719</ele>
        <time>2014-08-31T09:27:02.000Z</time>
      </trkpt>
      <trkpt lat="42.92866" lon="0.16471">
        <ele>1798</ele>
        <time>2014-08-31T09:27:06.000Z</time>
      </trkpt>
      <trkpt lat="42.92872" lon="0.16494">
        <ele>1793.4000244141</ele>
        <time>2014-08-31T09:27:18.000Z</time>
      </trkpt>
      <trkpt lat="42.92867" lon="0.16517">
        <ele>1796.4000244141</ele>
        <time>2014-08-31T09:27:26.000Z</time>
      </trkpt>
      <trkpt lat="42.92852" lon="0.16512">
        <ele>1803.5999755859</ele>
        <time>2014-08-31T09:27:32.000Z</time>
      </trkpt>
      <trkpt lat="42.92839" lon="0.16502">
        <ele>1810.5999755859</ele>
        <time>2014-08-31T09:27:37.000Z</time>
      </trkpt>
      <trkpt lat="42.9283" lon="0.16512">
        <ele>1821.4000244141</ele>
        <time>2014-08-31T09:27:43.000Z</time>
      </trkpt>
      <trkpt lat="42.92819" lon="0.16535">
        <ele>1831.5999755859</ele>
        <time>2014-08-31T09:27:52.000Z</time>
      </trkpt>
      <trkpt lat="42.92818" lon="0.16538">
        <ele>1831.8000488281</ele>
        <time>2014-08-31T09:27:53.000Z</time>
      </trkpt>
      <trkpt lat="42.92821" lon="0.16563">
        <ele>1835.8000488281</ele>
        <time>2014-08-31T09:28:04.000Z</time>
      </trkpt>
      <trkpt lat="42.92831" lon="0.16585">
        <ele>1835.4000244141</ele>
        <time>2014-08-31T09:28:21.000Z</time>
      </trkpt>
      <trkpt lat="42.92836" lon="0.16609">
        <ele>1840.1999511719</ele>
        <time>2014-08-31T09:28:30.000Z</time>
      </trkpt>
      <trkpt lat="42.92839" lon="0.16635">
        <ele>1840.8000488281</ele>
        <time>2014-08-31T09:28:39.000Z</time>
      </trkpt>
      <trkpt lat="42.92842" lon="0.16645">
        <ele>1835.8000488281</ele>
        <time>2014-08-31T09:28:42.000Z</time>
      </trkpt>
      <trkpt lat="42.92846" lon="0.16665">
        <ele>1826</ele>
        <time>2014-08-31T09:28:51.000Z</time>
      </trkpt>
      <trkpt lat="42.92848" lon="0.1667">
        <ele>1823</ele>
        <time>2014-08-31T09:28:55.000Z</time>
      </trkpt>
      <trkpt lat="42.92849" lon="0.16685">
        <ele>1817.8000488281</ele>
        <time>2014-08-31T09:29:04.000Z</time>
      </trkpt>
      <trkpt lat="42.9285" lon="0.16697">
        <ele>1812.8000488281</ele>
        <time>2014-08-31T09:29:09.000Z</time>
      </trkpt>
      <trkpt lat="42.92856" lon="0.1672">
        <ele>1800</ele>
        <time>2014-08-31T09:29:18.000Z</time>
      </trkpt>
      <trkpt lat="42.9286" lon="0.16733">
        <ele>1793.5999755859</ele>
        <time>2014-08-31T09:29:23.000Z</time>
      </trkpt>
      <trkpt lat="42.92862" lon="0.16747">
        <ele>1789.1999511719</ele>
        <time>2014-08-31T09:29:30.000Z</time>
      </trkpt>
      <trkpt lat="42.92863" lon="0.16755">
        <ele>1787</ele>
        <time>2014-08-31T09:29:35.000Z</time>
      </trkpt>
      <trkpt lat="42.92863" lon="0.16761">
        <ele>1787</ele>
        <time>2014-08-31T09:29:39.000Z</time>
      </trkpt>
      <trkpt lat="42.92867" lon="0.16787">
        <ele>1779.4000244141</ele>
        <time>2014-08-31T09:29:52.000Z</time>
      </trkpt>
      <trkpt lat="42.9287" lon="0.16804">
        <ele>1774.1999511719</ele>
        <time>2014-08-31T09:29:59.000Z</time>
      </trkpt>
      <trkpt lat="42.92876" lon="0.16822">
        <ele>1767</ele>
        <time>2014-08-31T09:30:07.000Z</time>
      </trkpt>
      <trkpt lat="42.92882" lon="0.16846">
        <ele>1758</ele>
        <time>2014-08-31T09:30:17.000Z</time>
      </trkpt>
      <trkpt lat="42.92887" lon="0.1687">
        <ele>1749.1999511719</ele>
        <time>2014-08-31T09:30:26.000Z</time>
      </trkpt>
      <trkpt lat="42.92889" lon="0.16896">
        <ele>1742.8000488281</ele>
        <time>2014-08-31T09:30:35.000Z</time>
      </trkpt>
      <trkpt lat="42.92891" lon="0.16923">
        <ele>1737.1999511719</ele>
        <time>2014-08-31T09:30:44.000Z</time>
      </trkpt>
      <trkpt lat="42.92892" lon="0.16949">
        <ele>1731.4000244141</ele>
        <time>2014-08-31T09:30:52.000Z</time>
      </trkpt>
      <trkpt lat="42.92891" lon="0.16974">
        <ele>1728.4000244141</ele>
        <time>2014-08-31T09:31:00.000Z</time>
      </trkpt>
      <trkpt lat="42.92892" lon="0.17">
        <ele>1725.8000488281</ele>
        <time>2014-08-31T09:31:09.000Z</time>
      </trkpt>
      <trkpt lat="42.92895" lon="0.17025">
        <ele>1717</ele>
        <time>2014-08-31T09:31:17.000Z</time>
      </trkpt>
      <trkpt lat="42.92894" lon="0.17043">
        <ele>1708</ele>
        <time>2014-08-31T09:31:23.000Z</time>
      </trkpt>
      <trkpt lat="42.92895" lon="0.17059">
        <ele>1706.8000488281</ele>
        <time>2014-08-31T09:31:34.000Z</time>
      </trkpt>
      <trkpt lat="42.92895" lon="0.17061">
        <ele>1706.8000488281</ele>
        <time>2014-08-31T09:31:36.000Z</time>
      </trkpt>
      <trkpt lat="42.92896" lon="0.17067">
        <ele>1706.4000244141</ele>
        <time>2014-08-31T09:31:40.000Z</time>
      </trkpt>
      <trkpt lat="42.92905" lon="0.17091">
        <ele>1702.8000488281</ele>
        <time>2014-08-31T09:31:49.000Z</time>
      </trkpt>
      <trkpt lat="42.92913" lon="0.17114">
        <ele>1699.5999755859</ele>
        <time>2014-08-31T09:31:57.000Z</time>
      </trkpt>
      <trkpt lat="42.92918" lon="0.17138">
        <ele>1699.4000244141</ele>
        <time>2014-08-31T09:32:04.000Z</time>
      </trkpt>
      <trkpt lat="42.92919" lon="0.17149">
        <ele>1699.1999511719</ele>
        <time>2014-08-31T09:32:09.000Z</time>
      </trkpt>
      <trkpt lat="42.9292" lon="0.17149">
        <ele>1699</ele>
        <time>2014-08-31T09:32:10.000Z</time>
      </trkpt>
      <trkpt lat="42.9292" lon="0.17153">
        <ele>1698.4000244141</ele>
        <time>2014-08-31T09:34:42.000Z</time>
      </trkpt>
      <trkpt lat="42.92922" lon="0.17179">
        <ele>1698.4000244141</ele>
        <time>2014-08-31T09:34:51.000Z</time>
      </trkpt>
      <trkpt lat="42.92919" lon="0.17205">
        <ele>1701.1999511719</ele>
        <time>2014-08-31T09:35:00.000Z</time>
      </trkpt>
      <trkpt lat="42.9292" lon="0.17206">
        <ele>1701</ele>
        <time>2014-08-31T09:35:01.000Z</time>
      </trkpt>
      <trkpt lat="42.92926" lon="0.17215">
        <ele>1696.8000488281</ele>
        <time>2014-08-31T09:35:09.000Z</time>
      </trkpt>
      <trkpt lat="42.92941" lon="0.1723">
        <ele>1688.8000488281</ele>
        <time>2014-08-31T09:35:23.000Z</time>
      </trkpt>
      <trkpt lat="42.92952" lon="0.17251">
        <ele>1683.1999511719</ele>
        <time>2014-08-31T09:35:35.000Z</time>
      </trkpt>
      <trkpt lat="42.92962" lon="0.17274">
        <ele>1678</ele>
        <time>2014-08-31T09:35:45.000Z</time>
      </trkpt>
      <trkpt lat="42.92965" lon="0.17281">
        <ele>1676.4000244141</ele>
        <time>2014-08-31T09:35:48.000Z</time>
      </trkpt>
      <trkpt lat="42.92972" lon="0.17305">
        <ele>1673.4000244141</ele>
        <time>2014-08-31T09:35:57.000Z</time>
      </trkpt>
      <trkpt lat="42.92973" lon="0.17312">
        <ele>1673.4000244141</ele>
        <time>2014-08-31T09:35:59.000Z</time>
      </trkpt>
      <trkpt lat="42.92976" lon="0.17337">
        <ele>1674</ele>
        <time>2014-08-31T09:36:07.000Z</time>
      </trkpt>
      <trkpt lat="42.92979" lon="0.17361">
        <ele>1673</ele>
        <time>2014-08-31T09:36:16.000Z</time>
      </trkpt>
      <trkpt lat="42.92981" lon="0.17386">
        <ele>1670.1999511719</ele>
        <time>2014-08-31T09:36:26.000Z</time>
      </trkpt>
      <trkpt lat="42.92979" lon="0.17389">
        <ele>1670.4000244141</ele>
        <time>2014-08-31T09:36:28.000Z</time>
      </trkpt>
      <trkpt lat="42.92985" lon="0.17396">
        <ele>1667.4000244141</ele>
        <time>2014-08-31T09:36:33.000Z</time>
      </trkpt>
      <trkpt lat="42.92983" lon="0.17419">
        <ele>1665.4000244141</ele>
        <time>2014-08-31T09:36:47.000Z</time>
      </trkpt>
      <trkpt lat="42.92981" lon="0.17439">
        <ele>1663.8000488281</ele>
        <time>2014-08-31T09:36:54.000Z</time>
      </trkpt>
      <trkpt lat="42.92986" lon="0.17464">
        <ele>1657.5999755859</ele>
        <time>2014-08-31T09:37:02.000Z</time>
      </trkpt>
      <trkpt lat="42.92991" lon="0.17481">
        <ele>1650.8000488281</ele>
        <time>2014-08-31T09:37:08.000Z</time>
      </trkpt>
      <trkpt lat="42.9299" lon="0.17495">
        <ele>1647.1999511719</ele>
        <time>2014-08-31T09:37:15.000Z</time>
      </trkpt>
      <trkpt lat="42.92985" lon="0.1752">
        <ele>1641.8000488281</ele>
        <time>2014-08-31T09:37:24.000Z</time>
      </trkpt>
      <trkpt lat="42.92979" lon="0.17545">
        <ele>1640.8000488281</ele>
        <time>2014-08-31T09:37:33.000Z</time>
      </trkpt>
      <trkpt lat="42.92968" lon="0.17568">
        <ele>1639.4000244141</ele>
        <time>2014-08-31T09:37:41.000Z</time>
      </trkpt>
      <trkpt lat="42.92956" lon="0.17587">
        <ele>1639.5999755859</ele>
        <time>2014-08-31T09:37:49.000Z</time>
      </trkpt>
      <trkpt lat="42.92946" lon="0.17608">
        <ele>1639.5999755859</ele>
        <time>2014-08-31T09:37:59.000Z</time>
      </trkpt>
      <trkpt lat="42.92934" lon="0.17631">
        <ele>1639.8000488281</ele>
        <time>2014-08-31T09:38:08.000Z</time>
      </trkpt>
      <trkpt lat="42.92928" lon="0.17654">
        <ele>1635.8000488281</ele>
        <time>2014-08-31T09:38:16.000Z</time>
      </trkpt>
      <trkpt lat="42.92923" lon="0.17679">
        <ele>1630.1999511719</ele>
        <time>2014-08-31T09:38:24.000Z</time>
      </trkpt>
      <trkpt lat="42.92919" lon="0.17705">
        <ele>1624</ele>
        <time>2014-08-31T09:38:32.000Z</time>
      </trkpt>
      <trkpt lat="42.92907" lon="0.17727">
        <ele>1624.1999511719</ele>
        <time>2014-08-31T09:38:40.000Z</time>
      </trkpt>
      <trkpt lat="42.92894" lon="0.17744">
        <ele>1626.4000244141</ele>
        <time>2014-08-31T09:38:47.000Z</time>
      </trkpt>
      <trkpt lat="42.92887" lon="0.1777">
        <ele>1622</ele>
        <time>2014-08-31T09:38:56.000Z</time>
      </trkpt>
      <trkpt lat="42.92881" lon="0.17794">
        <ele>1614.8000488281</ele>
        <time>2014-08-31T09:39:04.000Z</time>
      </trkpt>
      <trkpt lat="42.92868" lon="0.17813">
        <ele>1613.5999755859</ele>
        <time>2014-08-31T09:39:11.000Z</time>
      </trkpt>
      <trkpt lat="42.92862" lon="0.17838">
        <ele>1608.5999755859</ele>
        <time>2014-08-31T09:39:18.000Z</time>
      </trkpt>
      <trkpt lat="42.92853" lon="0.1786">
        <ele>1605.1999511719</ele>
        <time>2014-08-31T09:39:25.000Z</time>
      </trkpt>
      <trkpt lat="42.92842" lon="0.17883">
        <ele>1602.4000244141</ele>
        <time>2014-08-31T09:39:32.000Z</time>
      </trkpt>
      <trkpt lat="42.92833" lon="0.17904">
        <ele>1602</ele>
        <time>2014-08-31T09:39:40.000Z</time>
      </trkpt>
      <trkpt lat="42.92833" lon="0.17932">
        <ele>1596</ele>
        <time>2014-08-31T09:39:49.000Z</time>
      </trkpt>
      <trkpt lat="42.92837" lon="0.17959">
        <ele>1588</ele>
        <time>2014-08-31T09:39:57.000Z</time>
      </trkpt>
      <trkpt lat="42.92829" lon="0.17981">
        <ele>1587.1999511719</ele>
        <time>2014-08-31T09:40:04.000Z</time>
      </trkpt>
      <trkpt lat="42.92823" lon="0.18006">
        <ele>1583.8000488281</ele>
        <time>2014-08-31T09:40:13.000Z</time>
      </trkpt>
      <trkpt lat="42.92817" lon="0.18028">
        <ele>1581.8000488281</ele>
        <time>2014-08-31T09:40:24.000Z</time>
      </trkpt>
      <trkpt lat="42.92812" lon="0.18047">
        <ele>1580.8000488281</ele>
        <time>2014-08-31T09:40:36.000Z</time>
      </trkpt>
      <trkpt lat="42.92811" lon="0.18069">
        <ele>1580.5999755859</ele>
        <time>2014-08-31T09:40:49.000Z</time>
      </trkpt>
      <trkpt lat="42.92814" lon="0.18071">
        <ele>1579.1999511719</ele>
        <time>2014-08-31T09:40:50.000Z</time>
      </trkpt>
      <trkpt lat="42.92822" lon="0.18093">
        <ele>1574.5999755859</ele>
        <time>2014-08-31T09:40:58.000Z</time>
      </trkpt>
      <trkpt lat="42.92813" lon="0.18116">
        <ele>1574.4000244141</ele>
        <time>2014-08-31T09:41:06.000Z</time>
      </trkpt>
      <trkpt lat="42.92815" lon="0.18121">
        <ele>1572.1999511719</ele>
        <time>2014-08-31T09:41:10.000Z</time>
      </trkpt>
      <trkpt lat="42.92819" lon="0.18128">
        <ele>1569.1999511719</ele>
        <time>2014-08-31T09:41:16.000Z</time>
      </trkpt>
      <trkpt lat="42.92829" lon="0.18147">
        <ele>1566.8000488281</ele>
        <time>2014-08-31T09:41:29.000Z</time>
      </trkpt>
      <trkpt lat="42.92827" lon="0.18148">
        <ele>1567.1999511719</ele>
        <time>2014-08-31T09:41:31.000Z</time>
      </trkpt>
      <trkpt lat="42.92827" lon="0.18155">
        <ele>1567.4000244141</ele>
        <time>2014-08-31T09:41:36.000Z</time>
      </trkpt>
      <trkpt lat="42.92823" lon="0.1816">
        <ele>1568.1999511719</ele>
        <time>2014-08-31T09:41:41.000Z</time>
      </trkpt>
      <trkpt lat="42.92823" lon="0.18159">
        <ele>1568.1999511719</ele>
        <time>2014-08-31T09:41:43.000Z</time>
      </trkpt>
      <trkpt lat="42.92824" lon="0.18164">
        <ele>1567.8000488281</ele>
        <time>2014-08-31T09:42:15.000Z</time>
      </trkpt>
      <trkpt lat="42.92808" lon="0.18179">
        <ele>1571.8000488281</ele>
        <time>2014-08-31T09:42:21.000Z</time>
      </trkpt>
      <trkpt lat="42.92794" lon="0.18192">
        <ele>1568</ele>
        <time>2014-08-31T09:42:26.000Z</time>
      </trkpt>
      <trkpt lat="42.92806" lon="0.18206">
        <ele>1564.5999755859</ele>
        <time>2014-08-31T09:42:30.000Z</time>
      </trkpt>
      <trkpt lat="42.9282" lon="0.18231">
        <ele>1564.8000488281</ele>
        <time>2014-08-31T09:42:38.000Z</time>
      </trkpt>
      <trkpt lat="42.92817" lon="0.18257">
        <ele>1566.1999511719</ele>
        <time>2014-08-31T09:42:47.000Z</time>
      </trkpt>
      <trkpt lat="42.92811" lon="0.18261">
        <ele>1566.1999511719</ele>
        <time>2014-08-31T09:42:49.000Z</time>
      </trkpt>
      <trkpt lat="42.92797" lon="0.1828">
        <ele>1558.1999511719</ele>
        <time>2014-08-31T09:42:56.000Z</time>
      </trkpt>
      <trkpt lat="42.92794" lon="0.18312">
        <ele>1553.4000244141</ele>
        <time>2014-08-31T09:43:13.000Z</time>
      </trkpt>
      <trkpt lat="42.92773" lon="0.18318">
        <ele>1545.4000244141</ele>
        <time>2014-08-31T09:43:17.000Z</time>
      </trkpt>
      <trkpt lat="42.92768" lon="0.18324">
        <ele>1542.4000244141</ele>
        <time>2014-08-31T09:43:19.000Z</time>
      </trkpt>
      <trkpt lat="42.92765" lon="0.18348">
        <ele>1538</ele>
        <time>2014-08-31T09:43:27.000Z</time>
      </trkpt>
      <trkpt lat="42.9276" lon="0.18373">
        <ele>1533.1999511719</ele>
        <time>2014-08-31T09:43:35.000Z</time>
      </trkpt>
      <trkpt lat="42.92749" lon="0.18394">
        <ele>1534</ele>
        <time>2014-08-31T09:43:43.000Z</time>
      </trkpt>
      <trkpt lat="42.92733" lon="0.18406">
        <ele>1535.5999755859</ele>
        <time>2014-08-31T09:43:49.000Z</time>
      </trkpt>
      <trkpt lat="42.92717" lon="0.18419">
        <ele>1537.4000244141</ele>
        <time>2014-08-31T09:43:55.000Z</time>
      </trkpt>
      <trkpt lat="42.92695" lon="0.18426">
        <ele>1527.1999511719</ele>
        <time>2014-08-31T09:43:59.000Z</time>
      </trkpt>
      <trkpt lat="42.92677" lon="0.18434">
        <ele>1516.8000488281</ele>
        <time>2014-08-31T09:44:04.000Z</time>
      </trkpt>
      <trkpt lat="42.92658" lon="0.18439">
        <ele>1526.8000488281</ele>
        <time>2014-08-31T09:44:10.000Z</time>
      </trkpt>
      <trkpt lat="42.92651" lon="0.18455">
        <ele>1525</ele>
        <time>2014-08-31T09:44:20.000Z</time>
      </trkpt>
      <trkpt lat="42.92637" lon="0.18472">
        <ele>1531.4000244141</ele>
        <time>2014-08-31T09:44:27.000Z</time>
      </trkpt>
      <trkpt lat="42.92626" lon="0.18493">
        <ele>1539.1999511719</ele>
        <time>2014-08-31T09:44:35.000Z</time>
      </trkpt>
      <trkpt lat="42.92606" lon="0.18507">
        <ele>1535.1999511719</ele>
        <time>2014-08-31T09:44:42.000Z</time>
      </trkpt>
      <trkpt lat="42.92596" lon="0.18529">
        <ele>1525.1999511719</ele>
        <time>2014-08-31T09:44:50.000Z</time>
      </trkpt>
      <trkpt lat="42.92585" lon="0.1855">
        <ele>1522.8000488281</ele>
        <time>2014-08-31T09:44:59.000Z</time>
      </trkpt>
      <trkpt lat="42.92573" lon="0.18573">
        <ele>1529</ele>
        <time>2014-08-31T09:45:08.000Z</time>
      </trkpt>
      <trkpt lat="42.92572" lon="0.18581">
        <ele>1528.1999511719</ele>
        <time>2014-08-31T09:45:11.000Z</time>
      </trkpt>
      <trkpt lat="42.92568" lon="0.18605">
        <ele>1527</ele>
        <time>2014-08-31T09:45:20.000Z</time>
      </trkpt>
      <trkpt lat="42.92561" lon="0.18628">
        <ele>1521.1999511719</ele>
        <time>2014-08-31T09:45:30.000Z</time>
      </trkpt>
      <trkpt lat="42.92565" lon="0.18632">
        <ele>1517.5999755859</ele>
        <time>2014-08-31T09:45:32.000Z</time>
      </trkpt>
      <trkpt lat="42.92569" lon="0.18646">
        <ele>1512.4000244141</ele>
        <time>2014-08-31T09:45:44.000Z</time>
      </trkpt>
      <trkpt lat="42.92573" lon="0.1865">
        <ele>1508.1999511719</ele>
        <time>2014-08-31T09:45:47.000Z</time>
      </trkpt>
      <trkpt lat="42.92574" lon="0.18655">
        <ele>1507</ele>
        <time>2014-08-31T09:45:51.000Z</time>
      </trkpt>
      <trkpt lat="42.92574" lon="0.18659">
        <ele>1506.8000488281</ele>
        <time>2014-08-31T09:45:55.000Z</time>
      </trkpt>
      <trkpt lat="42.92561" lon="0.1867">
        <ele>1514.4000244141</ele>
        <time>2014-08-31T09:46:04.000Z</time>
      </trkpt>
      <trkpt lat="42.92546" lon="0.18686">
        <ele>1517.4000244141</ele>
        <time>2014-08-31T09:46:10.000Z</time>
      </trkpt>
      <trkpt lat="42.92541" lon="0.18711">
        <ele>1508.1999511719</ele>
        <time>2014-08-31T09:46:19.000Z</time>
      </trkpt>
      <trkpt lat="42.92533" lon="0.18734">
        <ele>1507</ele>
        <time>2014-08-31T09:46:30.000Z</time>
      </trkpt>
      <trkpt lat="42.92525" lon="0.18807">
        <ele>1479.8000488281</ele>
        <time>2014-08-31T09:46:58.000Z</time>
      </trkpt>
      <trkpt lat="42.92531" lon="0.18824">
        <ele>1474.5999755859</ele>
        <time>2014-08-31T09:47:03.000Z</time>
      </trkpt>
      <trkpt lat="42.92528" lon="0.18829">
        <ele>1472.8000488281</ele>
        <time>2014-08-31T09:47:05.000Z</time>
      </trkpt>
      <trkpt lat="42.92528" lon="0.18831">
        <ele>1472</ele>
        <time>2014-08-31T09:47:49.000Z</time>
      </trkpt>
      <trkpt lat="42.92523" lon="0.18851">
        <ele>1464.8000488281</ele>
        <time>2014-08-31T09:47:57.000Z</time>
      </trkpt>
      <trkpt lat="42.92506" lon="0.18868">
        <ele>1460.4000244141</ele>
        <time>2014-08-31T09:48:03.000Z</time>
      </trkpt>
      <trkpt lat="42.92505" lon="0.18872">
        <ele>1460.4000244141</ele>
        <time>2014-08-31T09:48:04.000Z</time>
      </trkpt>
      <trkpt lat="42.92498" lon="0.18878">
        <ele>1462.5999755859</ele>
        <time>2014-08-31T09:48:06.000Z</time>
      </trkpt>
      <trkpt lat="42.92487" lon="0.18901">
        <ele>1465</ele>
        <time>2014-08-31T09:48:13.000Z</time>
      </trkpt>
      <trkpt lat="42.9249" lon="0.18915">
        <ele>1459.1999511719</ele>
        <time>2014-08-31T09:48:17.000Z</time>
      </trkpt>
      <trkpt lat="42.9249" lon="0.18918">
        <ele>1458.8000488281</ele>
        <time>2014-08-31T09:48:18.000Z</time>
      </trkpt>
      <trkpt lat="42.92538" lon="0.18935">
        <ele>1445.5999755859</ele>
        <time>2014-08-31T09:50:44.000Z</time>
      </trkpt>
      <trkpt lat="42.92534" lon="0.18961">
        <ele>1439</ele>
        <time>2014-08-31T09:50:54.000Z</time>
      </trkpt>
      <trkpt lat="42.92534" lon="0.18967">
        <ele>1438.5999755859</ele>
        <time>2014-08-31T09:50:56.000Z</time>
      </trkpt>
      <trkpt lat="42.9253" lon="0.18984">
        <ele>1437.4000244141</ele>
        <time>2014-08-31T09:51:01.000Z</time>
      </trkpt>
      <trkpt lat="42.92523" lon="0.19008">
        <ele>1435</ele>
        <time>2014-08-31T09:51:09.000Z</time>
      </trkpt>
      <trkpt lat="42.92518" lon="0.19032">
        <ele>1433</ele>
        <time>2014-08-31T09:51:17.000Z</time>
      </trkpt>
      <trkpt lat="42.92511" lon="0.19055">
        <ele>1431.1999511719</ele>
        <time>2014-08-31T09:51:25.000Z</time>
      </trkpt>
      <trkpt lat="42.92517" lon="0.19083">
        <ele>1430.4000244141</ele>
        <time>2014-08-31T09:51:34.000Z</time>
      </trkpt>
      <trkpt lat="42.92512" lon="0.1911">
        <ele>1427.4000244141</ele>
        <time>2014-08-31T09:51:43.000Z</time>
      </trkpt>
      <trkpt lat="42.92507" lon="0.19137">
        <ele>1424.4000244141</ele>
        <time>2014-08-31T09:51:51.000Z</time>
      </trkpt>
      <trkpt lat="42.92508" lon="0.19165">
        <ele>1422</ele>
        <time>2014-08-31T09:52:00.000Z</time>
      </trkpt>
      <trkpt lat="42.92507" lon="0.19171">
        <ele>1421.5999755859</ele>
        <time>2014-08-31T09:52:02.000Z</time>
      </trkpt>
      <trkpt lat="42.92509" lon="0.19189">
        <ele>1420.1999511719</ele>
        <time>2014-08-31T09:52:10.000Z</time>
      </trkpt>
      <trkpt lat="42.92517" lon="0.1919">
        <ele>1421.5999755859</ele>
        <time>2014-08-31T09:52:11.000Z</time>
      </trkpt>
      <trkpt lat="42.92544" lon="0.19239">
        <ele>1416.1999511719</ele>
        <time>2014-08-31T09:52:39.000Z</time>
      </trkpt>
      <trkpt lat="42.9254" lon="0.19266">
        <ele>1413.4000244141</ele>
        <time>2014-08-31T09:52:47.000Z</time>
      </trkpt>
      <trkpt lat="42.92546" lon="0.19291">
        <ele>1412.4000244141</ele>
        <time>2014-08-31T09:52:55.000Z</time>
      </trkpt>
      <trkpt lat="42.92553" lon="0.19299">
        <ele>1410.8000488281</ele>
        <time>2014-08-31T09:52:59.000Z</time>
      </trkpt>
      <trkpt lat="42.92559" lon="0.19316">
        <ele>1406.5999755859</ele>
        <time>2014-08-31T09:53:11.000Z</time>
      </trkpt>
      <trkpt lat="42.92574" lon="0.19328">
        <ele>1402.1999511719</ele>
        <time>2014-08-31T09:53:21.000Z</time>
      </trkpt>
      <trkpt lat="42.92592" lon="0.19331">
        <ele>1399.8000488281</ele>
        <time>2014-08-31T09:53:34.000Z</time>
      </trkpt>
      <trkpt lat="42.92609" lon="0.19336">
        <ele>1401.1999511719</ele>
        <time>2014-08-31T09:53:42.000Z</time>
      </trkpt>
      <trkpt lat="42.92619" lon="0.19352">
        <ele>1399.1999511719</ele>
        <time>2014-08-31T09:53:52.000Z</time>
      </trkpt>
      <trkpt lat="42.92628" lon="0.19362">
        <ele>1398.1999511719</ele>
        <time>2014-08-31T09:54:00.000Z</time>
      </trkpt>
      <trkpt lat="42.92627" lon="0.19382">
        <ele>1393.5999755859</ele>
        <time>2014-08-31T09:54:11.000Z</time>
      </trkpt>
      <trkpt lat="42.92628" lon="0.194">
        <ele>1388.8000488281</ele>
        <time>2014-08-31T09:54:21.000Z</time>
      </trkpt>
      <trkpt lat="42.92633" lon="0.19422">
        <ele>1383.1999511719</ele>
        <time>2014-08-31T09:54:34.000Z</time>
      </trkpt>
      <trkpt lat="42.92629" lon="0.19432">
        <ele>1381.1999511719</ele>
        <time>2014-08-31T09:54:40.000Z</time>
      </trkpt>
      <trkpt lat="42.92628" lon="0.1945">
        <ele>1378</ele>
        <time>2014-08-31T09:54:51.000Z</time>
      </trkpt>
      <trkpt lat="42.92629" lon="0.19453">
        <ele>1377.4000244141</ele>
        <time>2014-08-31T09:54:53.000Z</time>
      </trkpt>
      <trkpt lat="42.92634" lon="0.19478">
        <ele>1371.5999755859</ele>
        <time>2014-08-31T09:55:06.000Z</time>
      </trkpt>
      <trkpt lat="42.92639" lon="0.19501">
        <ele>1365.1999511719</ele>
        <time>2014-08-31T09:55:14.000Z</time>
      </trkpt>
      <trkpt lat="42.92643" lon="0.19514">
        <ele>1361.8000488281</ele>
        <time>2014-08-31T09:55:21.000Z</time>
      </trkpt>
      <trkpt lat="42.92631" lon="0.19534">
        <ele>1356.1999511719</ele>
        <time>2014-08-31T09:55:30.000Z</time>
      </trkpt>
      <trkpt lat="42.9263" lon="0.19538">
        <ele>1355.1999511719</ele>
        <time>2014-08-31T09:55:32.000Z</time>
      </trkpt>
      <trkpt lat="42.92631" lon="0.1954">
        <ele>1354.8000488281</ele>
        <time>2014-08-31T09:55:33.000Z</time>
      </trkpt>
      <trkpt lat="42.92632" lon="0.19549">
        <ele>1352</ele>
        <time>2014-08-31T09:55:39.000Z</time>
      </trkpt>
      <trkpt lat="42.92631" lon="0.19555">
        <ele>1349.5999755859</ele>
        <time>2014-08-31T09:55:43.000Z</time>
      </trkpt>
      <trkpt lat="42.92639" lon="0.19577">
        <ele>1341.5999755859</ele>
        <time>2014-08-31T09:55:56.000Z</time>
      </trkpt>
      <trkpt lat="42.92642" lon="0.19581">
        <ele>1340.4000244141</ele>
        <time>2014-08-31T09:56:00.000Z</time>
      </trkpt>
      <trkpt lat="42.92644" lon="0.19584">
        <ele>1339</ele>
        <time>2014-08-31T09:56:04.000Z</time>
      </trkpt>
      <trkpt lat="42.9265" lon="0.19586">
        <ele>1338.4000244141</ele>
        <time>2014-08-31T09:56:11.000Z</time>
      </trkpt>
      <trkpt lat="42.92665" lon="0.19599">
        <ele>1333.8000488281</ele>
        <time>2014-08-31T09:56:41.000Z</time>
      </trkpt>
      <trkpt lat="42.92676" lon="0.19614">
        <ele>1329.1999511719</ele>
        <time>2014-08-31T09:56:52.000Z</time>
      </trkpt>
      <trkpt lat="42.92681" lon="0.19621">
        <ele>1328.8000488281</ele>
        <time>2014-08-31T09:56:58.000Z</time>
      </trkpt>
      <trkpt lat="42.92682" lon="0.19628">
        <ele>1326.1999511719</ele>
        <time>2014-08-31T09:57:07.000Z</time>
      </trkpt>
      <trkpt lat="42.92681" lon="0.1964">
        <ele>1322.4000244141</ele>
        <time>2014-08-31T09:57:24.000Z</time>
      </trkpt>
      <trkpt lat="42.92671" lon="0.19665">
        <ele>1312.8000488281</ele>
        <time>2014-08-31T09:57:41.000Z</time>
      </trkpt>
      <trkpt lat="42.92674" lon="0.19683">
        <ele>1308</ele>
        <time>2014-08-31T09:57:49.000Z</time>
      </trkpt>
      <trkpt lat="42.92687" lon="0.19701">
        <ele>1307.4000244141</ele>
        <time>2014-08-31T09:57:59.000Z</time>
      </trkpt>
      <trkpt lat="42.92689" lon="0.19707">
        <ele>1306.5999755859</ele>
        <time>2014-08-31T09:58:02.000Z</time>
      </trkpt>
      <trkpt lat="42.92694" lon="0.19731">
        <ele>1302.5999755859</ele>
        <time>2014-08-31T09:58:13.000Z</time>
      </trkpt>
      <trkpt lat="42.92694" lon="0.19733">
        <ele>1302.4000244141</ele>
        <time>2014-08-31T09:58:14.000Z</time>
      </trkpt>
      <trkpt lat="42.92688" lon="0.19745">
        <ele>1297.4000244141</ele>
        <time>2014-08-31T09:58:22.000Z</time>
      </trkpt>
      <trkpt lat="42.92708" lon="0.19775">
        <ele>1297.5999755859</ele>
        <time>2014-08-31T09:58:34.000Z</time>
      </trkpt>
      <trkpt lat="42.92725" lon="0.19794">
        <ele>1299.4000244141</ele>
        <time>2014-08-31T09:58:43.000Z</time>
      </trkpt>
      <trkpt lat="42.92736" lon="0.19796">
        <ele>1303.1999511719</ele>
        <time>2014-08-31T09:58:54.000Z</time>
      </trkpt>
      <trkpt lat="42.92721" lon="0.19819">
        <ele>1290.8000488281</ele>
        <time>2014-08-31T09:59:14.000Z</time>
      </trkpt>
      <trkpt lat="42.92713" lon="0.19825">
        <ele>1286.1999511719</ele>
        <time>2014-08-31T09:59:20.000Z</time>
      </trkpt>
      <trkpt lat="42.927" lon="0.19844">
        <ele>1277.8000488281</ele>
        <time>2014-08-31T09:59:31.000Z</time>
      </trkpt>
      <trkpt lat="42.92698" lon="0.19855">
        <ele>1275</ele>
        <time>2014-08-31T09:59:37.000Z</time>
      </trkpt>
      <trkpt lat="42.92701" lon="0.19878">
        <ele>1271.1999511719</ele>
        <time>2014-08-31T09:59:46.000Z</time>
      </trkpt>
      <trkpt lat="42.92706" lon="0.19902">
        <ele>1264</ele>
        <time>2014-08-31T09:59:54.000Z</time>
      </trkpt>
      <trkpt lat="42.9273" lon="0.19906">
        <ele>1268.8000488281</ele>
        <time>2014-08-31T09:59:55.000Z</time>
      </trkpt>
      <trkpt lat="42.92751" lon="0.19917">
        <ele>1270.4000244141</ele>
        <time>2014-08-31T10:00:00.000Z</time>
      </trkpt>
      <trkpt lat="42.92757" lon="0.19922">
        <ele>1270.4000244141</ele>
        <time>2014-08-31T10:00:02.000Z</time>
      </trkpt>
      <trkpt lat="42.92768" lon="0.19944">
        <ele>1267</ele>
        <time>2014-08-31T10:00:13.000Z</time>
      </trkpt>
      <trkpt lat="42.92782" lon="0.19962">
        <ele>1265.5999755859</ele>
        <time>2014-08-31T10:00:21.000Z</time>
      </trkpt>
      <trkpt lat="42.92796" lon="0.1998">
        <ele>1263.8000488281</ele>
        <time>2014-08-31T10:00:28.000Z</time>
      </trkpt>
      <trkpt lat="42.92811" lon="0.19997">
        <ele>1262.4000244141</ele>
        <time>2014-08-31T10:00:36.000Z</time>
      </trkpt>
      <trkpt lat="42.92824" lon="0.20016">
        <ele>1258.8000488281</ele>
        <time>2014-08-31T10:00:45.000Z</time>
      </trkpt>
      <trkpt lat="42.92836" lon="0.20036">
        <ele>1255</ele>
        <time>2014-08-31T10:00:53.000Z</time>
      </trkpt>
      <trkpt lat="42.92849" lon="0.20057">
        <ele>1251</ele>
        <time>2014-08-31T10:01:01.000Z</time>
      </trkpt>
      <trkpt lat="42.9286" lon="0.20082">
        <ele>1245.1999511719</ele>
        <time>2014-08-31T10:01:09.000Z</time>
      </trkpt>
      <trkpt lat="42.92875" lon="0.20097">
        <ele>1243.5999755859</ele>
        <time>2014-08-31T10:01:15.000Z</time>
      </trkpt>
      <trkpt lat="42.92891" lon="0.20116">
        <ele>1241.4000244141</ele>
        <time>2014-08-31T10:01:22.000Z</time>
      </trkpt>
      <trkpt lat="42.92908" lon="0.2013">
        <ele>1240.8000488281</ele>
        <time>2014-08-31T10:01:29.000Z</time>
      </trkpt>
      <trkpt lat="42.92925" lon="0.2014">
        <ele>1241</ele>
        <time>2014-08-31T10:01:36.000Z</time>
      </trkpt>
      <trkpt lat="42.92941" lon="0.20152">
        <ele>1239</ele>
        <time>2014-08-31T10:01:42.000Z</time>
      </trkpt>
      <trkpt lat="42.92954" lon="0.20167">
        <ele>1235.5999755859</ele>
        <time>2014-08-31T10:01:48.000Z</time>
      </trkpt>
      <trkpt lat="42.9297" lon="0.20179">
        <ele>1233.4000244141</ele>
        <time>2014-08-31T10:01:55.000Z</time>
      </trkpt>
      <trkpt lat="42.92985" lon="0.20193">
        <ele>1230.5999755859</ele>
        <time>2014-08-31T10:02:02.000Z</time>
      </trkpt>
      <trkpt lat="42.93001" lon="0.2021">
        <ele>1226.8000488281</ele>
        <time>2014-08-31T10:02:10.000Z</time>
      </trkpt>
      <trkpt lat="42.93017" lon="0.20225">
        <ele>1226.8000488281</ele>
        <time>2014-08-31T10:02:17.000Z</time>
      </trkpt>
      <trkpt lat="42.93031" lon="0.20245">
        <ele>1226.1999511719</ele>
        <time>2014-08-31T10:02:24.000Z</time>
      </trkpt>
      <trkpt lat="42.93043" lon="0.20264">
        <ele>1225.1999511719</ele>
        <time>2014-08-31T10:02:31.000Z</time>
      </trkpt>
      <trkpt lat="42.93045" lon="0.20269">
        <ele>1225</ele>
        <time>2014-08-31T10:02:33.000Z</time>
      </trkpt>
      <trkpt lat="42.9305" lon="0.20288">
        <ele>1222.4000244141</ele>
        <time>2014-08-31T10:02:46.000Z</time>
      </trkpt>
      <trkpt lat="42.93045" lon="0.20312">
        <ele>1215</ele>
        <time>2014-08-31T10:03:00.000Z</time>
      </trkpt>
      <trkpt lat="42.93044" lon="0.20314">
        <ele>1214.1999511719</ele>
        <time>2014-08-31T10:03:02.000Z</time>
      </trkpt>
      <trkpt lat="42.93029" lon="0.20326">
        <ele>1208.5999755859</ele>
        <time>2014-08-31T10:03:14.000Z</time>
      </trkpt>
      <trkpt lat="42.9301" lon="0.2033">
        <ele>1206.8000488281</ele>
        <time>2014-08-31T10:03:23.000Z</time>
      </trkpt>
      <trkpt lat="42.93004" lon="0.20334">
        <ele>1206</ele>
        <time>2014-08-31T10:03:26.000Z</time>
      </trkpt>
      <trkpt lat="42.92991" lon="0.20344">
        <ele>1204</ele>
        <time>2014-08-31T10:03:33.000Z</time>
      </trkpt>
      <trkpt lat="42.92982" lon="0.20353">
        <ele>1202.4000244141</ele>
        <time>2014-08-31T10:03:38.000Z</time>
      </trkpt>
    </trkseg>
  </trk>
</gpx>